<?xml version='1.0' encoding='UTF-8'?><gpx version="1.1" creator="JPX - https://github.com/jenetics/jpx" xmlns="http://www.topografix.com/GPX/1/1"><trk><trkseg><trkpt lat="45.7894272" lon="10.6172696"><ele>1239.0</ele><time>2026-04-06T06:53:21.061Z</time></trkpt><trkpt lat="45.7894506" lon="10.6173618"><ele>1239.0</ele><time>2026-04-06T06:53:32.071Z</time></trkpt><trkpt lat="45.7894958" lon="10.617439"><ele>1239.0</ele><time>2026-04-06T06:53:40.969Z</time></trkpt><trkpt lat="45.789517" lon="10.6175278"><ele>1239.0</ele><time>2026-04-06T06:53:52.07Z</time></trkpt><trkpt lat="45.789564" lon="10.6175984"><ele>1239.0</ele><time>2026-04-06T06:54:05.069Z</time></trkpt><trkpt lat="45.7895851" lon="10.6177506"><ele>1239.0</ele><time>2026-04-06T06:54:25.074Z</time></trkpt><trkpt lat="45.7896264" lon="10.6178221"><ele>1239.0</ele><time>2026-04-06T06:54:34.079Z</time></trkpt><trkpt lat="45.7896634" lon="10.6179295"><ele>1239.2857142857142</ele><time>2026-04-06T06:54:52.991Z</time></trkpt><trkpt lat="45.7896757" lon="10.6180196"><ele>1239.5714285714284</ele><time>2026-04-06T06:55:03.085Z</time></trkpt><trkpt lat="45.7897117" lon="10.6181043"><ele>1239.857142857143</ele><time>2026-04-06T06:55:15.062Z</time></trkpt><trkpt lat="45.7897558" lon="10.6181769"><ele>1240.142857142857</ele><time>2026-04-06T06:55:25.056Z</time></trkpt><trkpt lat="45.789808" lon="10.6182311"><ele>1240.4285714285713</ele><time>2026-04-06T06:55:35.053Z</time></trkpt><trkpt lat="45.7898564" lon="10.6182905"><ele>1240.7142857142858</ele><time>2026-04-06T06:55:45.075Z</time></trkpt><trkpt lat="45.7899148" lon="10.6183453"><ele>1241.0</ele><time>2026-04-06T06:55:54.083Z</time></trkpt><trkpt lat="45.7899677" lon="10.6184043"><ele>1241.0</ele><time>2026-04-06T06:56:03.084Z</time></trkpt><trkpt lat="45.7900242" lon="10.6184482"><ele>1241.0</ele><time>2026-04-06T06:56:11.072Z</time></trkpt><trkpt lat="45.7901117" lon="10.6184761"><ele>1241.0</ele><time>2026-04-06T06:56:34.056Z</time></trkpt><trkpt lat="45.79017" lon="10.618511"><ele>1241.0</ele><time>2026-04-06T06:56:50.062Z</time></trkpt><trkpt lat="45.7902384" lon="10.6185192"><ele>1241.0</ele><time>2026-04-06T06:57:12.105Z</time></trkpt><trkpt lat="45.7903079" lon="10.6185317"><ele>1241.0</ele><time>2026-04-06T06:57:19.088Z</time></trkpt><trkpt lat="45.7903572" lon="10.6185988"><ele>1241.0</ele><time>2026-04-06T06:57:35.083Z</time></trkpt><trkpt lat="45.7903848" lon="10.6186851"><ele>1243.7142857142858</ele><time>2026-04-06T06:57:45.692Z</time></trkpt><trkpt lat="45.7904302" lon="10.6187519"><ele>1246.4285714285713</ele><time>2026-04-06T06:57:52.006Z</time></trkpt><trkpt lat="45.7904861" lon="10.6188108"><ele>1249.142857142857</ele><time>2026-04-06T06:57:57.072Z</time></trkpt><trkpt lat="45.7905352" lon="10.6188792"><ele>1251.857142857143</ele><time>2026-04-06T06:58:04.047Z</time></trkpt><trkpt lat="45.7905778" lon="10.6189505"><ele>1254.5714285714284</ele><time>2026-04-06T06:58:09.897Z</time></trkpt><trkpt lat="45.790641" lon="10.6190159"><ele>1257.2857142857142</ele><time>2026-04-06T06:58:18.068Z</time></trkpt><trkpt lat="45.7907018" lon="10.6190562"><ele>1260.0</ele><time>2026-04-06T06:58:24.071Z</time></trkpt><trkpt lat="45.7907591" lon="10.6190993"><ele>1260.0</ele><time>2026-04-06T06:58:31.055Z</time></trkpt><trkpt lat="45.7908178" lon="10.619147"><ele>1260.0</ele><time>2026-04-06T06:58:38.056Z</time></trkpt><trkpt lat="45.7908861" lon="10.619174"><ele>1260.0</ele><time>2026-04-06T06:58:45.07Z</time></trkpt><trkpt lat="45.7909536" lon="10.6191902"><ele>1260.0</ele><time>2026-04-06T06:58:53.087Z</time></trkpt><trkpt lat="45.7910201" lon="10.6192092"><ele>1260.0</ele><time>2026-04-06T06:59:00.068Z</time></trkpt><trkpt lat="45.7910819" lon="10.6192391"><ele>1260.0</ele><time>2026-04-06T06:59:07.09Z</time></trkpt><trkpt lat="45.7911519" lon="10.6192706"><ele>1260.0</ele><time>2026-04-06T06:59:14.089Z</time></trkpt><trkpt lat="45.7912098" lon="10.6193064"><ele>1261.857142857143</ele><time>2026-04-06T06:59:22.962Z</time></trkpt><trkpt lat="45.7912721" lon="10.6193402"><ele>1263.7142857142858</ele><time>2026-04-06T06:59:32.957Z</time></trkpt><trkpt lat="45.7913107" lon="10.6194137"><ele>1265.5714285714284</ele><time>2026-04-06T06:59:42.076Z</time></trkpt><trkpt lat="45.7913208" lon="10.6195114"><ele>1267.4285714285716</ele><time>2026-04-06T06:59:50.085Z</time></trkpt><trkpt lat="45.7913108" lon="10.6196027"><ele>1269.2857142857142</ele><time>2026-04-06T07:00:01.065Z</time></trkpt><trkpt lat="45.7913032" lon="10.6196943"><ele>1271.142857142857</ele><time>2026-04-06T07:00:12.082Z</time></trkpt><trkpt lat="45.7912959" lon="10.6197876"><ele>1273.0</ele><time>2026-04-06T07:00:23.056Z</time></trkpt><trkpt lat="45.7912713" lon="10.6198736"><ele>1273.142857142857</ele><time>2026-04-06T07:00:50.038Z</time></trkpt><trkpt lat="45.7913001" lon="10.6199611"><ele>1273.2857142857142</ele><time>2026-04-06T07:00:56.043Z</time></trkpt><trkpt lat="45.7913596" lon="10.6200077"><ele>1273.4285714285716</ele><time>2026-04-06T07:01:01.066Z</time></trkpt><trkpt lat="45.7914318" lon="10.62004"><ele>1273.5714285714284</ele><time>2026-04-06T07:01:06.063Z</time></trkpt><trkpt lat="45.7914826" lon="10.6201097"><ele>1273.7142857142858</ele><time>2026-04-06T07:01:12.058Z</time></trkpt><trkpt lat="45.7915292" lon="10.6201716"><ele>1273.857142857143</ele><time>2026-04-06T07:01:19.078Z</time></trkpt><trkpt lat="45.7915757" lon="10.6202484"><ele>1274.0</ele><time>2026-04-06T07:01:28.079Z</time></trkpt><trkpt lat="45.7916328" lon="10.6203072"><ele>1274.2857142857142</ele><time>2026-04-06T07:01:36.076Z</time></trkpt><trkpt lat="45.7916847" lon="10.6203606"><ele>1274.5714285714284</ele><time>2026-04-06T07:01:44.06Z</time></trkpt><trkpt lat="45.7917336" lon="10.6204237"><ele>1274.857142857143</ele><time>2026-04-06T07:01:51.06Z</time></trkpt><trkpt lat="45.7917692" lon="10.6204983"><ele>1275.142857142857</ele><time>2026-04-06T07:01:58.058Z</time></trkpt><trkpt lat="45.7918251" lon="10.6205557"><ele>1275.4285714285713</ele><time>2026-04-06T07:02:12.081Z</time></trkpt><trkpt lat="45.7918781" lon="10.6206156"><ele>1275.7142857142858</ele><time>2026-04-06T07:02:21.084Z</time></trkpt><trkpt lat="45.7919333" lon="10.6206607"><ele>1276.0</ele><time>2026-04-06T07:02:29.021Z</time></trkpt><trkpt lat="45.7920034" lon="10.620683"><ele>1279.142857142857</ele><time>2026-04-06T07:02:38.037Z</time></trkpt><trkpt lat="45.7920732" lon="10.620703"><ele>1282.2857142857142</ele><time>2026-04-06T07:02:46.079Z</time></trkpt><trkpt lat="45.7921397" lon="10.6207311"><ele>1285.4285714285713</ele><time>2026-04-06T07:02:55.055Z</time></trkpt><trkpt lat="45.792207" lon="10.6207562"><ele>1288.5714285714284</ele><time>2026-04-06T07:03:06.066Z</time></trkpt><trkpt lat="45.792263" lon="10.6208006"><ele>1291.7142857142858</ele><time>2026-04-06T07:03:13.087Z</time></trkpt><trkpt lat="45.7923231" lon="10.6208315"><ele>1294.8571428571427</ele><time>2026-04-06T07:03:23.016Z</time></trkpt><trkpt lat="45.7923739" lon="10.620896"><ele>1298.0</ele><time>2026-04-06T07:03:42.049Z</time></trkpt><trkpt lat="45.7924173" lon="10.6209662"><ele>1297.9999999999998</ele><time>2026-04-06T07:03:54.046Z</time></trkpt><trkpt lat="45.7924718" lon="10.6210301"><ele>1298.0</ele><time>2026-04-06T07:04:04.054Z</time></trkpt><trkpt lat="45.7925155" lon="10.6210966"><ele>1298.0</ele><time>2026-04-06T07:04:14.075Z</time></trkpt><trkpt lat="45.7925709" lon="10.621142"><ele>1298.0</ele><time>2026-04-06T07:04:24.082Z</time></trkpt><trkpt lat="45.7926322" lon="10.6211692"><ele>1298.0</ele><time>2026-04-06T07:04:32.038Z</time></trkpt><trkpt lat="45.7926974" lon="10.6211938"><ele>1297.9999999999998</ele><time>2026-04-06T07:04:43.097Z</time></trkpt><trkpt lat="45.792759" lon="10.6212143"><ele>1298.0</ele><time>2026-04-06T07:04:52.066Z</time></trkpt><trkpt lat="45.7928151" lon="10.6212729"><ele>1298.142857142857</ele><time>2026-04-06T07:05:17.063Z</time></trkpt><trkpt lat="45.7928801" lon="10.6212809"><ele>1298.2857142857142</ele><time>2026-04-06T07:05:24.065Z</time></trkpt><trkpt lat="45.7929481" lon="10.6212911"><ele>1298.4285714285716</ele><time>2026-04-06T07:05:33.12Z</time></trkpt><trkpt lat="45.7930138" lon="10.6212975"><ele>1298.5714285714284</ele><time>2026-04-06T07:05:40.082Z</time></trkpt><trkpt lat="45.7930754" lon="10.6212637"><ele>1298.7142857142858</ele><time>2026-04-06T07:05:49.065Z</time></trkpt><trkpt lat="45.7931357" lon="10.6212175"><ele>1298.857142857143</ele><time>2026-04-06T07:05:59.055Z</time></trkpt><trkpt lat="45.7931891" lon="10.6211617"><ele>1299.0</ele><time>2026-04-06T07:06:08.083Z</time></trkpt><trkpt lat="45.793253" lon="10.621129"><ele>1301.1428571428573</ele><time>2026-04-06T07:06:18.089Z</time></trkpt><trkpt lat="45.7933133" lon="10.6210911"><ele>1303.2857142857142</ele><time>2026-04-06T07:06:28.09Z</time></trkpt><trkpt lat="45.7933754" lon="10.6210531"><ele>1305.4285714285716</ele><time>2026-04-06T07:06:37.954Z</time></trkpt><trkpt lat="45.793434" lon="10.6209975"><ele>1307.5714285714287</ele><time>2026-04-06T07:06:46.078Z</time></trkpt><trkpt lat="45.7934915" lon="10.6209438"><ele>1309.7142857142858</ele><time>2026-04-06T07:06:54.07Z</time></trkpt><trkpt lat="45.7935466" lon="10.6208938"><ele>1311.857142857143</ele><time>2026-04-06T07:07:05.044Z</time></trkpt><trkpt lat="45.7936073" lon="10.6208491"><ele>1314.0</ele><time>2026-04-06T07:07:13.08Z</time></trkpt><trkpt lat="45.7936722" lon="10.6208052"><ele>1314.0</ele><time>2026-04-06T07:07:19.085Z</time></trkpt><trkpt lat="45.7937279" lon="10.6207581"><ele>1314.0</ele><time>2026-04-06T07:07:27.001Z</time></trkpt><trkpt lat="45.7937876" lon="10.6207114"><ele>1314.0</ele><time>2026-04-06T07:07:40.085Z</time></trkpt><trkpt lat="45.7938424" lon="10.6206664"><ele>1314.0</ele><time>2026-04-06T07:07:49.113Z</time></trkpt><trkpt lat="45.7938902" lon="10.6206039"><ele>1314.0</ele><time>2026-04-06T07:08:00.077Z</time></trkpt><trkpt lat="45.7939259" lon="10.6205277"><ele>1314.0</ele><time>2026-04-06T07:08:09.035Z</time></trkpt><trkpt lat="45.7939728" lon="10.6204661"><ele>1314.0</ele><time>2026-04-06T07:08:27.06Z</time></trkpt><trkpt lat="45.7940273" lon="10.6204068"><ele>1314.0</ele><time>2026-04-06T07:08:36.077Z</time></trkpt><trkpt lat="45.7940686" lon="10.6203373"><ele>1314.0</ele><time>2026-04-06T07:08:43.087Z</time></trkpt><trkpt lat="45.7941117" lon="10.6202669"><ele>1314.0</ele><time>2026-04-06T07:08:55.065Z</time></trkpt><trkpt lat="45.7941566" lon="10.6201897"><ele>1314.0</ele><time>2026-04-06T07:09:04.082Z</time></trkpt><trkpt lat="45.7942071" lon="10.6201326"><ele>1314.0</ele><time>2026-04-06T07:09:12.052Z</time></trkpt><trkpt lat="45.7942505" lon="10.6200667"><ele>1314.0</ele><time>2026-04-06T07:09:20.069Z</time></trkpt><trkpt lat="45.7942888" lon="10.619994"><ele>1314.0</ele><time>2026-04-06T07:09:29.069Z</time></trkpt><trkpt lat="45.7943341" lon="10.6199191"><ele>1317.2857142857142</ele><time>2026-04-06T07:09:40.017Z</time></trkpt><trkpt lat="45.794385" lon="10.6198564"><ele>1320.5714285714287</ele><time>2026-04-06T07:09:49.08Z</time></trkpt><trkpt lat="45.7944365" lon="10.6197853"><ele>1323.857142857143</ele><time>2026-04-06T07:09:57.076Z</time></trkpt><trkpt lat="45.7944922" lon="10.6197298"><ele>1327.142857142857</ele><time>2026-04-06T07:10:06.068Z</time></trkpt><trkpt lat="45.7945557" lon="10.6196871"><ele>1330.4285714285716</ele><time>2026-04-06T07:10:13.075Z</time></trkpt><trkpt lat="45.7946159" lon="10.6196597"><ele>1333.7142857142858</ele><time>2026-04-06T07:10:20.059Z</time></trkpt><trkpt lat="45.794678" lon="10.6196217"><ele>1337.0</ele><time>2026-04-06T07:10:28.054Z</time></trkpt><trkpt lat="45.7947467" lon="10.6195988"><ele>1337.0</ele><time>2026-04-06T07:10:35.132Z</time></trkpt><trkpt lat="45.7948131" lon="10.6195711"><ele>1337.0</ele><time>2026-04-06T07:10:42.095Z</time></trkpt><trkpt lat="45.7948803" lon="10.6195537"><ele>1337.0</ele><time>2026-04-06T07:10:50.078Z</time></trkpt><trkpt lat="45.7949446" lon="10.6195743"><ele>1337.0</ele><time>2026-04-06T07:10:57.055Z</time></trkpt><trkpt lat="45.7950103" lon="10.6196025"><ele>1337.0</ele><time>2026-04-06T07:11:06.077Z</time></trkpt><trkpt lat="45.7950744" lon="10.619593"><ele>1337.0</ele><time>2026-04-06T07:11:16.066Z</time></trkpt><trkpt lat="45.7951362" lon="10.6195621"><ele>1337.0</ele><time>2026-04-06T07:11:24.092Z</time></trkpt><trkpt lat="45.7951307" lon="10.6194621"><ele>1338.2857142857142</ele><time>2026-04-06T07:11:33.069Z</time></trkpt><trkpt lat="45.7950969" lon="10.6193739"><ele>1339.5714285714284</ele><time>2026-04-06T07:11:40.059Z</time></trkpt><trkpt lat="45.795068" lon="10.6192892"><ele>1340.857142857143</ele><time>2026-04-06T07:11:46.051Z</time></trkpt><trkpt lat="45.7950493" lon="10.6191984"><ele>1342.142857142857</ele><time>2026-04-06T07:11:55.074Z</time></trkpt><trkpt lat="45.7950382" lon="10.6191042"><ele>1343.4285714285713</ele><time>2026-04-06T07:12:08.053Z</time></trkpt><trkpt lat="45.79506" lon="10.6190112"><ele>1344.7142857142858</ele><time>2026-04-06T07:12:15.998Z</time></trkpt><trkpt lat="45.7951078" lon="10.6189378"><ele>1346.0</ele><time>2026-04-06T07:12:28.022Z</time></trkpt><trkpt lat="45.7951694" lon="10.6188903"><ele>1350.142857142857</ele><time>2026-04-06T07:12:38.07Z</time></trkpt><trkpt lat="45.7952325" lon="10.6188875"><ele>1354.2857142857142</ele><time>2026-04-06T07:12:47.086Z</time></trkpt><trkpt lat="45.795296" lon="10.6188772"><ele>1358.4285714285713</ele><time>2026-04-06T07:12:56.004Z</time></trkpt><trkpt lat="45.7953597" lon="10.6188451"><ele>1362.5714285714284</ele><time>2026-04-06T07:13:05.074Z</time></trkpt><trkpt lat="45.7954264" lon="10.618822"><ele>1366.7142857142858</ele><time>2026-04-06T07:13:14.091Z</time></trkpt><trkpt lat="45.7954891" lon="10.6188731"><ele>1370.8571428571427</ele><time>2026-04-06T07:13:21.084Z</time></trkpt><trkpt lat="45.7955195" lon="10.6187904"><ele>1375.0</ele><time>2026-04-06T07:17:05.084Z</time></trkpt><trkpt lat="45.7955118" lon="10.618698"><ele>1375.5714285714284</ele><time>2026-04-06T07:17:12.033Z</time></trkpt><trkpt lat="45.7955496" lon="10.6186253"><ele>1376.142857142857</ele><time>2026-04-06T07:17:20.055Z</time></trkpt><trkpt lat="45.7955481" lon="10.6185287"><ele>1376.7142857142858</ele><time>2026-04-06T07:17:45.064Z</time></trkpt><trkpt lat="45.7955687" lon="10.6184316"><ele>1377.2857142857142</ele><time>2026-04-06T07:17:51.967Z</time></trkpt><trkpt lat="45.7955742" lon="10.6183377"><ele>1377.857142857143</ele><time>2026-04-06T07:17:59.045Z</time></trkpt><trkpt lat="45.7955986" lon="10.6182506"><ele>1378.4285714285713</ele><time>2026-04-06T07:18:09.085Z</time></trkpt><trkpt lat="45.795623" lon="10.6181589"><ele>1379.0</ele><time>2026-04-06T07:18:17.087Z</time></trkpt><trkpt lat="45.7956498" lon="10.6180715"><ele>1379.0</ele><time>2026-04-06T07:18:25.071Z</time></trkpt><trkpt lat="45.7956814" lon="10.6179842"><ele>1379.0</ele><time>2026-04-06T07:18:34.025Z</time></trkpt><trkpt lat="45.7957287" lon="10.6179168"><ele>1379.0</ele><time>2026-04-06T07:18:43.082Z</time></trkpt><trkpt lat="45.7957896" lon="10.6178663"><ele>1379.0</ele><time>2026-04-06T07:18:52.086Z</time></trkpt><trkpt lat="45.795837" lon="10.6177988"><ele>1379.0</ele><time>2026-04-06T07:18:59.036Z</time></trkpt><trkpt lat="45.7958726" lon="10.6177153"><ele>1379.0</ele><time>2026-04-06T07:19:08.081Z</time></trkpt><trkpt lat="45.7958989" lon="10.617632"><ele>1379.0</ele><time>2026-04-06T07:19:15.07Z</time></trkpt><trkpt lat="45.7959194" lon="10.6175381"><ele>1378.7142857142858</ele><time>2026-04-06T07:19:23.052Z</time></trkpt><trkpt lat="45.7959374" lon="10.6174411"><ele>1378.4285714285716</ele><time>2026-04-06T07:19:31.058Z</time></trkpt><trkpt lat="45.795952" lon="10.6173477"><ele>1378.142857142857</ele><time>2026-04-06T07:19:38.098Z</time></trkpt><trkpt lat="45.7959574" lon="10.6172564"><ele>1377.857142857143</ele><time>2026-04-06T07:19:45.045Z</time></trkpt><trkpt lat="45.7959739" lon="10.6171606"><ele>1377.5714285714287</ele><time>2026-04-06T07:19:53.059Z</time></trkpt><trkpt lat="45.7959909" lon="10.6170623"><ele>1377.2857142857142</ele><time>2026-04-06T07:20:00.981Z</time></trkpt><trkpt lat="45.7959885" lon="10.6169706"><ele>1377.0</ele><time>2026-04-06T07:20:11.078Z</time></trkpt><trkpt lat="45.796042" lon="10.6169078"><ele>1381.5714285714284</ele><time>2026-04-06T07:20:20.056Z</time></trkpt><trkpt lat="45.7960988" lon="10.6168517"><ele>1386.1428571428573</ele><time>2026-04-06T07:20:29.105Z</time></trkpt><trkpt lat="45.7961559" lon="10.6168012"><ele>1390.7142857142858</ele><time>2026-04-06T07:20:39.088Z</time></trkpt><trkpt lat="45.7962085" lon="10.6167366"><ele>1395.2857142857142</ele><time>2026-04-06T07:20:48.095Z</time></trkpt><trkpt lat="45.7962611" lon="10.6166705"><ele>1399.8571428571427</ele><time>2026-04-06T07:20:57.068Z</time></trkpt><trkpt lat="45.7962744" lon="10.6165751"><ele>1404.4285714285716</ele><time>2026-04-06T07:21:06.069Z</time></trkpt><trkpt lat="45.7962822" lon="10.616483"><ele>1409.0</ele><time>2026-04-06T07:21:13.094Z</time></trkpt><trkpt lat="45.7962838" lon="10.6163838"><ele>1409.0</ele><time>2026-04-06T07:21:20.073Z</time></trkpt><trkpt lat="45.7962741" lon="10.6162936"><ele>1409.0</ele><time>2026-04-06T07:21:26.074Z</time></trkpt><trkpt lat="45.7962559" lon="10.6161998"><ele>1409.0</ele><time>2026-04-06T07:21:33.066Z</time></trkpt><trkpt lat="45.7962355" lon="10.6161078"><ele>1409.0</ele><time>2026-04-06T07:21:40.069Z</time></trkpt><trkpt lat="45.7962075" lon="10.6160137"><ele>1409.0</ele><time>2026-04-06T07:21:47.032Z</time></trkpt><trkpt lat="45.796215" lon="10.6159172"><ele>1409.0</ele><time>2026-04-06T07:21:54.08Z</time></trkpt><trkpt lat="45.7962562" lon="10.6158396"><ele>1409.0</ele><time>2026-04-06T07:22:04.023Z</time></trkpt><trkpt lat="45.7963079" lon="10.6159026"><ele>1409.0</ele><time>2026-04-06T07:22:14.079Z</time></trkpt><trkpt lat="45.7963246" lon="10.615997"><ele>1409.0</ele><time>2026-04-06T07:22:26.055Z</time></trkpt><trkpt lat="45.7963681" lon="10.6160657"><ele>1409.0</ele><time>2026-04-06T07:22:36.095Z</time></trkpt><trkpt lat="45.7964325" lon="10.6161005"><ele>1409.0</ele><time>2026-04-06T07:22:46.051Z</time></trkpt><trkpt lat="45.7964857" lon="10.6161621"><ele>1409.0</ele><time>2026-04-06T07:22:55.957Z</time></trkpt><trkpt lat="45.7964993" lon="10.616251"><ele>1409.0</ele><time>2026-04-06T07:23:05.079Z</time></trkpt><trkpt lat="45.7964974" lon="10.6163481"><ele>1409.0</ele><time>2026-04-06T07:23:17.049Z</time></trkpt><trkpt lat="45.7964846" lon="10.6164392"><ele>1409.0</ele><time>2026-04-06T07:23:30.065Z</time></trkpt><trkpt lat="45.796448" lon="10.6165207"><ele>1409.0</ele><time>2026-04-06T07:23:50.083Z</time></trkpt><trkpt lat="45.7964256" lon="10.6166074"><ele>1409.0</ele><time>2026-04-06T07:24:00.053Z</time></trkpt><trkpt lat="45.7964076" lon="10.6167059"><ele>1409.0</ele><time>2026-04-06T07:24:08.987Z</time></trkpt><trkpt lat="45.7964052" lon="10.6167993"><ele>1409.0</ele><time>2026-04-06T07:24:17.051Z</time></trkpt><trkpt lat="45.7964141" lon="10.6168945"><ele>1409.0</ele><time>2026-04-06T07:24:24.07Z</time></trkpt><trkpt lat="45.796398" lon="10.6169854"><ele>1409.0</ele><time>2026-04-06T07:24:31.081Z</time></trkpt><trkpt lat="45.7963894" lon="10.6170853"><ele>1410.7142857142858</ele><time>2026-04-06T07:24:40.052Z</time></trkpt><trkpt lat="45.7963587" lon="10.617179"><ele>1412.4285714285713</ele><time>2026-04-06T07:24:48.069Z</time></trkpt><trkpt lat="45.7963643" lon="10.6172784"><ele>1414.142857142857</ele><time>2026-04-06T07:24:57.075Z</time></trkpt><trkpt lat="45.7963643" lon="10.6173708"><ele>1415.857142857143</ele><time>2026-04-06T07:25:05.072Z</time></trkpt><trkpt lat="45.7963919" lon="10.6174624"><ele>1417.5714285714284</ele><time>2026-04-06T07:25:15.072Z</time></trkpt><trkpt lat="45.7964577" lon="10.6174908"><ele>1419.2857142857142</ele><time>2026-04-06T07:25:23.059Z</time></trkpt><trkpt lat="45.7965034" lon="10.6174228"><ele>1421.0</ele><time>2026-04-06T07:25:39.073Z</time></trkpt><trkpt lat="45.7965489" lon="10.6173589"><ele>1421.0</ele><time>2026-04-06T07:25:52.996Z</time></trkpt><trkpt lat="45.7966079" lon="10.6173132"><ele>1421.0</ele><time>2026-04-06T07:26:02.086Z</time></trkpt><trkpt lat="45.7966558" lon="10.6172464"><ele>1421.0</ele><time>2026-04-06T07:26:12.048Z</time></trkpt><trkpt lat="45.7967121" lon="10.6171969"><ele>1421.0</ele><time>2026-04-06T07:26:23.103Z</time></trkpt><trkpt lat="45.7967653" lon="10.6171313"><ele>1421.0</ele><time>2026-04-06T07:26:34.077Z</time></trkpt><trkpt lat="45.7968127" lon="10.6170691"><ele>1421.0</ele><time>2026-04-06T07:26:45.097Z</time></trkpt><trkpt lat="45.7968471" lon="10.6169839"><ele>1421.0</ele><time>2026-04-06T07:26:54.074Z</time></trkpt><trkpt lat="45.79688" lon="10.6169018"><ele>1424.4285714285713</ele><time>2026-04-06T07:27:02.07Z</time></trkpt><trkpt lat="45.7969096" lon="10.6168136"><ele>1427.857142857143</ele><time>2026-04-06T07:27:11.085Z</time></trkpt><trkpt lat="45.7969643" lon="10.6167617"><ele>1431.2857142857142</ele><time>2026-04-06T07:27:19.065Z</time></trkpt><trkpt lat="45.7970272" lon="10.6167487"><ele>1434.7142857142858</ele><time>2026-04-06T07:27:27.099Z</time></trkpt><trkpt lat="45.7970212" lon="10.6168409"><ele>1438.142857142857</ele><time>2026-04-06T07:28:03.066Z</time></trkpt><trkpt lat="45.7970224" lon="10.6169343"><ele>1441.5714285714284</ele><time>2026-04-06T07:28:14.069Z</time></trkpt><trkpt lat="45.7969937" lon="10.6170199"><ele>1445.0</ele><time>2026-04-06T07:28:25.088Z</time></trkpt><trkpt lat="45.796942" lon="10.6170877"><ele>1446.5714285714284</ele><time>2026-04-06T07:28:36.024Z</time></trkpt><trkpt lat="45.7968961" lon="10.6171646"><ele>1448.142857142857</ele><time>2026-04-06T07:28:46.064Z</time></trkpt><trkpt lat="45.796872" lon="10.6172549"><ele>1449.7142857142858</ele><time>2026-04-06T07:28:55.064Z</time></trkpt><trkpt lat="45.7968519" lon="10.6173453"><ele>1451.2857142857142</ele><time>2026-04-06T07:29:04.078Z</time></trkpt><trkpt lat="45.7968382" lon="10.617435"><ele>1452.857142857143</ele><time>2026-04-06T07:29:11.99Z</time></trkpt><trkpt lat="45.7968422" lon="10.6175313"><ele>1454.4285714285713</ele><time>2026-04-06T07:29:20.094Z</time></trkpt><trkpt lat="45.7968387" lon="10.6176279"><ele>1456.0</ele><time>2026-04-06T07:29:28.01Z</time></trkpt><trkpt lat="45.7968443" lon="10.6177299"><ele>1457.7142857142858</ele><time>2026-04-06T07:29:36.237Z</time></trkpt><trkpt lat="45.7968539" lon="10.6178192"><ele>1459.4285714285716</ele><time>2026-04-06T07:29:46.065Z</time></trkpt><trkpt lat="45.7968857" lon="10.6179079"><ele>1461.142857142857</ele><time>2026-04-06T07:30:11.081Z</time></trkpt><trkpt lat="45.796908" lon="10.6180017"><ele>1462.857142857143</ele><time>2026-04-06T07:30:18.068Z</time></trkpt><trkpt lat="45.7969269" lon="10.6180903"><ele>1464.5714285714287</ele><time>2026-04-06T07:30:26.097Z</time></trkpt><trkpt lat="45.7969539" lon="10.6181747"><ele>1466.2857142857142</ele><time>2026-04-06T07:30:38.08Z</time></trkpt><trkpt lat="45.7969439" lon="10.6182735"><ele>1468.0</ele><time>2026-04-06T07:30:47.064Z</time></trkpt><trkpt lat="45.7969223" lon="10.6183629"><ele>1468.0</ele><time>2026-04-06T07:30:54.983Z</time></trkpt><trkpt lat="45.7969077" lon="10.6184562"><ele>1468.0</ele><time>2026-04-06T07:31:04.093Z</time></trkpt><trkpt lat="45.7969196" lon="10.6185562"><ele>1468.0</ele><time>2026-04-06T07:31:11.986Z</time></trkpt><trkpt lat="45.7969445" lon="10.6186413"><ele>1468.0</ele><time>2026-04-06T07:31:17.078Z</time></trkpt><trkpt lat="45.7969524" lon="10.6187391"><ele>1468.0</ele><time>2026-04-06T07:31:27.089Z</time></trkpt><trkpt lat="45.7969704" lon="10.6188328"><ele>1468.0</ele><time>2026-04-06T07:31:35.058Z</time></trkpt><trkpt lat="45.7969962" lon="10.6189209"><ele>1468.0</ele><time>2026-04-06T07:31:45.059Z</time></trkpt><trkpt lat="45.7970054" lon="10.6190222"><ele>1467.857142857143</ele><time>2026-04-06T07:31:52.095Z</time></trkpt><trkpt lat="45.797011" lon="10.6191148"><ele>1467.7142857142858</ele><time>2026-04-06T07:31:58.101Z</time></trkpt><trkpt lat="45.797011" lon="10.6192123"><ele>1467.5714285714287</ele><time>2026-04-06T07:32:04.064Z</time></trkpt><trkpt lat="45.7970326" lon="10.6192973"><ele>1467.4285714285716</ele><time>2026-04-06T07:32:11.09Z</time></trkpt><trkpt lat="45.7970794" lon="10.619372"><ele>1467.2857142857142</ele><time>2026-04-06T07:32:18.078Z</time></trkpt><trkpt lat="45.7971304" lon="10.6194311"><ele>1467.1428571428573</ele><time>2026-04-06T07:32:24.989Z</time></trkpt><trkpt lat="45.7971836" lon="10.6194978"><ele>1467.0</ele><time>2026-04-06T07:32:32.041Z</time></trkpt><trkpt lat="45.7972261" lon="10.6195699"><ele>1465.5714285714287</ele><time>2026-04-06T07:32:38.025Z</time></trkpt><trkpt lat="45.7972654" lon="10.6196431"><ele>1464.142857142857</ele><time>2026-04-06T07:32:47.052Z</time></trkpt><trkpt lat="45.79731" lon="10.619724"><ele>1462.7142857142858</ele><time>2026-04-06T07:32:57.06Z</time></trkpt><trkpt lat="45.7973554" lon="10.619789"><ele>1461.2857142857142</ele><time>2026-04-06T07:33:03.066Z</time></trkpt><trkpt lat="45.7974084" lon="10.6198571"><ele>1459.857142857143</ele><time>2026-04-06T07:33:10.096Z</time></trkpt><trkpt lat="45.7974746" lon="10.6198913"><ele>1458.4285714285716</ele><time>2026-04-06T07:33:19.065Z</time></trkpt><trkpt lat="45.7975442" lon="10.6199059"><ele>1457.0</ele><time>2026-04-06T07:33:33.042Z</time></trkpt><trkpt lat="45.7976487" lon="10.6199362"><ele>1457.0</ele><time>2026-04-06T07:34:15.047Z</time></trkpt><trkpt lat="45.7976561" lon="10.6198347"><ele>1457.0</ele><time>2026-04-06T07:34:57.026Z</time></trkpt><trkpt lat="45.7976056" lon="10.6197535"><ele>1457.0</ele><time>2026-04-06T07:35:05.056Z</time></trkpt><trkpt lat="45.79755" lon="10.619701"><ele>1457.0</ele><time>2026-04-06T07:35:11.058Z</time></trkpt><trkpt lat="45.7974976" lon="10.6196324"><ele>1457.0</ele><time>2026-04-06T07:35:18.125Z</time></trkpt><trkpt lat="45.7974946" lon="10.6195422"><ele>1457.0</ele><time>2026-04-06T07:35:29.064Z</time></trkpt><trkpt lat="45.7975216" lon="10.619456"><ele>1457.0</ele><time>2026-04-06T07:35:38.08Z</time></trkpt><trkpt lat="45.797501" lon="10.6193692"><ele>1458.4285714285716</ele><time>2026-04-06T07:35:47.052Z</time></trkpt><trkpt lat="45.797503" lon="10.6192788"><ele>1459.857142857143</ele><time>2026-04-06T07:35:58.047Z</time></trkpt><trkpt lat="45.7975312" lon="10.6191966"><ele>1461.2857142857142</ele><time>2026-04-06T07:36:06.006Z</time></trkpt><trkpt lat="45.7975671" lon="10.6191084"><ele>1462.7142857142858</ele><time>2026-04-06T07:36:14.083Z</time></trkpt><trkpt lat="45.7976066" lon="10.6190286"><ele>1464.142857142857</ele><time>2026-04-06T07:36:22.062Z</time></trkpt><trkpt lat="45.7976356" lon="10.6189367"><ele>1465.5714285714287</ele><time>2026-04-06T07:36:30.086Z</time></trkpt><trkpt lat="45.7976763" lon="10.6188662"><ele>1467.0</ele><time>2026-04-06T07:36:39.07Z</time></trkpt><trkpt lat="45.7977127" lon="10.6187851"><ele>1472.0000000000002</ele><time>2026-04-06T07:36:48.075Z</time></trkpt><trkpt lat="45.7977425" lon="10.618704"><ele>1477.0</ele><time>2026-04-06T07:36:57.066Z</time></trkpt><trkpt lat="45.7977524" lon="10.6186044"><ele>1482.0</ele><time>2026-04-06T07:37:07.044Z</time></trkpt><trkpt lat="45.7977698" lon="10.6185093"><ele>1487.0</ele><time>2026-04-06T07:37:15.036Z</time></trkpt><trkpt lat="45.7977973" lon="10.6184238"><ele>1492.0</ele><time>2026-04-06T07:37:23.093Z</time></trkpt><trkpt lat="45.7978218" lon="10.6183403"><ele>1497.0000000000002</ele><time>2026-04-06T07:37:31.096Z</time></trkpt><trkpt lat="45.7978686" lon="10.6182668"><ele>1502.0</ele><time>2026-04-06T07:37:40.064Z</time></trkpt><trkpt lat="45.7979162" lon="10.6181949"><ele>1502.1428571428573</ele><time>2026-04-06T07:37:49.064Z</time></trkpt><trkpt lat="45.7979638" lon="10.6181302"><ele>1502.2857142857142</ele><time>2026-04-06T07:37:58.095Z</time></trkpt><trkpt lat="45.7979996" lon="10.6180526"><ele>1502.4285714285716</ele><time>2026-04-06T07:38:07.075Z</time></trkpt><trkpt lat="45.798044" lon="10.6179745"><ele>1502.5714285714287</ele><time>2026-04-06T07:38:15.081Z</time></trkpt><trkpt lat="45.7980891" lon="10.6178964"><ele>1502.7142857142858</ele><time>2026-04-06T07:38:22.092Z</time></trkpt><trkpt lat="45.7981348" lon="10.6178271"><ele>1502.857142857143</ele><time>2026-04-06T07:38:30.043Z</time></trkpt><trkpt lat="45.7981795" lon="10.6177513"><ele>1503.0</ele><time>2026-04-06T07:38:39.065Z</time></trkpt><trkpt lat="45.7982102" lon="10.6176687"><ele>1502.0</ele><time>2026-04-06T07:38:48.083Z</time></trkpt><trkpt lat="45.798239" lon="10.6175757"><ele>1501.0</ele><time>2026-04-06T07:38:57.079Z</time></trkpt><trkpt lat="45.7982578" lon="10.6174857"><ele>1500.0</ele><time>2026-04-06T07:39:05.072Z</time></trkpt><trkpt lat="45.798269" lon="10.6173905"><ele>1499.0</ele><time>2026-04-06T07:39:14.066Z</time></trkpt><trkpt lat="45.7982674" lon="10.6172948"><ele>1498.0</ele><time>2026-04-06T07:39:21.073Z</time></trkpt><trkpt lat="45.7982616" lon="10.6171961"><ele>1497.0</ele><time>2026-04-06T07:39:29.05Z</time></trkpt><trkpt lat="45.7982679" lon="10.6171042"><ele>1496.0</ele><time>2026-04-06T07:39:36.055Z</time></trkpt><trkpt lat="45.7982961" lon="10.6170229"><ele>1494.857142857143</ele><time>2026-04-06T07:39:44.061Z</time></trkpt><trkpt lat="45.7983175" lon="10.6169373"><ele>1493.7142857142858</ele><time>2026-04-06T07:39:51.091Z</time></trkpt><trkpt lat="45.7983361" lon="10.6168494"><ele>1492.5714285714287</ele><time>2026-04-06T07:39:59.081Z</time></trkpt><trkpt lat="45.7983588" lon="10.6167562"><ele>1491.4285714285716</ele><time>2026-04-06T07:40:09.045Z</time></trkpt><trkpt lat="45.798353" lon="10.6166588"><ele>1490.2857142857142</ele><time>2026-04-06T07:40:17.035Z</time></trkpt><trkpt lat="45.79836" lon="10.6165651"><ele>1489.1428571428573</ele><time>2026-04-06T07:40:26.056Z</time></trkpt><trkpt lat="45.7983846" lon="10.6164791"><ele>1488.0</ele><time>2026-04-06T07:40:35.991Z</time></trkpt><trkpt lat="45.7983872" lon="10.6163825"><ele>1488.0</ele><time>2026-04-06T07:40:44.072Z</time></trkpt><trkpt lat="45.7983248" lon="10.6162771"><ele>1488.0</ele><time>2026-04-06T07:42:35.023Z</time></trkpt><trkpt lat="45.7984081" lon="10.6161618"><ele>1488.0</ele><time>2026-04-06T07:43:35.048Z</time></trkpt><trkpt lat="45.7984108" lon="10.6160629"><ele>1488.0</ele><time>2026-04-06T07:43:59.045Z</time></trkpt><trkpt lat="45.7984548" lon="10.6159916"><ele>1488.0</ele><time>2026-04-06T07:44:10.045Z</time></trkpt><trkpt lat="45.7984887" lon="10.6159155"><ele>1488.0</ele><time>2026-04-06T07:44:18.069Z</time></trkpt><trkpt lat="45.7984883" lon="10.6158164"><ele>1487.857142857143</ele><time>2026-04-06T07:44:25.053Z</time></trkpt><trkpt lat="45.7984967" lon="10.6157267"><ele>1487.7142857142858</ele><time>2026-04-06T07:44:33.047Z</time></trkpt><trkpt lat="45.7985439" lon="10.615663"><ele>1487.5714285714284</ele><time>2026-04-06T07:44:41.043Z</time></trkpt><trkpt lat="45.7986085" lon="10.6156267"><ele>1487.4285714285716</ele><time>2026-04-06T07:44:48.05Z</time></trkpt><trkpt lat="45.7986779" lon="10.6156212"><ele>1487.2857142857142</ele><time>2026-04-06T07:44:55.056Z</time></trkpt><trkpt lat="45.7987451" lon="10.6156001"><ele>1487.142857142857</ele><time>2026-04-06T07:45:02.031Z</time></trkpt><trkpt lat="45.7987876" lon="10.6155202"><ele>1487.0</ele><time>2026-04-06T07:45:08.031Z</time></trkpt><trkpt lat="45.7988337" lon="10.6154544"><ele>1489.8571428571427</ele><time>2026-04-06T07:45:19.031Z</time></trkpt><trkpt lat="45.7988635" lon="10.6153703"><ele>1492.7142857142858</ele><time>2026-04-06T07:45:25.037Z</time></trkpt><trkpt lat="45.798876" lon="10.6152703"><ele>1495.5714285714284</ele><time>2026-04-06T07:45:33.05Z</time></trkpt><trkpt lat="45.7988761" lon="10.6151775"><ele>1498.4285714285713</ele><time>2026-04-06T07:45:40.054Z</time></trkpt><trkpt lat="45.7988787" lon="10.6150818"><ele>1501.2857142857142</ele><time>2026-04-06T07:45:48.053Z</time></trkpt><trkpt lat="45.7989136" lon="10.6149932"><ele>1504.142857142857</ele><time>2026-04-06T07:45:55.061Z</time></trkpt><trkpt lat="45.7989544" lon="10.6149187"><ele>1507.0</ele><time>2026-04-06T07:46:01.076Z</time></trkpt><trkpt lat="45.7990035" lon="10.6148502"><ele>1507.0</ele><time>2026-04-06T07:46:07.07Z</time></trkpt><trkpt lat="45.7990603" lon="10.6147939"><ele>1507.0</ele><time>2026-04-06T07:46:13.056Z</time></trkpt><trkpt lat="45.7991213" lon="10.614748"><ele>1507.0</ele><time>2026-04-06T07:46:20.065Z</time></trkpt><trkpt lat="45.7991866" lon="10.6147085"><ele>1507.0</ele><time>2026-04-06T07:46:26.084Z</time></trkpt><trkpt lat="45.7992445" lon="10.6146582"><ele>1507.0</ele><time>2026-04-06T07:46:33.065Z</time></trkpt><trkpt lat="45.7992311" lon="10.6145649"><ele>1507.0</ele><time>2026-04-06T07:47:21.044Z</time></trkpt><trkpt lat="45.7991689" lon="10.6145176"><ele>1507.0</ele><time>2026-04-06T07:47:29.032Z</time></trkpt><trkpt lat="45.7991413" lon="10.6144318"><ele>1507.7142857142858</ele><time>2026-04-06T07:47:35.033Z</time></trkpt><trkpt lat="45.7990816" lon="10.6143412"><ele>1508.4285714285713</ele><time>2026-04-06T07:47:55.06Z</time></trkpt><trkpt lat="45.7990269" lon="10.6142958"><ele>1509.142857142857</ele><time>2026-04-06T07:48:00.045Z</time></trkpt><trkpt lat="45.7989704" lon="10.6142448"><ele>1509.857142857143</ele><time>2026-04-06T07:48:08.069Z</time></trkpt><trkpt lat="45.7989158" lon="10.6141809"><ele>1510.5714285714284</ele><time>2026-04-06T07:48:16.078Z</time></trkpt><trkpt lat="45.7988759" lon="10.6141077"><ele>1511.2857142857142</ele><time>2026-04-06T07:48:24.059Z</time></trkpt><trkpt lat="45.7988401" lon="10.6140175"><ele>1512.0</ele><time>2026-04-06T07:48:32.081Z</time></trkpt><trkpt lat="45.7987969" lon="10.6139491"><ele>1512.0</ele><time>2026-04-06T07:48:38.071Z</time></trkpt><trkpt lat="45.7987617" lon="10.6138715"><ele>1512.0</ele><time>2026-04-06T07:48:45.047Z</time></trkpt><trkpt lat="45.7987201" lon="10.613789"><ele>1512.0</ele><time>2026-04-06T07:48:54.071Z</time></trkpt><trkpt lat="45.7986867" lon="10.6137102"><ele>1512.0</ele><time>2026-04-06T07:49:03.081Z</time></trkpt><trkpt lat="45.7987137" lon="10.613619"><ele>1512.0</ele><time>2026-04-06T07:49:15.079Z</time></trkpt><trkpt lat="45.7987752" lon="10.6135819"><ele>1512.0</ele><time>2026-04-06T07:49:22.087Z</time></trkpt><trkpt lat="45.7988347" lon="10.6135365"><ele>1512.0</ele><time>2026-04-06T07:49:30.07Z</time></trkpt><trkpt lat="45.7988662" lon="10.613451"><ele>1514.2857142857142</ele><time>2026-04-06T07:49:39.084Z</time></trkpt><trkpt lat="45.7988809" lon="10.6133505"><ele>1516.5714285714284</ele><time>2026-04-06T07:49:48.065Z</time></trkpt><trkpt lat="45.7988991" lon="10.6132572"><ele>1518.857142857143</ele><time>2026-04-06T07:49:56.059Z</time></trkpt><trkpt lat="45.7989397" lon="10.613179"><ele>1521.142857142857</ele><time>2026-04-06T07:50:04.054Z</time></trkpt><trkpt lat="45.7989842" lon="10.6131123"><ele>1523.4285714285713</ele><time>2026-04-06T07:50:12.083Z</time></trkpt><trkpt lat="45.7990134" lon="10.6130258"><ele>1525.7142857142858</ele><time>2026-04-06T07:50:20.726Z</time></trkpt><trkpt lat="45.7990222" lon="10.6129323"><ele>1528.0</ele><time>2026-04-06T07:50:30.085Z</time></trkpt><trkpt lat="45.7990118" lon="10.6128432"><ele>1527.5714285714287</ele><time>2026-04-06T07:50:38.097Z</time></trkpt><trkpt lat="45.7990021" lon="10.6127522"><ele>1527.142857142857</ele><time>2026-04-06T07:50:45.056Z</time></trkpt><trkpt lat="45.7989963" lon="10.6126583"><ele>1526.7142857142858</ele><time>2026-04-06T07:50:52.061Z</time></trkpt><trkpt lat="45.7990084" lon="10.612566"><ele>1526.2857142857142</ele><time>2026-04-06T07:51:02.056Z</time></trkpt><trkpt lat="45.7990421" lon="10.612488"><ele>1525.8571428571427</ele><time>2026-04-06T07:51:11.053Z</time></trkpt><trkpt lat="45.7991078" lon="10.6124615"><ele>1525.4285714285713</ele><time>2026-04-06T07:51:20.005Z</time></trkpt><trkpt lat="45.7991648" lon="10.612407"><ele>1525.0</ele><time>2026-04-06T07:51:28.092Z</time></trkpt><trkpt lat="45.7991816" lon="10.6123146"><ele>1525.0</ele><time>2026-04-06T07:51:36.047Z</time></trkpt><trkpt lat="45.7991789" lon="10.6122173"><ele>1525.0</ele><time>2026-04-06T07:51:52.042Z</time></trkpt><trkpt lat="45.7991621" lon="10.612114"><ele>1525.0</ele><time>2026-04-06T07:52:01.04Z</time></trkpt><trkpt lat="45.7991476" lon="10.612022"><ele>1525.0</ele><time>2026-04-06T07:52:09.089Z</time></trkpt><trkpt lat="45.7991326" lon="10.6119253"><ele>1525.0</ele><time>2026-04-06T07:52:17.084Z</time></trkpt><trkpt lat="45.7991102" lon="10.6118312"><ele>1525.0</ele><time>2026-04-06T07:52:26.084Z</time></trkpt><trkpt lat="45.7990838" lon="10.6117404"><ele>1525.0</ele><time>2026-04-06T07:52:34.063Z</time></trkpt><trkpt lat="45.799051" lon="10.6116563"><ele>1526.142857142857</ele><time>2026-04-06T07:52:42.068Z</time></trkpt><trkpt lat="45.7989935" lon="10.6115958"><ele>1527.2857142857142</ele><time>2026-04-06T07:52:51.064Z</time></trkpt><trkpt lat="45.7989304" lon="10.6115667"><ele>1528.4285714285716</ele><time>2026-04-06T07:52:57.059Z</time></trkpt><trkpt lat="45.7988773" lon="10.6115162"><ele>1529.5714285714284</ele><time>2026-04-06T07:53:03.067Z</time></trkpt><trkpt lat="45.7988318" lon="10.6114534"><ele>1530.7142857142858</ele><time>2026-04-06T07:53:10.965Z</time></trkpt><trkpt lat="45.7987908" lon="10.611376"><ele>1531.857142857143</ele><time>2026-04-06T07:53:20.074Z</time></trkpt><trkpt lat="45.7987543" lon="10.6113003"><ele>1533.0</ele><time>2026-04-06T07:53:28.742Z</time></trkpt><trkpt lat="45.7987112" lon="10.6112332"><ele>1536.2857142857142</ele><time>2026-04-06T07:53:37.107Z</time></trkpt><trkpt lat="45.7986833" lon="10.6111472"><ele>1539.5714285714284</ele><time>2026-04-06T07:53:45.048Z</time></trkpt><trkpt lat="45.7986866" lon="10.6110464"><ele>1542.857142857143</ele><time>2026-04-06T07:53:55.094Z</time></trkpt><trkpt lat="45.7987071" lon="10.6109568"><ele>1546.142857142857</ele><time>2026-04-06T07:54:04.131Z</time></trkpt><trkpt lat="45.7987256" lon="10.6108681"><ele>1549.4285714285713</ele><time>2026-04-06T07:54:13.077Z</time></trkpt><trkpt lat="45.7987343" lon="10.6107784"><ele>1552.7142857142858</ele><time>2026-04-06T07:54:21.078Z</time></trkpt><trkpt lat="45.7987332" lon="10.6106842"><ele>1556.0</ele><time>2026-04-06T07:54:29.081Z</time></trkpt><trkpt lat="45.7987959" lon="10.6106999"><ele>1556.0</ele><time>2026-04-06T07:54:43.051Z</time></trkpt><trkpt lat="45.7987866" lon="10.6107912"><ele>1556.0</ele><time>2026-04-06T07:54:51.039Z</time></trkpt><trkpt lat="45.798796" lon="10.6108826"><ele>1556.0</ele><time>2026-04-06T07:55:00.112Z</time></trkpt><trkpt lat="45.7988245" lon="10.6109717"><ele>1556.0</ele><time>2026-04-06T07:55:08.093Z</time></trkpt><trkpt lat="45.7988514" lon="10.6110608"><ele>1556.0</ele><time>2026-04-06T07:55:17.068Z</time></trkpt><trkpt lat="45.7989004" lon="10.6111175"><ele>1556.0</ele><time>2026-04-06T07:55:26.061Z</time></trkpt><trkpt lat="45.7989507" lon="10.6110528"><ele>1556.0</ele><time>2026-04-06T07:55:35.068Z</time></trkpt><trkpt lat="45.798925" lon="10.6109589"><ele>1556.0</ele><time>2026-04-06T07:55:45.084Z</time></trkpt><trkpt lat="45.7989137" lon="10.6108699"><ele>1556.0</ele><time>2026-04-06T07:55:53.11Z</time></trkpt><trkpt lat="45.7989101" lon="10.6107772"><ele>1556.0</ele><time>2026-04-06T07:56:01.061Z</time></trkpt><trkpt lat="45.7989217" lon="10.6106802"><ele>1556.0</ele><time>2026-04-06T07:56:10.095Z</time></trkpt><trkpt lat="45.7989292" lon="10.6105865"><ele>1556.0</ele><time>2026-04-06T07:56:18.064Z</time></trkpt><trkpt lat="45.7989343" lon="10.6104853"><ele>1556.0</ele><time>2026-04-06T07:56:27.065Z</time></trkpt><trkpt lat="45.798956" lon="10.6103881"><ele>1556.0</ele><time>2026-04-06T07:56:39.064Z</time></trkpt><trkpt lat="45.7989936" lon="10.6103113"><ele>1556.2857142857144</ele><time>2026-04-06T07:56:48.076Z</time></trkpt><trkpt lat="45.7990419" lon="10.6102436"><ele>1556.5714285714284</ele><time>2026-04-06T07:56:56.078Z</time></trkpt><trkpt lat="45.7990622" lon="10.6101515"><ele>1556.857142857143</ele><time>2026-04-06T07:57:05.059Z</time></trkpt><trkpt lat="45.7990968" lon="10.610073"><ele>1557.1428571428573</ele><time>2026-04-06T07:57:14.094Z</time></trkpt><trkpt lat="45.7991145" lon="10.6099861"><ele>1557.4285714285716</ele><time>2026-04-06T07:57:23.081Z</time></trkpt><trkpt lat="45.7990966" lon="10.6098896"><ele>1557.7142857142858</ele><time>2026-04-06T07:57:32.123Z</time></trkpt><trkpt lat="45.7990935" lon="10.6097972"><ele>1558.0</ele><time>2026-04-06T07:57:38.087Z</time></trkpt><trkpt lat="45.7991023" lon="10.6096947"><ele>1558.0000000000002</ele><time>2026-04-06T07:58:05.033Z</time></trkpt><trkpt lat="45.7991071" lon="10.6095933"><ele>1558.0</ele><time>2026-04-06T07:58:12.055Z</time></trkpt><trkpt lat="45.7991212" lon="10.6094991"><ele>1558.0</ele><time>2026-04-06T07:58:20.055Z</time></trkpt><trkpt lat="45.7991542" lon="10.6094126"><ele>1558.0</ele><time>2026-04-06T07:58:29.083Z</time></trkpt><trkpt lat="45.7991939" lon="10.6093418"><ele>1558.0</ele><time>2026-04-06T07:58:36.012Z</time></trkpt><trkpt lat="45.7992388" lon="10.6092711"><ele>1558.0000000000002</ele><time>2026-04-06T07:58:45.057Z</time></trkpt><trkpt lat="45.799302" lon="10.6092866"><ele>1558.0</ele><time>2026-04-06T07:58:53.068Z</time></trkpt><trkpt lat="45.7992663" lon="10.609365"><ele>1558.0000000000002</ele><time>2026-04-06T07:59:02.087Z</time></trkpt><trkpt lat="45.799205" lon="10.609413"><ele>1558.0</ele><time>2026-04-06T07:59:11.043Z</time></trkpt><trkpt lat="45.7991894" lon="10.6095069"><ele>1558.0</ele><time>2026-04-06T07:59:20.069Z</time></trkpt><trkpt lat="45.7991956" lon="10.6096028"><ele>1558.0</ele><time>2026-04-06T07:59:28.06Z</time></trkpt><trkpt lat="45.7992269" lon="10.6096869"><ele>1558.0</ele><time>2026-04-06T07:59:35.045Z</time></trkpt><trkpt lat="45.7992454" lon="10.6097802"><ele>1558.0000000000002</ele><time>2026-04-06T07:59:43.075Z</time></trkpt><trkpt lat="45.7992577" lon="10.6098777"><ele>1558.0</ele><time>2026-04-06T07:59:52.084Z</time></trkpt><trkpt lat="45.7992744" lon="10.609974"><ele>1558.0000000000002</ele><time>2026-04-06T08:00:01.038Z</time></trkpt><trkpt lat="45.7992601" lon="10.6100639"><ele>1558.0</ele><time>2026-04-06T08:00:09.993Z</time></trkpt><trkpt lat="45.7992236" lon="10.6101485"><ele>1558.0</ele><time>2026-04-06T08:00:20.067Z</time></trkpt><trkpt lat="45.7992221" lon="10.6102484"><ele>1558.0</ele><time>2026-04-06T08:00:29.999Z</time></trkpt><trkpt lat="45.7992599" lon="10.6103265"><ele>1558.0</ele><time>2026-04-06T08:00:38.1Z</time></trkpt><trkpt lat="45.7992793" lon="10.610431"><ele>1558.0000000000002</ele><time>2026-04-06T08:02:56.076Z</time></trkpt><trkpt lat="45.7993472" lon="10.610422"><ele>1558.0</ele><time>2026-04-06T08:03:04.068Z</time></trkpt><trkpt lat="45.799402" lon="10.6103631"><ele>1564.4285714285716</ele><time>2026-04-06T08:03:13.059Z</time></trkpt><trkpt lat="45.7994208" lon="10.6102729"><ele>1570.857142857143</ele><time>2026-04-06T08:03:21.042Z</time></trkpt><trkpt lat="45.7994595" lon="10.6101956"><ele>1577.2857142857142</ele><time>2026-04-06T08:03:29.004Z</time></trkpt><trkpt lat="45.7994985" lon="10.6101177"><ele>1583.7142857142858</ele><time>2026-04-06T08:03:38.066Z</time></trkpt><trkpt lat="45.79953" lon="10.6100326"><ele>1590.142857142857</ele><time>2026-04-06T08:03:47.061Z</time></trkpt><trkpt lat="45.799541" lon="10.6099424"><ele>1596.5714285714287</ele><time>2026-04-06T08:03:56.05Z</time></trkpt><trkpt lat="45.7995395" lon="10.6098413"><ele>1603.0</ele><time>2026-04-06T08:04:04.077Z</time></trkpt><trkpt lat="45.7995412" lon="10.6097387"><ele>1603.0</ele><time>2026-04-06T08:04:11.059Z</time></trkpt><trkpt lat="45.7995492" lon="10.609645"><ele>1603.0</ele><time>2026-04-06T08:04:19.091Z</time></trkpt><trkpt lat="45.7995691" lon="10.6095587"><ele>1603.0</ele><time>2026-04-06T08:04:27.048Z</time></trkpt><trkpt lat="45.7996157" lon="10.6094906"><ele>1603.0</ele><time>2026-04-06T08:04:37.045Z</time></trkpt><trkpt lat="45.7996789" lon="10.6095164"><ele>1603.0</ele><time>2026-04-06T08:04:44.049Z</time></trkpt><trkpt lat="45.7997488" lon="10.6095231"><ele>1603.0</ele><time>2026-04-06T08:04:53.066Z</time></trkpt><trkpt lat="45.7998085" lon="10.6094672"><ele>1603.0</ele><time>2026-04-06T08:05:02.08Z</time></trkpt><trkpt lat="45.7998359" lon="10.6093501"><ele>1601.0</ele><time>2026-04-06T08:05:29.059Z</time></trkpt><trkpt lat="45.7998628" lon="10.6092634"><ele>1599.0</ele><time>2026-04-06T08:05:35.059Z</time></trkpt><trkpt lat="45.7999242" lon="10.6092426"><ele>1597.0</ele><time>2026-04-06T08:05:45.048Z</time></trkpt><trkpt lat="45.7999907" lon="10.6092134"><ele>1595.0</ele><time>2026-04-06T08:05:51.086Z</time></trkpt><trkpt lat="45.8000551" lon="10.6091922"><ele>1593.0</ele><time>2026-04-06T08:05:58.084Z</time></trkpt><trkpt lat="45.8001249" lon="10.6091698"><ele>1591.0</ele><time>2026-04-06T08:06:05.076Z</time></trkpt><trkpt lat="45.8001754" lon="10.6091117"><ele>1589.0</ele><time>2026-04-06T08:06:13.024Z</time></trkpt><trkpt lat="45.8001952" lon="10.6090237"><ele>1598.2857142857142</ele><time>2026-04-06T08:06:19.996Z</time></trkpt><trkpt lat="45.8002045" lon="10.6089342"><ele>1607.5714285714284</ele><time>2026-04-06T08:06:26.064Z</time></trkpt><trkpt lat="45.8002231" lon="10.6088449"><ele>1616.857142857143</ele><time>2026-04-06T08:06:32.988Z</time></trkpt><trkpt lat="45.8002379" lon="10.6087497"><ele>1626.142857142857</ele><time>2026-04-06T08:06:40.057Z</time></trkpt><trkpt lat="45.8002453" lon="10.608656"><ele>1635.4285714285713</ele><time>2026-04-06T08:06:47.062Z</time></trkpt><trkpt lat="45.8002323" lon="10.6085624"><ele>1644.7142857142858</ele><time>2026-04-06T08:06:54.064Z</time></trkpt><trkpt lat="45.8001998" lon="10.6084824"><ele>1654.0</ele><time>2026-04-06T08:07:01.089Z</time></trkpt><trkpt lat="45.8001692" lon="10.6083882"><ele>1647.857142857143</ele><time>2026-04-06T08:07:10.048Z</time></trkpt><trkpt lat="45.8001442" lon="10.6083053"><ele>1641.7142857142856</ele><time>2026-04-06T08:07:17.008Z</time></trkpt><trkpt lat="45.8001109" lon="10.6082224"><ele>1635.5714285714284</ele><time>2026-04-06T08:07:24.076Z</time></trkpt><trkpt lat="45.8000766" lon="10.6081321"><ele>1629.4285714285716</ele><time>2026-04-06T08:07:31.073Z</time></trkpt><trkpt lat="45.8000398" lon="10.6080517"><ele>1623.2857142857142</ele><time>2026-04-06T08:07:38.03Z</time></trkpt><trkpt lat="45.7999917" lon="10.6079569"><ele>1617.142857142857</ele><time>2026-04-06T08:08:18.02Z</time></trkpt><trkpt lat="45.7999859" lon="10.607864"><ele>1611.0</ele><time>2026-04-06T08:08:27.063Z</time></trkpt><trkpt lat="45.7999861" lon="10.607761"><ele>1611.0</ele><time>2026-04-06T08:08:37.626Z</time></trkpt><trkpt lat="45.7999727" lon="10.6076676"><ele>1611.0</ele><time>2026-04-06T08:08:45.684Z</time></trkpt><trkpt lat="45.7999437" lon="10.6075824"><ele>1611.0</ele><time>2026-04-06T08:08:54.077Z</time></trkpt><trkpt lat="45.7999212" lon="10.6074879"><ele>1611.0</ele><time>2026-04-06T08:09:02.072Z</time></trkpt><trkpt lat="45.799903" lon="10.6073881"><ele>1611.0</ele><time>2026-04-06T08:09:14.046Z</time></trkpt><trkpt lat="45.7998805" lon="10.6072973"><ele>1611.0</ele><time>2026-04-06T08:09:30.045Z</time></trkpt><trkpt lat="45.7998835" lon="10.6072049"><ele>1611.0</ele><time>2026-04-06T08:09:40.046Z</time></trkpt><trkpt lat="45.7999116" lon="10.6071214"><ele>1611.0</ele><time>2026-04-06T08:09:52.093Z</time></trkpt><trkpt lat="45.7999417" lon="10.6070328"><ele>1611.0</ele><time>2026-04-06T08:10:02.074Z</time></trkpt><trkpt lat="45.7999219" lon="10.6069403"><ele>1611.0</ele><time>2026-04-06T08:10:12.064Z</time></trkpt><trkpt lat="45.7999215" lon="10.6068469"><ele>1611.0</ele><time>2026-04-06T08:10:20.054Z</time></trkpt><trkpt lat="45.7999236" lon="10.6067503"><ele>1611.0</ele><time>2026-04-06T08:10:36.032Z</time></trkpt><trkpt lat="45.7999639" lon="10.6066709"><ele>1611.0</ele><time>2026-04-06T08:10:47.042Z</time></trkpt><trkpt lat="45.7999334" lon="10.6065814"><ele>1611.0</ele><time>2026-04-06T08:10:53.06Z</time></trkpt><trkpt lat="45.7998959" lon="10.6064898"><ele>1612.142857142857</ele><time>2026-04-06T08:11:00.036Z</time></trkpt><trkpt lat="45.7998792" lon="10.6063933"><ele>1613.2857142857142</ele><time>2026-04-06T08:11:07.064Z</time></trkpt><trkpt lat="45.7998792" lon="10.6062942"><ele>1614.4285714285716</ele><time>2026-04-06T08:11:17.063Z</time></trkpt><trkpt lat="45.7998995" lon="10.6062032"><ele>1615.5714285714284</ele><time>2026-04-06T08:11:24.024Z</time></trkpt><trkpt lat="45.7999229" lon="10.6061147"><ele>1616.7142857142856</ele><time>2026-04-06T08:11:34.076Z</time></trkpt><trkpt lat="45.7999444" lon="10.6060271"><ele>1617.857142857143</ele><time>2026-04-06T08:11:43.077Z</time></trkpt><trkpt lat="45.7999614" lon="10.6059306"><ele>1619.0</ele><time>2026-04-06T08:12:01.177Z</time></trkpt><trkpt lat="45.8000088" lon="10.6058708"><ele>1619.0</ele><time>2026-04-06T08:12:09.092Z</time></trkpt><trkpt lat="45.8000721" lon="10.6058398"><ele>1619.0</ele><time>2026-04-06T08:12:17.103Z</time></trkpt><trkpt lat="45.8001319" lon="10.6058098"><ele>1619.0</ele><time>2026-04-06T08:12:25.072Z</time></trkpt><trkpt lat="45.8001974" lon="10.6057699"><ele>1619.0</ele><time>2026-04-06T08:12:34.004Z</time></trkpt><trkpt lat="45.8002598" lon="10.6057316"><ele>1619.0</ele><time>2026-04-06T08:12:43.052Z</time></trkpt><trkpt lat="45.8003238" lon="10.6056954"><ele>1619.0</ele><time>2026-04-06T08:12:52.087Z</time></trkpt><trkpt lat="45.8003762" lon="10.6056375"><ele>1619.0</ele><time>2026-04-06T08:13:01.059Z</time></trkpt><trkpt lat="45.8004171" lon="10.6055634"><ele>1622.0</ele><time>2026-04-06T08:13:09.09Z</time></trkpt><trkpt lat="45.8004551" lon="10.605477"><ele>1625.0</ele><time>2026-04-06T08:13:25.018Z</time></trkpt><trkpt lat="45.8004963" lon="10.6053958"><ele>1628.0</ele><time>2026-04-06T08:13:33.029Z</time></trkpt><trkpt lat="45.800563" lon="10.6053575"><ele>1631.0</ele><time>2026-04-06T08:13:41.067Z</time></trkpt><trkpt lat="45.8006134" lon="10.6052978"><ele>1634.0</ele><time>2026-04-06T08:13:50.062Z</time></trkpt><trkpt lat="45.800659" lon="10.6052312"><ele>1637.0</ele><time>2026-04-06T08:14:00.027Z</time></trkpt><trkpt lat="45.8007141" lon="10.6051803"><ele>1640.0</ele><time>2026-04-06T08:14:09.081Z</time></trkpt><trkpt lat="45.8007501" lon="10.6050985"><ele>1640.0</ele><time>2026-04-06T08:14:18.019Z</time></trkpt><trkpt lat="45.8007845" lon="10.6050211"><ele>1640.0</ele><time>2026-04-06T08:14:28.089Z</time></trkpt><trkpt lat="45.800854" lon="10.6050236"><ele>1640.0</ele><time>2026-04-06T08:14:53.054Z</time></trkpt><trkpt lat="45.80091" lon="10.6049676"><ele>1640.0</ele><time>2026-04-06T08:18:28.035Z</time></trkpt><trkpt lat="45.8009781" lon="10.6049445"><ele>1640.0</ele><time>2026-04-06T08:18:36.06Z</time></trkpt><trkpt lat="45.8010367" lon="10.6049074"><ele>1640.0</ele><time>2026-04-06T08:18:42.972Z</time></trkpt><trkpt lat="45.8011012" lon="10.6048784"><ele>1640.0</ele><time>2026-04-06T08:18:51.046Z</time></trkpt><trkpt lat="45.8011699" lon="10.6048579"><ele>1644.0</ele><time>2026-04-06T08:18:59.084Z</time></trkpt><trkpt lat="45.8012284" lon="10.604823"><ele>1648.0</ele><time>2026-04-06T08:19:06.063Z</time></trkpt><trkpt lat="45.8012949" lon="10.6048401"><ele>1652.0</ele><time>2026-04-06T08:19:15.055Z</time></trkpt><trkpt lat="45.8013559" lon="10.6048743"><ele>1656.0</ele><time>2026-04-06T08:19:24.077Z</time></trkpt><trkpt lat="45.8014258" lon="10.6048633"><ele>1660.0</ele><time>2026-04-06T08:19:34.033Z</time></trkpt><trkpt lat="45.8014942" lon="10.6048261"><ele>1664.0</ele><time>2026-04-06T08:20:34.096Z</time></trkpt><trkpt lat="45.8015503" lon="10.6047745"><ele>1668.0</ele><time>2026-04-06T08:20:41.058Z</time></trkpt><trkpt lat="45.801595" lon="10.6046951"><ele>1668.0</ele><time>2026-04-06T08:20:49.075Z</time></trkpt><trkpt lat="45.8016343" lon="10.6046245"><ele>1668.0</ele><time>2026-04-06T08:20:56.065Z</time></trkpt><trkpt lat="45.8016831" lon="10.6045502"><ele>1668.0</ele><time>2026-04-06T08:21:06.068Z</time></trkpt><trkpt lat="45.8017221" lon="10.6044686"><ele>1668.0</ele><time>2026-04-06T08:21:16.034Z</time></trkpt><trkpt lat="45.8017255" lon="10.6043746"><ele>1668.0</ele><time>2026-04-06T08:21:24.087Z</time></trkpt><trkpt lat="45.801713" lon="10.6042708"><ele>1668.0</ele><time>2026-04-06T08:21:33.08Z</time></trkpt><trkpt lat="45.8017305" lon="10.6041836"><ele>1668.0</ele><time>2026-04-06T08:21:39.072Z</time></trkpt><trkpt lat="45.8017591" lon="10.6040944"><ele>1666.857142857143</ele><time>2026-04-06T08:21:48.03Z</time></trkpt><trkpt lat="45.8017747" lon="10.604003"><ele>1665.7142857142856</ele><time>2026-04-06T08:21:57.072Z</time></trkpt><trkpt lat="45.8017617" lon="10.603903"><ele>1664.5714285714284</ele><time>2026-04-06T08:22:05.062Z</time></trkpt><trkpt lat="45.8017569" lon="10.6038102"><ele>1663.4285714285716</ele><time>2026-04-06T08:22:15.068Z</time></trkpt><trkpt lat="45.8017668" lon="10.6037121"><ele>1662.2857142857142</ele><time>2026-04-06T08:22:23.065Z</time></trkpt><trkpt lat="45.80179" lon="10.6036221"><ele>1661.142857142857</ele><time>2026-04-06T08:22:33.058Z</time></trkpt><trkpt lat="45.8018239" lon="10.6035363"><ele>1660.0</ele><time>2026-04-06T08:22:43.084Z</time></trkpt><trkpt lat="45.8018388" lon="10.6034477"><ele>1668.2857142857142</ele><time>2026-04-06T08:22:52.086Z</time></trkpt><trkpt lat="45.8018507" lon="10.6033508"><ele>1676.5714285714287</ele><time>2026-04-06T08:23:02.08Z</time></trkpt><trkpt lat="45.8018567" lon="10.6032495"><ele>1684.8571428571427</ele><time>2026-04-06T08:23:10.027Z</time></trkpt><trkpt lat="45.8018599" lon="10.603152"><ele>1693.142857142857</ele><time>2026-04-06T08:23:24.062Z</time></trkpt><trkpt lat="45.8018531" lon="10.6030591"><ele>1701.4285714285713</ele><time>2026-04-06T08:23:31.072Z</time></trkpt><trkpt lat="45.8018438" lon="10.602963"><ele>1709.7142857142856</ele><time>2026-04-06T08:23:39.072Z</time></trkpt><trkpt lat="45.8018382" lon="10.602866"><ele>1718.0</ele><time>2026-04-06T08:23:47.06Z</time></trkpt><trkpt lat="45.8018386" lon="10.6027631"><ele>1718.9999999999998</ele><time>2026-04-06T08:23:55.064Z</time></trkpt><trkpt lat="45.8018445" lon="10.6026663"><ele>1720.0</ele><time>2026-04-06T08:24:03.052Z</time></trkpt><trkpt lat="45.801819" lon="10.6025727"><ele>1721.0</ele><time>2026-04-06T08:24:12.003Z</time></trkpt><trkpt lat="45.8017705" lon="10.6025031"><ele>1722.0</ele><time>2026-04-06T08:24:20.084Z</time></trkpt><trkpt lat="45.8017203" lon="10.6024283"><ele>1723.0</ele><time>2026-04-06T08:24:28.055Z</time></trkpt><trkpt lat="45.8016973" lon="10.6023387"><ele>1723.9999999999998</ele><time>2026-04-06T08:24:37.066Z</time></trkpt><trkpt lat="45.8017038" lon="10.6022391"><ele>1725.0</ele><time>2026-04-06T08:25:03.085Z</time></trkpt><trkpt lat="45.8017192" lon="10.6021509"><ele>1720.7142857142856</ele><time>2026-04-06T08:25:12.056Z</time></trkpt><trkpt lat="45.8017433" lon="10.6020611"><ele>1716.4285714285713</ele><time>2026-04-06T08:25:20.023Z</time></trkpt><trkpt lat="45.8017601" lon="10.6019738"><ele>1712.142857142857</ele><time>2026-04-06T08:25:28.072Z</time></trkpt><trkpt lat="45.8017082" lon="10.6018771"><ele>1707.8571428571427</ele><time>2026-04-06T08:26:10.026Z</time></trkpt><trkpt lat="45.8016848" lon="10.6017671"><ele>1703.5714285714287</ele><time>2026-04-06T08:26:30.021Z</time></trkpt><trkpt lat="45.8016226" lon="10.6017279"><ele>1699.2857142857142</ele><time>2026-04-06T08:27:51.052Z</time></trkpt><trkpt lat="45.8015687" lon="10.6016732"><ele>1695.0</ele><time>2026-04-06T08:28:02.045Z</time></trkpt><trkpt lat="45.8015031" lon="10.6016671"><ele>1695.0</ele><time>2026-04-06T08:28:36.065Z</time></trkpt><trkpt lat="45.8014485" lon="10.6016132"><ele>1695.0</ele><time>2026-04-06T08:28:46.076Z</time></trkpt><trkpt lat="45.8013906" lon="10.6015741"><ele>1695.0</ele><time>2026-04-06T08:28:59.913Z</time></trkpt><trkpt lat="45.8013176" lon="10.6015317"><ele>1695.0</ele><time>2026-04-06T08:29:29.081Z</time></trkpt><trkpt lat="45.8012582" lon="10.6014937"><ele>1695.0</ele><time>2026-04-06T08:29:39.08Z</time></trkpt><trkpt lat="45.8011958" lon="10.601474"><ele>1695.0</ele><time>2026-04-06T08:29:48.061Z</time></trkpt><trkpt lat="45.8011315" lon="10.6014974"><ele>1695.0</ele><time>2026-04-06T08:30:15.032Z</time></trkpt><trkpt lat="45.8010702" lon="10.6015511"><ele>1695.0</ele><time>2026-04-06T08:31:10.035Z</time></trkpt><trkpt lat="45.8010399" lon="10.6016348"><ele>1695.0</ele><time>2026-04-06T08:31:21.065Z</time></trkpt><trkpt lat="45.8009741" lon="10.6016557"><ele>1695.0</ele><time>2026-04-06T08:31:35.067Z</time></trkpt><trkpt lat="45.8009155" lon="10.6017105"><ele>1695.0</ele><time>2026-04-06T08:31:46.106Z</time></trkpt><trkpt lat="45.8008605" lon="10.601761"><ele>1695.0</ele><time>2026-04-06T08:31:57.067Z</time></trkpt><trkpt lat="45.8007958" lon="10.6017916"><ele>1695.0</ele><time>2026-04-06T08:32:16.047Z</time></trkpt><trkpt lat="45.8007287" lon="10.6018154"><ele>1695.0</ele><time>2026-04-06T08:32:25.065Z</time></trkpt><trkpt lat="45.8007162" lon="10.6019094"><ele>1694.857142857143</ele><time>2026-04-06T08:32:39.076Z</time></trkpt><trkpt lat="45.8006932" lon="10.6018172"><ele>1694.7142857142858</ele><time>2026-04-06T08:34:22.04Z</time></trkpt><trkpt lat="45.8006838" lon="10.601724"><ele>1694.5714285714284</ele><time>2026-04-06T08:34:30.041Z</time></trkpt><trkpt lat="45.8006561" lon="10.6016385"><ele>1694.4285714285716</ele><time>2026-04-06T08:34:38.064Z</time></trkpt><trkpt lat="45.8006144" lon="10.6015642"><ele>1694.2857142857142</ele><time>2026-04-06T08:34:45.971Z</time></trkpt><trkpt lat="45.8005554" lon="10.6015059"><ele>1694.142857142857</ele><time>2026-04-06T08:34:54.055Z</time></trkpt><trkpt lat="45.800513" lon="10.6014272"><ele>1694.0</ele><time>2026-04-06T08:35:02.049Z</time></trkpt><trkpt lat="45.8004838" lon="10.6013442"><ele>1694.0</ele><time>2026-04-06T08:35:09.069Z</time></trkpt><trkpt lat="45.8004263" lon="10.6013034"><ele>1694.0</ele><time>2026-04-06T08:35:16.092Z</time></trkpt><trkpt lat="45.8003568" lon="10.6012979"><ele>1694.0</ele><time>2026-04-06T08:35:23.037Z</time></trkpt><trkpt lat="45.8002988" lon="10.6012536"><ele>1694.0</ele><time>2026-04-06T08:35:31.04Z</time></trkpt><trkpt lat="45.8002359" lon="10.6012301"><ele>1694.0</ele><time>2026-04-06T08:35:40.053Z</time></trkpt><trkpt lat="45.8001788" lon="10.6011762"><ele>1694.0</ele><time>2026-04-06T08:36:05.068Z</time></trkpt><trkpt lat="45.800139" lon="10.6010922"><ele>1694.0</ele><time>2026-04-06T08:36:15.073Z</time></trkpt><trkpt lat="45.8001437" lon="10.6009991"><ele>1694.0</ele><time>2026-04-06T08:36:25.069Z</time></trkpt><trkpt lat="45.8001887" lon="10.601064"><ele>1694.0</ele><time>2026-04-06T08:36:36.038Z</time></trkpt><trkpt lat="45.8002205" lon="10.6011551"><ele>1694.0</ele><time>2026-04-06T08:36:46.063Z</time></trkpt><trkpt lat="45.8002778" lon="10.6011947"><ele>1694.0</ele><time>2026-04-06T08:36:56.038Z</time></trkpt><trkpt lat="45.8003462" lon="10.6011816"><ele>1694.0</ele><time>2026-04-06T08:37:04.058Z</time></trkpt><trkpt lat="45.8004087" lon="10.6011551"><ele>1694.0</ele><time>2026-04-06T08:37:11.048Z</time></trkpt><trkpt lat="45.800474" lon="10.6011638"><ele>1694.0</ele><time>2026-04-06T08:37:20.054Z</time></trkpt><trkpt lat="45.8005302" lon="10.6012117"><ele>1694.0</ele><time>2026-04-06T08:37:29.055Z</time></trkpt><trkpt lat="45.8005925" lon="10.6012361"><ele>1694.0</ele><time>2026-04-06T08:37:37.971Z</time></trkpt><trkpt lat="45.8006536" lon="10.6012126"><ele>1694.0</ele><time>2026-04-06T08:37:44.048Z</time></trkpt><trkpt lat="45.8007158" lon="10.6011753"><ele>1694.0</ele><time>2026-04-06T08:37:52.068Z</time></trkpt><trkpt lat="45.8007796" lon="10.6011629"><ele>1694.0</ele><time>2026-04-06T08:38:01.073Z</time></trkpt><trkpt lat="45.8008221" lon="10.6010951"><ele>1694.0</ele><time>2026-04-06T08:38:39.073Z</time></trkpt><trkpt lat="45.8008681" lon="10.6010254"><ele>1694.0</ele><time>2026-04-06T08:38:53.053Z</time></trkpt><trkpt lat="45.800933" lon="10.6009842"><ele>1698.5714285714287</ele><time>2026-04-06T08:39:01.076Z</time></trkpt><trkpt lat="45.8009749" lon="10.6009167"><ele>1703.142857142857</ele><time>2026-04-06T08:39:18.057Z</time></trkpt><trkpt lat="45.8010008" lon="10.6008311"><ele>1707.7142857142858</ele><time>2026-04-06T08:39:29.066Z</time></trkpt><trkpt lat="45.8010238" lon="10.6007396"><ele>1712.2857142857142</ele><time>2026-04-06T08:39:46.024Z</time></trkpt><trkpt lat="45.8010524" lon="10.6006545"><ele>1716.857142857143</ele><time>2026-04-06T08:40:06.956Z</time></trkpt><trkpt lat="45.8011135" lon="10.6005653"><ele>1721.4285714285716</ele><time>2026-04-06T08:40:36.064Z</time></trkpt><trkpt lat="45.8011779" lon="10.6005346"><ele>1726.0</ele><time>2026-04-06T08:40:56.055Z</time></trkpt><trkpt lat="45.8012463" lon="10.6005356"><ele>1726.0000000000002</ele><time>2026-04-06T08:41:05.066Z</time></trkpt><trkpt lat="45.8013073" lon="10.6005617"><ele>1726.0</ele><time>2026-04-06T08:41:11.955Z</time></trkpt><trkpt lat="45.8013712" lon="10.6006045"><ele>1726.0</ele><time>2026-04-06T08:41:20.077Z</time></trkpt><trkpt lat="45.8014391" lon="10.6006103"><ele>1726.0</ele><time>2026-04-06T08:41:37.037Z</time></trkpt><trkpt lat="45.8015082" lon="10.6006002"><ele>1726.0</ele><time>2026-04-06T08:41:46.056Z</time></trkpt><trkpt lat="45.8015815" lon="10.6006127"><ele>1726.0000000000002</ele><time>2026-04-06T08:41:54.035Z</time></trkpt><trkpt lat="45.8016468" lon="10.6006221"><ele>1726.0</ele><time>2026-04-06T08:42:01.988Z</time></trkpt><trkpt lat="45.8017132" lon="10.6006555"><ele>1726.0000000000002</ele><time>2026-04-06T08:42:11.064Z</time></trkpt><trkpt lat="45.8017811" lon="10.6006842"><ele>1726.0</ele><time>2026-04-06T08:42:19.083Z</time></trkpt><trkpt lat="45.8018448" lon="10.6007003"><ele>1726.0</ele><time>2026-04-06T08:42:27.116Z</time></trkpt><trkpt lat="45.8019076" lon="10.6007152"><ele>1726.0</ele><time>2026-04-06T08:42:36.069Z</time></trkpt><trkpt lat="45.8019714" lon="10.600717"><ele>1726.0</ele><time>2026-04-06T08:42:44.043Z</time></trkpt><trkpt lat="45.802034" lon="10.6006754"><ele>1726.0000000000002</ele><time>2026-04-06T08:42:52.035Z</time></trkpt><trkpt lat="45.8020946" lon="10.6006463"><ele>1726.0</ele><time>2026-04-06T08:43:01.061Z</time></trkpt><trkpt lat="45.8021528" lon="10.6006115"><ele>1729.1428571428573</ele><time>2026-04-06T08:43:13.078Z</time></trkpt><trkpt lat="45.8022215" lon="10.6005894"><ele>1732.2857142857142</ele><time>2026-04-06T08:43:25.082Z</time></trkpt><trkpt lat="45.8022846" lon="10.6005914"><ele>1735.4285714285716</ele><time>2026-04-06T08:43:33.04Z</time></trkpt><trkpt lat="45.8023459" lon="10.6006181"><ele>1738.5714285714287</ele><time>2026-04-06T08:43:41.036Z</time></trkpt><trkpt lat="45.8024114" lon="10.6006303"><ele>1741.7142857142858</ele><time>2026-04-06T08:43:48.066Z</time></trkpt><trkpt lat="45.8024813" lon="10.6006696"><ele>1744.857142857143</ele><time>2026-04-06T08:43:55.099Z</time></trkpt><trkpt lat="45.802546" lon="10.6006753"><ele>1748.0</ele><time>2026-04-06T08:44:02.049Z</time></trkpt><trkpt lat="45.8026119" lon="10.6006876"><ele>1748.0</ele><time>2026-04-06T08:44:10.084Z</time></trkpt><trkpt lat="45.8026747" lon="10.6006945"><ele>1749.0</ele><time>2026-04-06T08:44:20.101Z</time></trkpt><trkpt lat="45.8027399" lon="10.6006837"><ele>1749.0</ele><time>2026-04-06T08:44:38.029Z</time></trkpt><trkpt lat="45.8028012" lon="10.6007191"><ele>1749.0</ele><time>2026-04-06T08:45:38.033Z</time></trkpt><trkpt lat="45.8027406" lon="10.6006904"><ele>1749.0</ele><time>2026-04-06T08:46:31.03Z</time></trkpt><trkpt lat="45.8026565" lon="10.6006726"><ele>1748.0</ele><time>2026-04-06T08:47:04.047Z</time></trkpt></trkseg><trkseg><trkpt lat="45.8030835" lon="10.602705"><ele>1745.9999999999998</ele><time>2026-04-06T09:15:06.02Z</time></trkpt><trkpt lat="45.8030593" lon="10.6028034"><ele>1746.0</ele><time>2026-04-06T09:15:26.029Z</time></trkpt><trkpt lat="45.8030563" lon="10.602904"><ele>1746.0</ele><time>2026-04-06T09:15:31.991Z</time></trkpt><trkpt lat="45.8030307" lon="10.6029889"><ele>1746.0</ele><time>2026-04-06T09:15:40.043Z</time></trkpt><trkpt lat="45.8030113" lon="10.6030841"><ele>1746.0</ele><time>2026-04-06T09:15:48Z</time></trkpt><trkpt lat="45.8030069" lon="10.6031787"><ele>1745.9999999999998</ele><time>2026-04-06T09:15:54.927Z</time></trkpt><trkpt lat="45.8030291" lon="10.6032652"><ele>1746.0</ele><time>2026-04-06T09:16:02.007Z</time></trkpt><trkpt lat="45.8030691" lon="10.6033419"><ele>1746.142857142857</ele><time>2026-04-06T09:16:07.925Z</time></trkpt><trkpt lat="45.8031065" lon="10.6034319"><ele>1746.2857142857142</ele><time>2026-04-06T09:16:15Z</time></trkpt><trkpt lat="45.8031098" lon="10.6035266"><ele>1746.4285714285716</ele><time>2026-04-06T09:16:21.005Z</time></trkpt><trkpt lat="45.803116" lon="10.6036299"><ele>1746.5714285714284</ele><time>2026-04-06T09:16:29.029Z</time></trkpt><trkpt lat="45.8031329" lon="10.6037288"><ele>1746.7142857142858</ele><time>2026-04-06T09:16:37.03Z</time></trkpt><trkpt lat="45.8031529" lon="10.6038258"><ele>1746.857142857143</ele><time>2026-04-06T09:16:44.994Z</time></trkpt><trkpt lat="45.8031664" lon="10.6039176"><ele>1747.0</ele><time>2026-04-06T09:16:52.039Z</time></trkpt><trkpt lat="45.8031783" lon="10.6040153"><ele>1748.4285714285716</ele><time>2026-04-06T09:17:00.041Z</time></trkpt><trkpt lat="45.8031806" lon="10.6041074"><ele>1749.857142857143</ele><time>2026-04-06T09:17:07.93Z</time></trkpt><trkpt lat="45.8032032" lon="10.604204"><ele>1751.2857142857142</ele><time>2026-04-06T09:17:16.072Z</time></trkpt><trkpt lat="45.8032007" lon="10.6042975"><ele>1752.7142857142858</ele><time>2026-04-06T09:17:22.974Z</time></trkpt><trkpt lat="45.8032096" lon="10.6043931"><ele>1754.142857142857</ele><time>2026-04-06T09:17:31.055Z</time></trkpt><trkpt lat="45.8032458" lon="10.6044726"><ele>1755.5714285714287</ele><time>2026-04-06T09:17:39.194Z</time></trkpt><trkpt lat="45.8032768" lon="10.6045533"><ele>1757.0</ele><time>2026-04-06T09:17:45.996Z</time></trkpt><trkpt lat="45.8032927" lon="10.6046535"><ele>1757.857142857143</ele><time>2026-04-06T09:17:53.12Z</time></trkpt><trkpt lat="45.8033056" lon="10.6047477"><ele>1758.7142857142858</ele><time>2026-04-06T09:18:00.04Z</time></trkpt><trkpt lat="45.803334" lon="10.6048297"><ele>1759.5714285714284</ele><time>2026-04-06T09:18:07.023Z</time></trkpt><trkpt lat="45.8033517" lon="10.6049192"><ele>1760.4285714285716</ele><time>2026-04-06T09:18:16.022Z</time></trkpt><trkpt lat="45.8033834" lon="10.605002"><ele>1761.2857142857142</ele><time>2026-04-06T09:18:24.02Z</time></trkpt><trkpt lat="45.8034127" lon="10.6050889"><ele>1762.142857142857</ele><time>2026-04-06T09:18:32.03Z</time></trkpt><trkpt lat="45.8034257" lon="10.6051852"><ele>1763.0</ele><time>2026-04-06T09:18:40.007Z</time></trkpt><trkpt lat="45.80341" lon="10.6052815"><ele>1764.857142857143</ele><time>2026-04-06T09:18:48.023Z</time></trkpt><trkpt lat="45.8033703" lon="10.6053671"><ele>1766.7142857142858</ele><time>2026-04-06T09:19:03.012Z</time></trkpt><trkpt lat="45.8033498" lon="10.6054566"><ele>1768.5714285714284</ele><time>2026-04-06T09:19:09.027Z</time></trkpt><trkpt lat="45.8033233" lon="10.6055412"><ele>1770.4285714285716</ele><time>2026-04-06T09:19:15.912Z</time></trkpt><trkpt lat="45.8033003" lon="10.6056265"><ele>1772.2857142857144</ele><time>2026-04-06T09:19:26.756Z</time></trkpt><trkpt lat="45.8032878" lon="10.6057215"><ele>1774.142857142857</ele><time>2026-04-06T09:19:33.998Z</time></trkpt><trkpt lat="45.8032478" lon="10.6058071"><ele>1776.0</ele><time>2026-04-06T09:19:47.022Z</time></trkpt><trkpt lat="45.8032261" lon="10.6058978"><ele>1776.0</ele><time>2026-04-06T09:19:54.013Z</time></trkpt><trkpt lat="45.8032407" lon="10.6060528"><ele>1776.0</ele><time>2026-04-06T09:20:35.017Z</time></trkpt><trkpt lat="45.8032642" lon="10.6061427"><ele>1776.0</ele><time>2026-04-06T09:20:42.003Z</time></trkpt><trkpt lat="45.8032842" lon="10.6062288"><ele>1776.0</ele><time>2026-04-06T09:20:49.027Z</time></trkpt><trkpt lat="45.8032966" lon="10.606319"><ele>1776.0</ele><time>2026-04-06T09:20:58.032Z</time></trkpt><trkpt lat="45.8032897" lon="10.6064108"><ele>1776.0</ele><time>2026-04-06T09:21:05.989Z</time></trkpt><trkpt lat="45.8032894" lon="10.6065028"><ele>1776.0</ele><time>2026-04-06T09:21:14.032Z</time></trkpt><trkpt lat="45.8032946" lon="10.6065999"><ele>1777.4285714285713</ele><time>2026-04-06T09:21:22.029Z</time></trkpt><trkpt lat="45.8032982" lon="10.6066976"><ele>1778.857142857143</ele><time>2026-04-06T09:21:31.078Z</time></trkpt><trkpt lat="45.8032922" lon="10.6067944"><ele>1780.2857142857142</ele><time>2026-04-06T09:21:40.004Z</time></trkpt><trkpt lat="45.8032731" lon="10.6068907"><ele>1781.7142857142858</ele><time>2026-04-06T09:21:48.989Z</time></trkpt><trkpt lat="45.8032637" lon="10.6069892"><ele>1783.1428571428573</ele><time>2026-04-06T09:21:56.009Z</time></trkpt><trkpt lat="45.8032474" lon="10.6070798"><ele>1784.5714285714287</ele><time>2026-04-06T09:22:04.017Z</time></trkpt><trkpt lat="45.803223" lon="10.6071665"><ele>1786.0</ele><time>2026-04-06T09:22:11.95Z</time></trkpt><trkpt lat="45.8032151" lon="10.607257"><ele>1787.4285714285716</ele><time>2026-04-06T09:22:23.037Z</time></trkpt><trkpt lat="45.8032028" lon="10.6073499"><ele>1788.857142857143</ele><time>2026-04-06T09:22:31.027Z</time></trkpt><trkpt lat="45.8032063" lon="10.6074415"><ele>1790.2857142857142</ele><time>2026-04-06T09:22:39.003Z</time></trkpt><trkpt lat="45.8031899" lon="10.6075353"><ele>1791.7142857142858</ele><time>2026-04-06T09:22:48.008Z</time></trkpt><trkpt lat="45.8031686" lon="10.6076226"><ele>1793.1428571428569</ele><time>2026-04-06T09:22:56.011Z</time></trkpt><trkpt lat="45.8031718" lon="10.607752"><ele>1794.5714285714284</ele><time>2026-04-06T09:23:48.016Z</time></trkpt><trkpt lat="45.803149" lon="10.6078474"><ele>1796.0</ele><time>2026-04-06T09:23:54.009Z</time></trkpt><trkpt lat="45.8031339" lon="10.6079443"><ele>1798.142857142857</ele><time>2026-04-06T09:24:00.036Z</time></trkpt><trkpt lat="45.8031531" lon="10.6080441"><ele>1800.2857142857142</ele><time>2026-04-06T09:24:09.016Z</time></trkpt><trkpt lat="45.8031385" lon="10.6081336"><ele>1802.4285714285713</ele><time>2026-04-06T09:24:15.998Z</time></trkpt><trkpt lat="45.8031197" lon="10.6082288"><ele>1804.5714285714284</ele><time>2026-04-06T09:24:24.031Z</time></trkpt><trkpt lat="45.8030839" lon="10.6083032"><ele>1806.7142857142858</ele><time>2026-04-06T09:24:34.014Z</time></trkpt><trkpt lat="45.8030372" lon="10.6083662"><ele>1808.8571428571427</ele><time>2026-04-06T09:24:47.039Z</time></trkpt><trkpt lat="45.8029957" lon="10.6084393"><ele>1811.0</ele><time>2026-04-06T09:24:57.01Z</time></trkpt><trkpt lat="45.8029579" lon="10.6085285"><ele>1811.0</ele><time>2026-04-06T09:25:42.981Z</time></trkpt><trkpt lat="45.8029269" lon="10.608616"><ele>1811.0</ele><time>2026-04-06T09:26:10.041Z</time></trkpt><trkpt lat="45.8029094" lon="10.6087043"><ele>1811.0</ele><time>2026-04-06T09:26:17.032Z</time></trkpt><trkpt lat="45.8029016" lon="10.6088015"><ele>1811.0</ele><time>2026-04-06T09:26:25.978Z</time></trkpt><trkpt lat="45.8029165" lon="10.6088907"><ele>1811.0</ele><time>2026-04-06T09:26:34.999Z</time></trkpt><trkpt lat="45.8029285" lon="10.6089838"><ele>1811.0</ele><time>2026-04-06T09:26:43.025Z</time></trkpt><trkpt lat="45.8029441" lon="10.6090839"><ele>1811.0</ele><time>2026-04-06T09:26:51.03Z</time></trkpt><trkpt lat="45.802976" lon="10.6091683"><ele>1813.0</ele><time>2026-04-06T09:26:59.007Z</time></trkpt><trkpt lat="45.8029601" lon="10.6092573"><ele>1815.0</ele><time>2026-04-06T09:27:05.078Z</time></trkpt><trkpt lat="45.8029522" lon="10.60936"><ele>1817.0</ele><time>2026-04-06T09:27:15.05Z</time></trkpt><trkpt lat="45.8029288" lon="10.6094583"><ele>1819.0</ele><time>2026-04-06T09:27:24.048Z</time></trkpt><trkpt lat="45.8029641" lon="10.6095486"><ele>1821.0</ele><time>2026-04-06T09:27:53.028Z</time></trkpt><trkpt lat="45.8030155" lon="10.609609"><ele>1823.0</ele><time>2026-04-06T09:28:01Z</time></trkpt><trkpt lat="45.8030561" lon="10.6096843"><ele>1825.0</ele><time>2026-04-06T09:28:09.021Z</time></trkpt><trkpt lat="45.8030853" lon="10.609778"><ele>1825.0</ele><time>2026-04-06T09:28:17.034Z</time></trkpt><trkpt lat="45.8031227" lon="10.6098578"><ele>1825.0</ele><time>2026-04-06T09:28:25.089Z</time></trkpt><trkpt lat="45.8031125" lon="10.6099481"><ele>1825.0</ele><time>2026-04-06T09:28:42.022Z</time></trkpt><trkpt lat="45.8031363" lon="10.6100333"><ele>1825.0</ele><time>2026-04-06T09:28:50.03Z</time></trkpt><trkpt lat="45.803139" lon="10.6101264"><ele>1825.0</ele><time>2026-04-06T09:29:00.027Z</time></trkpt><trkpt lat="45.8031785" lon="10.6102068"><ele>1825.0</ele><time>2026-04-06T09:29:09.033Z</time></trkpt><trkpt lat="45.8032259" lon="10.6102748"><ele>1825.0</ele><time>2026-04-06T09:29:15.922Z</time></trkpt><trkpt lat="45.8032689" lon="10.6103453"><ele>1826.2857142857142</ele><time>2026-04-06T09:29:23.01Z</time></trkpt><trkpt lat="45.803303" lon="10.610427"><ele>1827.5714285714287</ele><time>2026-04-06T09:29:32.05Z</time></trkpt><trkpt lat="45.803361" lon="10.6104731"><ele>1828.857142857143</ele><time>2026-04-06T09:29:40.023Z</time></trkpt><trkpt lat="45.8034458" lon="10.6104963"><ele>1830.142857142857</ele><time>2026-04-06T09:30:18.588Z</time></trkpt><trkpt lat="45.8035102" lon="10.6105407"><ele>1831.4285714285716</ele><time>2026-04-06T09:30:27.002Z</time></trkpt><trkpt lat="45.8035617" lon="10.6106051"><ele>1832.7142857142858</ele><time>2026-04-06T09:30:35.015Z</time></trkpt><trkpt lat="45.8036149" lon="10.6106619"><ele>1834.0</ele><time>2026-04-06T09:30:43.049Z</time></trkpt><trkpt lat="45.8036824" lon="10.6106828"><ele>1834.0</ele><time>2026-04-06T09:30:51.031Z</time></trkpt><trkpt lat="45.8037506" lon="10.6106821"><ele>1834.0</ele><time>2026-04-06T09:30:59.023Z</time></trkpt><trkpt lat="45.8038175" lon="10.6107041"><ele>1834.0</ele><time>2026-04-06T09:31:07.024Z</time></trkpt><trkpt lat="45.8038849" lon="10.6106975"><ele>1834.0</ele><time>2026-04-06T09:31:15.016Z</time></trkpt><trkpt lat="45.8039474" lon="10.610713"><ele>1834.0</ele><time>2026-04-06T09:31:27.009Z</time></trkpt><trkpt lat="45.8040094" lon="10.6107343"><ele>1834.0</ele><time>2026-04-06T09:31:38.025Z</time></trkpt><trkpt lat="45.8040938" lon="10.6107711"><ele>1834.0</ele><time>2026-04-06T09:31:55.012Z</time></trkpt><trkpt lat="45.8041483" lon="10.6108176"><ele>1834.0</ele><time>2026-04-06T09:32:03.996Z</time></trkpt><trkpt lat="45.8042001" lon="10.610877"><ele>1834.0</ele><time>2026-04-06T09:32:11.03Z</time></trkpt><trkpt lat="45.8042499" lon="10.6109414"><ele>1834.0</ele><time>2026-04-06T09:32:19.413Z</time></trkpt><trkpt lat="45.8042881" lon="10.6110258"><ele>1834.0</ele><time>2026-04-06T09:32:28.038Z</time></trkpt><trkpt lat="45.8043475" lon="10.6110717"><ele>1834.0</ele><time>2026-04-06T09:32:36.046Z</time></trkpt><trkpt lat="45.8043999" lon="10.6111297"><ele>1834.0</ele><time>2026-04-06T09:32:43.054Z</time></trkpt><trkpt lat="45.8044433" lon="10.6111959"><ele>1834.0</ele><time>2026-04-06T09:32:50.03Z</time></trkpt><trkpt lat="45.8044983" lon="10.6112647"><ele>1836.0</ele><time>2026-04-06T09:32:57.994Z</time></trkpt><trkpt lat="45.8045555" lon="10.6113153"><ele>1838.0</ele><time>2026-04-06T09:33:04.991Z</time></trkpt><trkpt lat="45.8046036" lon="10.6113815"><ele>1840.0</ele><time>2026-04-06T09:33:14.032Z</time></trkpt><trkpt lat="45.8046505" lon="10.6114427"><ele>1842.0</ele><time>2026-04-06T09:33:21.041Z</time></trkpt><trkpt lat="45.8046922" lon="10.6115155"><ele>1844.0</ele><time>2026-04-06T09:33:27.952Z</time></trkpt><trkpt lat="45.804735" lon="10.6115951"><ele>1846.0</ele><time>2026-04-06T09:33:35.04Z</time></trkpt><trkpt lat="45.8047764" lon="10.6116711"><ele>1848.0</ele><time>2026-04-06T09:33:43.026Z</time></trkpt><trkpt lat="45.8048184" lon="10.6117416"><ele>1848.0</ele><time>2026-04-06T09:33:50.03Z</time></trkpt><trkpt lat="45.8048435" lon="10.6118362"><ele>1848.0</ele><time>2026-04-06T09:33:58.032Z</time></trkpt><trkpt lat="45.8048619" lon="10.6119357"><ele>1848.0</ele><time>2026-04-06T09:34:05.028Z</time></trkpt><trkpt lat="45.8048772" lon="10.612033"><ele>1848.0</ele><time>2026-04-06T09:34:12.934Z</time></trkpt><trkpt lat="45.8048805" lon="10.6121304"><ele>1848.0</ele><time>2026-04-06T09:34:21.025Z</time></trkpt><trkpt lat="45.8048895" lon="10.6122229"><ele>1848.0</ele><time>2026-04-06T09:34:28.02Z</time></trkpt><trkpt lat="45.8048923" lon="10.6123179"><ele>1848.0</ele><time>2026-04-06T09:34:36.009Z</time></trkpt><trkpt lat="45.8048885" lon="10.6124164"><ele>1848.5714285714284</ele><time>2026-04-06T09:34:42.947Z</time></trkpt><trkpt lat="45.8048779" lon="10.6125153"><ele>1849.142857142857</ele><time>2026-04-06T09:34:51.026Z</time></trkpt><trkpt lat="45.8048734" lon="10.6126099"><ele>1849.7142857142858</ele><time>2026-04-06T09:34:58.036Z</time></trkpt><trkpt lat="45.8048792" lon="10.6127015"><ele>1850.2857142857142</ele><time>2026-04-06T09:35:05.014Z</time></trkpt><trkpt lat="45.8048802" lon="10.6127969"><ele>1850.8571428571427</ele><time>2026-04-06T09:35:12.021Z</time></trkpt><trkpt lat="45.8048755" lon="10.6128951"><ele>1851.4285714285713</ele><time>2026-04-06T09:35:19Z</time></trkpt><trkpt lat="45.8048531" lon="10.6129878"><ele>1852.0</ele><time>2026-04-06T09:35:26.997Z</time></trkpt><trkpt lat="45.8048402" lon="10.6130779"><ele>1853.2857142857142</ele><time>2026-04-06T09:35:34.008Z</time></trkpt><trkpt lat="45.8048208" lon="10.6132125"><ele>1854.5714285714284</ele><time>2026-04-06T09:36:02.948Z</time></trkpt><trkpt lat="45.804814" lon="10.6133027"><ele>1855.8571428571427</ele><time>2026-04-06T09:36:12.017Z</time></trkpt><trkpt lat="45.804798" lon="10.6134006"><ele>1857.1428571428569</ele><time>2026-04-06T09:36:22.024Z</time></trkpt><trkpt lat="45.8047882" lon="10.6134961"><ele>1858.4285714285713</ele><time>2026-04-06T09:36:34.936Z</time></trkpt><trkpt lat="45.8047613" lon="10.6135805"><ele>1859.7142857142853</ele><time>2026-04-06T09:36:44.014Z</time></trkpt><trkpt lat="45.8047522" lon="10.6136699"><ele>1860.9999999999998</ele><time>2026-04-06T09:36:52.027Z</time></trkpt><trkpt lat="45.804752" lon="10.6137687"><ele>1861.285714285714</ele><time>2026-04-06T09:37:07.008Z</time></trkpt><trkpt lat="45.8047822" lon="10.6138526"><ele>1861.5714285714284</ele><time>2026-04-06T09:37:13.02Z</time></trkpt><trkpt lat="45.8048089" lon="10.6139431"><ele>1861.857142857143</ele><time>2026-04-06T09:37:21.042Z</time></trkpt><trkpt lat="45.8048435" lon="10.6140224"><ele>1862.142857142857</ele><time>2026-04-06T09:37:28.025Z</time></trkpt><trkpt lat="45.8048603" lon="10.6141201"><ele>1862.4285714285716</ele><time>2026-04-06T09:37:37.02Z</time></trkpt><trkpt lat="45.8048992" lon="10.6141984"><ele>1862.714285714286</ele><time>2026-04-06T09:37:50.014Z</time></trkpt><trkpt lat="45.8049399" lon="10.6142751"><ele>1863.0000000000002</ele><time>2026-04-06T09:38:03.017Z</time></trkpt><trkpt lat="45.8049621" lon="10.6143664"><ele>1863.0000000000002</ele><time>2026-04-06T09:38:12.033Z</time></trkpt><trkpt lat="45.8050187" lon="10.6144119"><ele>1863.0</ele><time>2026-04-06T09:38:23.948Z</time></trkpt><trkpt lat="45.805057" lon="10.6144862"><ele>1863.0000000000002</ele><time>2026-04-06T09:38:40.032Z</time></trkpt><trkpt lat="45.8050725" lon="10.6145745"><ele>1863.0000000000002</ele><time>2026-04-06T09:39:43.99Z</time></trkpt><trkpt lat="45.8051051" lon="10.6146572"><ele>1863.0</ele><time>2026-04-06T09:39:53.035Z</time></trkpt><trkpt lat="45.8051451" lon="10.614727"><ele>1863.0000000000002</ele><time>2026-04-06T09:40:01.002Z</time></trkpt><trkpt lat="45.8051817" lon="10.6148031"><ele>1863.0000000000002</ele><time>2026-04-06T09:40:10.011Z</time></trkpt><trkpt lat="45.8052413" lon="10.6148416"><ele>1866.1428571428573</ele><time>2026-04-06T09:40:19.036Z</time></trkpt><trkpt lat="45.8052492" lon="10.6149348"><ele>1869.2857142857142</ele><time>2026-04-06T09:40:34.045Z</time></trkpt><trkpt lat="45.8052589" lon="10.6150246"><ele>1872.4285714285716</ele><time>2026-04-06T09:40:46.032Z</time></trkpt><trkpt lat="45.8052405" lon="10.6151146"><ele>1875.5714285714287</ele><time>2026-04-06T09:40:56.034Z</time></trkpt><trkpt lat="45.8052437" lon="10.6152086"><ele>1878.7142857142858</ele><time>2026-04-06T09:41:04.009Z</time></trkpt><trkpt lat="45.8052635" lon="10.6153003"><ele>1881.857142857143</ele><time>2026-04-06T09:41:13.042Z</time></trkpt><trkpt lat="45.805279" lon="10.6153909"><ele>1885.0</ele><time>2026-04-06T09:41:20.034Z</time></trkpt><trkpt lat="45.8052936" lon="10.6154887"><ele>1885.0</ele><time>2026-04-06T09:41:26.998Z</time></trkpt><trkpt lat="45.8053091" lon="10.6155817"><ele>1885.0</ele><time>2026-04-06T09:41:34.031Z</time></trkpt><trkpt lat="45.8053218" lon="10.6156767"><ele>1885.0</ele><time>2026-04-06T09:41:41.068Z</time></trkpt><trkpt lat="45.8053262" lon="10.6157799"><ele>1885.0</ele><time>2026-04-06T09:41:48.022Z</time></trkpt><trkpt lat="45.8053256" lon="10.6158793"><ele>1885.0</ele><time>2026-04-06T09:41:55.025Z</time></trkpt><trkpt lat="45.8053221" lon="10.615975"><ele>1885.0</ele><time>2026-04-06T09:42:01.995Z</time></trkpt><trkpt lat="45.8053228" lon="10.616078"><ele>1885.0</ele><time>2026-04-06T09:42:08.019Z</time></trkpt><trkpt lat="45.8053183" lon="10.6161721"><ele>1884.0</ele><time>2026-04-06T09:42:14.03Z</time></trkpt><trkpt lat="45.8053288" lon="10.6162655"><ele>1883.0</ele><time>2026-04-06T09:42:22.017Z</time></trkpt><trkpt lat="45.8053419" lon="10.6163611"><ele>1882.0</ele><time>2026-04-06T09:42:30.038Z</time></trkpt><trkpt lat="45.8053506" lon="10.6164506"><ele>1881.0</ele><time>2026-04-06T09:42:37.017Z</time></trkpt><trkpt lat="45.8053478" lon="10.6165444"><ele>1880.0</ele><time>2026-04-06T09:42:55.028Z</time></trkpt><trkpt lat="45.8053367" lon="10.616645"><ele>1879.0</ele><time>2026-04-06T09:43:03.018Z</time></trkpt><trkpt lat="45.805316" lon="10.6167417"><ele>1878.0</ele><time>2026-04-06T09:43:10.02Z</time></trkpt><trkpt lat="45.8053115" lon="10.6168446"><ele>1878.0</ele><time>2026-04-06T09:43:19.029Z</time></trkpt><trkpt lat="45.8053215" lon="10.6169394"><ele>1878.0</ele><time>2026-04-06T09:43:27.011Z</time></trkpt><trkpt lat="45.8053258" lon="10.6170333"><ele>1878.0</ele><time>2026-04-06T09:43:34.007Z</time></trkpt><trkpt lat="45.8053332" lon="10.6171317"><ele>1878.0</ele><time>2026-04-06T09:43:43.073Z</time></trkpt><trkpt lat="45.8053459" lon="10.617231"><ele>1878.0</ele><time>2026-04-06T09:43:50.012Z</time></trkpt><trkpt lat="45.805352" lon="10.6173377"><ele>1878.0</ele><time>2026-04-06T09:43:57.033Z</time></trkpt><trkpt lat="45.8053482" lon="10.6174375"><ele>1878.0</ele><time>2026-04-06T09:44:04.016Z</time></trkpt><trkpt lat="45.805351" lon="10.6175364"><ele>1876.857142857143</ele><time>2026-04-06T09:44:11.005Z</time></trkpt><trkpt lat="45.8053589" lon="10.6176321"><ele>1875.7142857142858</ele><time>2026-04-06T09:44:18.03Z</time></trkpt><trkpt lat="45.8053549" lon="10.6177229"><ele>1874.5714285714287</ele><time>2026-04-06T09:44:24.029Z</time></trkpt><trkpt lat="45.8053774" lon="10.6178078"><ele>1873.4285714285716</ele><time>2026-04-06T09:44:31.039Z</time></trkpt><trkpt lat="45.8054072" lon="10.617901"><ele>1872.2857142857142</ele><time>2026-04-06T09:44:40.027Z</time></trkpt><trkpt lat="45.8054141" lon="10.6179942"><ele>1871.1428571428573</ele><time>2026-04-06T09:44:46.052Z</time></trkpt><trkpt lat="45.8054151" lon="10.6180948"><ele>1870.0000000000002</ele><time>2026-04-06T09:44:52.933Z</time></trkpt><trkpt lat="45.805416" lon="10.6181904"><ele>1869.714285714286</ele><time>2026-04-06T09:45:00.038Z</time></trkpt><trkpt lat="45.8054347" lon="10.6182909"><ele>1869.4285714285716</ele><time>2026-04-06T09:45:07.029Z</time></trkpt><trkpt lat="45.8054565" lon="10.618385"><ele>1869.142857142857</ele><time>2026-04-06T09:45:14.011Z</time></trkpt><trkpt lat="45.8054608" lon="10.6184843"><ele>1868.857142857143</ele><time>2026-04-06T09:45:21.009Z</time></trkpt><trkpt lat="45.8054647" lon="10.6185871"><ele>1868.5714285714284</ele><time>2026-04-06T09:45:29.038Z</time></trkpt><trkpt lat="45.8054738" lon="10.6186858"><ele>1868.285714285714</ele><time>2026-04-06T09:45:36.033Z</time></trkpt><trkpt lat="45.8054916" lon="10.6187782"><ele>1867.9999999999998</ele><time>2026-04-06T09:45:43.018Z</time></trkpt><trkpt lat="45.8055078" lon="10.6188747"><ele>1866.9999999999998</ele><time>2026-04-06T09:45:50.013Z</time></trkpt><trkpt lat="45.8055152" lon="10.6189743"><ele>1866.0</ele><time>2026-04-06T09:45:57.027Z</time></trkpt><trkpt lat="45.8055235" lon="10.6190694"><ele>1864.9999999999998</ele><time>2026-04-06T09:46:04.041Z</time></trkpt><trkpt lat="45.80555" lon="10.6191551"><ele>1863.9999999999998</ele><time>2026-04-06T09:46:16.031Z</time></trkpt><trkpt lat="45.8055689" lon="10.6192487"><ele>1863.0</ele><time>2026-04-06T09:46:25.03Z</time></trkpt><trkpt lat="45.8055594" lon="10.6193441"><ele>1861.9999999999998</ele><time>2026-04-06T09:46:35.032Z</time></trkpt><trkpt lat="45.8055548" lon="10.6194402"><ele>1860.9999999999998</ele><time>2026-04-06T09:46:45.038Z</time></trkpt><trkpt lat="45.8055698" lon="10.6195446"><ele>1860.285714285714</ele><time>2026-04-06T09:47:41.02Z</time></trkpt><trkpt lat="45.8055566" lon="10.6196383"><ele>1859.5714285714284</ele><time>2026-04-06T09:47:51.034Z</time></trkpt><trkpt lat="45.8055412" lon="10.6197277"><ele>1858.857142857143</ele><time>2026-04-06T09:48:04.035Z</time></trkpt><trkpt lat="45.805548" lon="10.6198277"><ele>1858.142857142857</ele><time>2026-04-06T09:48:16.007Z</time></trkpt><trkpt lat="45.8055597" lon="10.6199222"><ele>1857.4285714285716</ele><time>2026-04-06T09:48:31.03Z</time></trkpt><trkpt lat="45.8055827" lon="10.62001"><ele>1856.714285714286</ele><time>2026-04-06T09:48:42.036Z</time></trkpt><trkpt lat="45.805589" lon="10.6201006"><ele>1856.0000000000002</ele><time>2026-04-06T09:48:55.008Z</time></trkpt><trkpt lat="45.8055831" lon="10.6201915"><ele>1856.0000000000002</ele><time>2026-04-06T09:49:06.019Z</time></trkpt><trkpt lat="45.8055772" lon="10.6202928"><ele>1856.0</ele><time>2026-04-06T09:49:18.039Z</time></trkpt><trkpt lat="45.805577" lon="10.6203908"><ele>1856.0000000000002</ele><time>2026-04-06T09:49:24.938Z</time></trkpt><trkpt lat="45.8055865" lon="10.6204806"><ele>1856.0000000000002</ele><time>2026-04-06T09:49:32.021Z</time></trkpt><trkpt lat="45.8055866" lon="10.620579"><ele>1856.0</ele><time>2026-04-06T09:49:41.03Z</time></trkpt><trkpt lat="45.8055799" lon="10.6206799"><ele>1856.0000000000002</ele><time>2026-04-06T09:49:48.006Z</time></trkpt><trkpt lat="45.8055951" lon="10.6207729"><ele>1856.0000000000002</ele><time>2026-04-06T09:49:53.988Z</time></trkpt><trkpt lat="45.8055944" lon="10.6208641"><ele>1855.2857142857147</ele><time>2026-04-06T09:50:00.027Z</time></trkpt><trkpt lat="45.8055873" lon="10.6209622"><ele>1854.5714285714287</ele><time>2026-04-06T09:50:07.077Z</time></trkpt><trkpt lat="45.8055839" lon="10.6210608"><ele>1853.8571428571431</ele><time>2026-04-06T09:50:13.033Z</time></trkpt><trkpt lat="45.8055765" lon="10.6211538"><ele>1853.1428571428573</ele><time>2026-04-06T09:50:19.011Z</time></trkpt><trkpt lat="45.8055702" lon="10.6212535"><ele>1852.4285714285716</ele><time>2026-04-06T09:50:25.067Z</time></trkpt><trkpt lat="45.8055739" lon="10.6213538"><ele>1851.7142857142858</ele><time>2026-04-06T09:50:33.039Z</time></trkpt><trkpt lat="45.8055789" lon="10.6214596"><ele>1851.0</ele><time>2026-04-06T09:50:40.031Z</time></trkpt><trkpt lat="45.8055722" lon="10.6215515"><ele>1850.857142857143</ele><time>2026-04-06T09:50:47.02Z</time></trkpt><trkpt lat="45.8055869" lon="10.6216448"><ele>1850.7142857142858</ele><time>2026-04-06T09:50:54.027Z</time></trkpt><trkpt lat="45.8055955" lon="10.621745"><ele>1850.5714285714287</ele><time>2026-04-06T09:51:01.015Z</time></trkpt><trkpt lat="45.805605" lon="10.6218456"><ele>1850.4285714285716</ele><time>2026-04-06T09:51:08.046Z</time></trkpt><trkpt lat="45.8055962" lon="10.6219449"><ele>1850.2857142857142</ele><time>2026-04-06T09:51:15.022Z</time></trkpt><trkpt lat="45.805574" lon="10.622041"><ele>1850.1428571428573</ele><time>2026-04-06T09:51:22.017Z</time></trkpt><trkpt lat="45.8055774" lon="10.6221321"><ele>1850.0</ele><time>2026-04-06T09:51:28.052Z</time></trkpt><trkpt lat="45.8055767" lon="10.6222246"><ele>1850.0</ele><time>2026-04-06T09:51:34.03Z</time></trkpt><trkpt lat="45.8055813" lon="10.6223211"><ele>1850.0</ele><time>2026-04-06T09:51:41.049Z</time></trkpt><trkpt lat="45.8055761" lon="10.6224212"><ele>1850.0</ele><time>2026-04-06T09:51:47.968Z</time></trkpt><trkpt lat="45.805567" lon="10.6225166"><ele>1850.0</ele><time>2026-04-06T09:51:55.03Z</time></trkpt><trkpt lat="45.8055505" lon="10.622607"><ele>1850.0</ele><time>2026-04-06T09:52:02.027Z</time></trkpt><trkpt lat="45.8055465" lon="10.6227063"><ele>1850.0</ele><time>2026-04-06T09:52:08.042Z</time></trkpt><trkpt lat="45.8055454" lon="10.6228038"><ele>1850.0</ele><time>2026-04-06T09:52:18.003Z</time></trkpt><trkpt lat="45.8055364" lon="10.6228977"><ele>1851.4285714285716</ele><time>2026-04-06T09:52:24.016Z</time></trkpt><trkpt lat="45.8055167" lon="10.6229969"><ele>1852.8571428571427</ele><time>2026-04-06T09:52:31.022Z</time></trkpt><trkpt lat="45.8054951" lon="10.623096"><ele>1854.2857142857142</ele><time>2026-04-06T09:52:38.018Z</time></trkpt><trkpt lat="45.8054811" lon="10.623193"><ele>1855.7142857142858</ele><time>2026-04-06T09:52:43.95Z</time></trkpt><trkpt lat="45.8054757" lon="10.6232846"><ele>1857.1428571428573</ele><time>2026-04-06T09:52:49.97Z</time></trkpt><trkpt lat="45.8054731" lon="10.623382"><ele>1858.5714285714284</ele><time>2026-04-06T09:52:56.036Z</time></trkpt><trkpt lat="45.8054761" lon="10.6234783"><ele>1860.0</ele><time>2026-04-06T09:53:02.023Z</time></trkpt><trkpt lat="45.8054747" lon="10.6235739"><ele>1862.0</ele><time>2026-04-06T09:53:09.022Z</time></trkpt><trkpt lat="45.8054637" lon="10.6236643"><ele>1864.0</ele><time>2026-04-06T09:53:23.022Z</time></trkpt><trkpt lat="45.805447" lon="10.6237523"><ele>1866.0</ele><time>2026-04-06T09:53:29.028Z</time></trkpt><trkpt lat="45.805422" lon="10.6238391"><ele>1868.0</ele><time>2026-04-06T09:53:35.023Z</time></trkpt><trkpt lat="45.8054031" lon="10.623927"><ele>1870.0</ele><time>2026-04-06T09:53:41.012Z</time></trkpt><trkpt lat="45.8053693" lon="10.6240089"><ele>1872.0</ele><time>2026-04-06T09:53:46.999Z</time></trkpt><trkpt lat="45.8053376" lon="10.6240943"><ele>1874.0</ele><time>2026-04-06T09:53:54.021Z</time></trkpt><trkpt lat="45.8053146" lon="10.6241837"><ele>1874.0</ele><time>2026-04-06T09:54:00.012Z</time></trkpt><trkpt lat="45.8052932" lon="10.62427"><ele>1874.0</ele><time>2026-04-06T09:54:06.017Z</time></trkpt><trkpt lat="45.8052443" lon="10.6243454"><ele>1874.0</ele><time>2026-04-06T09:54:36.039Z</time></trkpt><trkpt lat="45.8052021" lon="10.6244235"><ele>1874.0</ele><time>2026-04-06T09:54:43.007Z</time></trkpt><trkpt lat="45.8051906" lon="10.6245145"><ele>1874.0</ele><time>2026-04-06T09:54:50.014Z</time></trkpt><trkpt lat="45.8051759" lon="10.6246148"><ele>1874.0</ele><time>2026-04-06T09:54:57.994Z</time></trkpt><trkpt lat="45.8051637" lon="10.6247062"><ele>1874.0</ele><time>2026-04-06T09:55:04.996Z</time></trkpt><trkpt lat="45.8051495" lon="10.6247948"><ele>1868.8571428571427</ele><time>2026-04-06T09:55:19.002Z</time></trkpt><trkpt lat="45.8051337" lon="10.6248833"><ele>1863.7142857142858</ele><time>2026-04-06T09:55:30.044Z</time></trkpt><trkpt lat="45.8051192" lon="10.6249858"><ele>1858.5714285714284</ele><time>2026-04-06T09:55:44.042Z</time></trkpt><trkpt lat="45.8050819" lon="10.6250713"><ele>1853.4285714285713</ele><time>2026-04-06T09:55:52.788Z</time></trkpt><trkpt lat="45.8050499" lon="10.6251613"><ele>1848.2857142857142</ele><time>2026-04-06T09:56:00.003Z</time></trkpt><trkpt lat="45.8050374" lon="10.6252647"><ele>1843.142857142857</ele><time>2026-04-06T09:56:08.016Z</time></trkpt><trkpt lat="45.805025" lon="10.6253608"><ele>1838.0</ele><time>2026-04-06T09:56:14.993Z</time></trkpt><trkpt lat="45.8050113" lon="10.6254598"><ele>1838.0</ele><time>2026-04-06T09:56:23.024Z</time></trkpt><trkpt lat="45.8049545" lon="10.6255107"><ele>1837.9999999999998</ele><time>2026-04-06T09:56:56.992Z</time></trkpt><trkpt lat="45.8049006" lon="10.6255726"><ele>1838.0</ele><time>2026-04-06T09:57:12.989Z</time></trkpt><trkpt lat="45.8048844" lon="10.6256627"><ele>1838.0</ele><time>2026-04-06T09:57:20.019Z</time></trkpt><trkpt lat="45.8048603" lon="10.6257585"><ele>1837.9999999999998</ele><time>2026-04-06T09:57:28.012Z</time></trkpt><trkpt lat="45.8048274" lon="10.6258414"><ele>1838.0</ele><time>2026-04-06T09:57:37.027Z</time></trkpt><trkpt lat="45.804807" lon="10.6259292"><ele>1838.0</ele><time>2026-04-06T09:57:44.92Z</time></trkpt><trkpt lat="45.8047939" lon="10.6260277"><ele>1838.0</ele><time>2026-04-06T09:57:53.002Z</time></trkpt><trkpt lat="45.8047635" lon="10.6261181"><ele>1837.9999999999998</ele><time>2026-04-06T09:58:03.018Z</time></trkpt><trkpt lat="45.8047395" lon="10.6262081"><ele>1838.0</ele><time>2026-04-06T09:58:10.021Z</time></trkpt><trkpt lat="45.804707" lon="10.6262879"><ele>1838.0</ele><time>2026-04-06T09:58:19.019Z</time></trkpt><trkpt lat="45.8046571" lon="10.6262201"><ele>1837.9999999999998</ele><time>2026-04-06T09:58:55.013Z</time></trkpt><trkpt lat="45.8046493" lon="10.6261289"><ele>1838.0</ele><time>2026-04-06T09:59:01.997Z</time></trkpt><trkpt lat="45.8045872" lon="10.6260859"><ele>1838.0</ele><time>2026-04-06T09:59:21Z</time></trkpt><trkpt lat="45.8045447" lon="10.6261542"><ele>1838.4285714285713</ele><time>2026-04-06T09:59:34.948Z</time></trkpt><trkpt lat="45.8045129" lon="10.6262372"><ele>1838.8571428571427</ele><time>2026-04-06T09:59:46.981Z</time></trkpt><trkpt lat="45.8044863" lon="10.6263295"><ele>1839.2857142857142</ele><time>2026-04-06T09:59:54.998Z</time></trkpt><trkpt lat="45.8044642" lon="10.6264276"><ele>1839.7142857142858</ele><time>2026-04-06T10:00:02.032Z</time></trkpt><trkpt lat="45.804441" lon="10.6265132"><ele>1840.142857142857</ele><time>2026-04-06T10:00:08.998Z</time></trkpt><trkpt lat="45.8045117" lon="10.6265372"><ele>1840.5714285714284</ele><time>2026-04-06T10:03:44.998Z</time></trkpt><trkpt lat="45.8044691" lon="10.6264599"><ele>1841.0</ele><time>2026-04-06T10:05:51.017Z</time></trkpt><trkpt lat="45.8045441" lon="10.6264724"><ele>1841.0</ele><time>2026-04-06T10:06:14.025Z</time></trkpt><trkpt lat="45.8044996" lon="10.6263985"><ele>1841.0</ele><time>2026-04-06T10:08:27.009Z</time></trkpt><trkpt lat="45.8044388" lon="10.6265074"><ele>1841.0</ele><time>2026-04-06T10:11:32.004Z</time></trkpt><trkpt lat="45.8043994" lon="10.6265928"><ele>1841.0</ele><time>2026-04-06T10:14:58.996Z</time></trkpt><trkpt lat="45.8043816" lon="10.6266871"><ele>1841.0</ele><time>2026-04-06T10:15:07.109Z</time></trkpt><trkpt lat="45.8043937" lon="10.6267777"><ele>1841.0</ele><time>2026-04-06T10:15:25.989Z</time></trkpt><trkpt lat="45.8044021" lon="10.6268723"><ele>1841.0</ele><time>2026-04-06T10:15:31.03Z</time></trkpt><trkpt lat="45.8044268" lon="10.626961"><ele>1841.4285714285716</ele><time>2026-04-06T10:15:37.026Z</time></trkpt><trkpt lat="45.8044122" lon="10.6270531"><ele>1841.857142857143</ele><time>2026-04-06T10:15:44.019Z</time></trkpt><trkpt lat="45.8043989" lon="10.6271455"><ele>1842.2857142857142</ele><time>2026-04-06T10:15:52.025Z</time></trkpt><trkpt lat="45.8043938" lon="10.6272357"><ele>1842.7142857142858</ele><time>2026-04-06T10:15:58.999Z</time></trkpt><trkpt lat="45.8043934" lon="10.6273279"><ele>1843.1428571428573</ele><time>2026-04-06T10:16:08.021Z</time></trkpt><trkpt lat="45.8044004" lon="10.62742"><ele>1843.5714285714287</ele><time>2026-04-06T10:16:15.031Z</time></trkpt><trkpt lat="45.8044065" lon="10.6275138"><ele>1844.0</ele><time>2026-04-06T10:16:23.006Z</time></trkpt><trkpt lat="45.8044009" lon="10.6276139"><ele>1844.0</ele><time>2026-04-06T10:16:30.037Z</time></trkpt><trkpt lat="45.8043982" lon="10.6277088"><ele>1844.0000000000002</ele><time>2026-04-06T10:16:37.021Z</time></trkpt><trkpt lat="45.8044082" lon="10.627808"><ele>1844.0</ele><time>2026-04-06T10:16:43.986Z</time></trkpt><trkpt lat="45.8044263" lon="10.6278979"><ele>1844.0</ele><time>2026-04-06T10:16:49.992Z</time></trkpt><trkpt lat="45.8043606" lon="10.62788"><ele>1844.0000000000002</ele><time>2026-04-06T10:17:23.014Z</time></trkpt><trkpt lat="45.8043101" lon="10.6278236"><ele>1844.0</ele><time>2026-04-06T10:17:31.004Z</time></trkpt><trkpt lat="45.8042641" lon="10.6277469"><ele>1844.0</ele><time>2026-04-06T10:17:40.005Z</time></trkpt><trkpt lat="45.8042073" lon="10.6276861"><ele>1836.1428571428573</ele><time>2026-04-06T10:17:48.003Z</time></trkpt><trkpt lat="45.8041465" lon="10.6276378"><ele>1828.2857142857144</ele><time>2026-04-06T10:17:54.893Z</time></trkpt><trkpt lat="45.8040806" lon="10.6276338"><ele>1820.4285714285716</ele><time>2026-04-06T10:18:00.996Z</time></trkpt><trkpt lat="45.8040859" lon="10.6275407"><ele>1812.5714285714287</ele><time>2026-04-06T10:18:07.996Z</time></trkpt><trkpt lat="45.8040992" lon="10.6274429"><ele>1804.7142857142858</ele><time>2026-04-06T10:18:17.026Z</time></trkpt><trkpt lat="45.8040862" lon="10.6273512"><ele>1796.8571428571431</ele><time>2026-04-06T10:18:24.03Z</time></trkpt><trkpt lat="45.8040609" lon="10.6272633"><ele>1789.0</ele><time>2026-04-06T10:18:31.003Z</time></trkpt><trkpt lat="45.8040321" lon="10.6271774"><ele>1789.0000000000002</ele><time>2026-04-06T10:18:37.009Z</time></trkpt><trkpt lat="45.8040001" lon="10.6270859"><ele>1789.0</ele><time>2026-04-06T10:18:44.002Z</time></trkpt><trkpt lat="45.8039648" lon="10.6270049"><ele>1789.0</ele><time>2026-04-06T10:18:51.025Z</time></trkpt><trkpt lat="45.803925" lon="10.6269329"><ele>1789.0</ele><time>2026-04-06T10:18:58.002Z</time></trkpt><trkpt lat="45.8038814" lon="10.6268582"><ele>1789.0</ele><time>2026-04-06T10:19:15.012Z</time></trkpt><trkpt lat="45.8038106" lon="10.6268346"><ele>1789.0000000000002</ele><time>2026-04-06T10:19:22.006Z</time></trkpt><trkpt lat="45.8037466" lon="10.626792"><ele>1789.0</ele><time>2026-04-06T10:19:28.016Z</time></trkpt><trkpt lat="45.8036875" lon="10.6267525"><ele>1790.1428571428573</ele><time>2026-04-06T10:19:34.003Z</time></trkpt><trkpt lat="45.8036351" lon="10.6266981"><ele>1791.2857142857142</ele><time>2026-04-06T10:19:41.018Z</time></trkpt><trkpt lat="45.8035739" lon="10.6266722"><ele>1792.4285714285716</ele><time>2026-04-06T10:19:48.004Z</time></trkpt><trkpt lat="45.8035072" lon="10.6266367"><ele>1793.5714285714287</ele><time>2026-04-06T10:19:55.013Z</time></trkpt><trkpt lat="45.8034375" lon="10.6266121"><ele>1794.7142857142858</ele><time>2026-04-06T10:20:02.01Z</time></trkpt><trkpt lat="45.8033776" lon="10.6265751"><ele>1795.857142857143</ele><time>2026-04-06T10:20:08.004Z</time></trkpt><trkpt lat="45.8033259" lon="10.6265198"><ele>1797.0</ele><time>2026-04-06T10:20:15.006Z</time></trkpt><trkpt lat="45.8032813" lon="10.6264428"><ele>1792.7142857142856</ele><time>2026-04-06T10:20:23.011Z</time></trkpt><trkpt lat="45.8032659" lon="10.6263487"><ele>1788.4285714285716</ele><time>2026-04-06T10:20:30.017Z</time></trkpt><trkpt lat="45.803217" lon="10.6262827"><ele>1784.142857142857</ele><time>2026-04-06T10:20:42.017Z</time></trkpt><trkpt lat="45.8031524" lon="10.6263"><ele>1779.8571428571427</ele><time>2026-04-06T10:20:52.012Z</time></trkpt><trkpt lat="45.803087" lon="10.6263246"><ele>1775.5714285714284</ele><time>2026-04-06T10:21:01.095Z</time></trkpt><trkpt lat="45.80304" lon="10.626391"><ele>1771.2857142857142</ele><time>2026-04-06T10:21:20.918Z</time></trkpt><trkpt lat="45.8029733" lon="10.6264049"><ele>1767.0</ele><time>2026-04-06T10:21:33.022Z</time></trkpt><trkpt lat="45.802908" lon="10.6264029"><ele>1766.9999999999998</ele><time>2026-04-06T10:21:41.008Z</time></trkpt><trkpt lat="45.8028471" lon="10.626435"><ele>1767.0</ele><time>2026-04-06T10:21:48.005Z</time></trkpt><trkpt lat="45.8027963" lon="10.6264913"><ele>1767.0</ele><time>2026-04-06T10:21:53.974Z</time></trkpt><trkpt lat="45.8027386" lon="10.6265412"><ele>1767.0</ele><time>2026-04-06T10:21:59.942Z</time></trkpt><trkpt lat="45.8026771" lon="10.6265845"><ele>1767.0</ele><time>2026-04-06T10:22:07.011Z</time></trkpt><trkpt lat="45.8026113" lon="10.6265768"><ele>1766.9999999999998</ele><time>2026-04-06T10:22:17.039Z</time></trkpt><trkpt lat="45.8025482" lon="10.6265479"><ele>1767.0</ele><time>2026-04-06T10:22:27.991Z</time></trkpt><trkpt lat="45.8024872" lon="10.6265167"><ele>1764.2857142857142</ele><time>2026-04-06T10:22:37.019Z</time></trkpt><trkpt lat="45.8024286" lon="10.6264814"><ele>1761.5714285714284</ele><time>2026-04-06T10:22:46.033Z</time></trkpt><trkpt lat="45.8023745" lon="10.6264313"><ele>1758.8571428571427</ele><time>2026-04-06T10:22:56.045Z</time></trkpt><trkpt lat="45.8023131" lon="10.6264888"><ele>1756.142857142857</ele><time>2026-04-06T10:23:03.992Z</time></trkpt><trkpt lat="45.8022724" lon="10.6265661"><ele>1753.4285714285716</ele><time>2026-04-06T10:23:10.007Z</time></trkpt><trkpt lat="45.8022339" lon="10.6266387"><ele>1750.7142857142856</ele><time>2026-04-06T10:23:17.004Z</time></trkpt><trkpt lat="45.8022042" lon="10.6267328"><ele>1748.0</ele><time>2026-04-06T10:23:24.961Z</time></trkpt><trkpt lat="45.8021882" lon="10.6268289"><ele>1748.0</ele><time>2026-04-06T10:23:33.01Z</time></trkpt><trkpt lat="45.8021721" lon="10.6269248"><ele>1748.0</ele><time>2026-04-06T10:23:40.009Z</time></trkpt><trkpt lat="45.80219" lon="10.6270241"><ele>1748.0</ele><time>2026-04-06T10:23:48.021Z</time></trkpt><trkpt lat="45.8022245" lon="10.6271128"><ele>1748.0</ele><time>2026-04-06T10:23:56.018Z</time></trkpt><trkpt lat="45.8021573" lon="10.6270834"><ele>1748.0</ele><time>2026-04-06T10:24:04.025Z</time></trkpt><trkpt lat="45.8021128" lon="10.6270138"><ele>1748.0</ele><time>2026-04-06T10:24:10.5Z</time></trkpt><trkpt lat="45.8020801" lon="10.6269358"><ele>1748.0</ele><time>2026-04-06T10:24:17.042Z</time></trkpt><trkpt lat="45.8020604" lon="10.6268411"><ele>1748.0</ele><time>2026-04-06T10:24:27.015Z</time></trkpt><trkpt lat="45.8020497" lon="10.6267519"><ele>1748.0</ele><time>2026-04-06T10:24:36.026Z</time></trkpt><trkpt lat="45.8020329" lon="10.6266617"><ele>1748.0</ele><time>2026-04-06T10:24:43.995Z</time></trkpt><trkpt lat="45.8020275" lon="10.6265682"><ele>1748.0</ele><time>2026-04-06T10:24:51.949Z</time></trkpt><trkpt lat="45.8019934" lon="10.6264899"><ele>1748.0</ele><time>2026-04-06T10:24:59.015Z</time></trkpt><trkpt lat="45.8019464" lon="10.6264281"><ele>1748.0</ele><time>2026-04-06T10:25:05.017Z</time></trkpt><trkpt lat="45.8018921" lon="10.6263656"><ele>1748.0</ele><time>2026-04-06T10:25:13.063Z</time></trkpt><trkpt lat="45.8018505" lon="10.6262944"><ele>1743.5714285714284</ele><time>2026-04-06T10:25:23.04Z</time></trkpt><trkpt lat="45.801798" lon="10.6262425"><ele>1739.1428571428573</ele><time>2026-04-06T10:25:35.017Z</time></trkpt><trkpt lat="45.8017446" lon="10.6262966"><ele>1734.7142857142858</ele><time>2026-04-06T10:25:51.021Z</time></trkpt><trkpt lat="45.8016861" lon="10.6262544"><ele>1730.2857142857142</ele><time>2026-04-06T10:26:01.008Z</time></trkpt><trkpt lat="45.8016599" lon="10.6261619"><ele>1725.8571428571427</ele><time>2026-04-06T10:26:11.058Z</time></trkpt><trkpt lat="45.8016381" lon="10.6260723"><ele>1721.4285714285716</ele><time>2026-04-06T10:26:30.003Z</time></trkpt><trkpt lat="45.8016286" lon="10.6259765"><ele>1717.0</ele><time>2026-04-06T10:26:40.046Z</time></trkpt><trkpt lat="45.801592" lon="10.6259007"><ele>1717.0</ele><time>2026-04-06T10:26:48.066Z</time></trkpt><trkpt lat="45.8015412" lon="10.6258309"><ele>1717.0</ele><time>2026-04-06T10:26:56.984Z</time></trkpt><trkpt lat="45.801476" lon="10.6258137"><ele>1717.0</ele><time>2026-04-06T10:27:07.019Z</time></trkpt><trkpt lat="45.8014128" lon="10.625837"><ele>1717.0</ele><time>2026-04-06T10:27:15.018Z</time></trkpt><trkpt lat="45.801344" lon="10.6258174"><ele>1717.0</ele><time>2026-04-06T10:27:22.98Z</time></trkpt><trkpt lat="45.8012743" lon="10.6258329"><ele>1717.0</ele><time>2026-04-06T10:27:31.026Z</time></trkpt><trkpt lat="45.8012058" lon="10.6258586"><ele>1717.0</ele><time>2026-04-06T10:27:39.048Z</time></trkpt><trkpt lat="45.8011437" lon="10.6258899"><ele>1717.0</ele><time>2026-04-06T10:27:47.015Z</time></trkpt><trkpt lat="45.8011006" lon="10.6259565"><ele>1717.0</ele><time>2026-04-06T10:27:53.942Z</time></trkpt><trkpt lat="45.8010678" lon="10.626037"><ele>1717.0</ele><time>2026-04-06T10:28:01.998Z</time></trkpt><trkpt lat="45.8010124" lon="10.6260917"><ele>1717.0</ele><time>2026-04-06T10:28:09.035Z</time></trkpt><trkpt lat="45.8009625" lon="10.6261518"><ele>1717.0</ele><time>2026-04-06T10:28:16.007Z</time></trkpt><trkpt lat="45.8009293" lon="10.6262327"><ele>1717.0</ele><time>2026-04-06T10:28:23.979Z</time></trkpt><trkpt lat="45.8008599" lon="10.6262465"><ele>1717.0</ele><time>2026-04-06T10:28:33.99Z</time></trkpt><trkpt lat="45.8007897" lon="10.6262406"><ele>1712.857142857143</ele><time>2026-04-06T10:28:42.023Z</time></trkpt><trkpt lat="45.8007296" lon="10.6262085"><ele>1708.7142857142856</ele><time>2026-04-06T10:28:50.011Z</time></trkpt><trkpt lat="45.8007131" lon="10.6261163"><ele>1704.5714285714284</ele><time>2026-04-06T10:29:06.025Z</time></trkpt><trkpt lat="45.8007383" lon="10.6260301"><ele>1700.4285714285716</ele><time>2026-04-06T10:29:13.061Z</time></trkpt><trkpt lat="45.8007405" lon="10.6259394"><ele>1696.2857142857142</ele><time>2026-04-06T10:29:20.016Z</time></trkpt><trkpt lat="45.8007652" lon="10.6258458"><ele>1692.142857142857</ele><time>2026-04-06T10:29:27.988Z</time></trkpt><trkpt lat="45.8007619" lon="10.6257544"><ele>1688.0</ele><time>2026-04-06T10:29:38.032Z</time></trkpt><trkpt lat="45.8007096" lon="10.6258067"><ele>1688.0</ele><time>2026-04-06T10:29:47.007Z</time></trkpt><trkpt lat="45.8006655" lon="10.6258749"><ele>1688.0</ele><time>2026-04-06T10:30:02.023Z</time></trkpt><trkpt lat="45.8006114" lon="10.6259437"><ele>1688.0</ele><time>2026-04-06T10:30:11.056Z</time></trkpt><trkpt lat="45.8005523" lon="10.6259941"><ele>1688.0</ele><time>2026-04-06T10:30:19.997Z</time></trkpt><trkpt lat="45.8004952" lon="10.6260367"><ele>1688.0</ele><time>2026-04-06T10:30:27.998Z</time></trkpt><trkpt lat="45.8004359" lon="10.6260919"><ele>1688.0</ele><time>2026-04-06T10:30:36.005Z</time></trkpt><trkpt lat="45.8003851" lon="10.6261486"><ele>1688.0</ele><time>2026-04-06T10:30:43.025Z</time></trkpt><trkpt lat="45.8004025" lon="10.6260536"><ele>1687.5714285714287</ele><time>2026-04-06T10:31:01.028Z</time></trkpt><trkpt lat="45.8004411" lon="10.6259809"><ele>1687.1428571428573</ele><time>2026-04-06T10:31:09Z</time></trkpt><trkpt lat="45.8004717" lon="10.6259006"><ele>1686.7142857142858</ele><time>2026-04-06T10:31:19.961Z</time></trkpt><trkpt lat="45.8004059" lon="10.6259116"><ele>1686.2857142857142</ele><time>2026-04-06T10:31:33.037Z</time></trkpt><trkpt lat="45.8003597" lon="10.62584"><ele>1685.857142857143</ele><time>2026-04-06T10:31:57.004Z</time></trkpt><trkpt lat="45.8002941" lon="10.6258274"><ele>1685.4285714285713</ele><time>2026-04-06T10:32:09.586Z</time></trkpt><trkpt lat="45.8002289" lon="10.6258576"><ele>1685.0</ele><time>2026-04-06T10:32:24Z</time></trkpt><trkpt lat="45.8001711" lon="10.6258951"><ele>1680.142857142857</ele><time>2026-04-06T10:32:52.009Z</time></trkpt><trkpt lat="45.8001097" lon="10.6258674"><ele>1675.2857142857144</ele><time>2026-04-06T10:33:03.06Z</time></trkpt><trkpt lat="45.8000449" lon="10.625882"><ele>1670.4285714285716</ele><time>2026-04-06T10:33:19.009Z</time></trkpt><trkpt lat="45.7999755" lon="10.6258858"><ele>1665.5714285714284</ele><time>2026-04-06T10:33:37.03Z</time></trkpt><trkpt lat="45.7999072" lon="10.6258847"><ele>1660.7142857142858</ele><time>2026-04-06T10:33:47.887Z</time></trkpt><trkpt lat="45.7998539" lon="10.6258263"><ele>1655.857142857143</ele><time>2026-04-06T10:33:58.989Z</time></trkpt><trkpt lat="45.7999039" lon="10.6257694"><ele>1651.0</ele><time>2026-04-06T10:35:19.001Z</time></trkpt><trkpt lat="45.7999434" lon="10.6256903"><ele>1651.0</ele><time>2026-04-06T10:35:27.063Z</time></trkpt><trkpt lat="45.8000116" lon="10.6256755"><ele>1651.0</ele><time>2026-04-06T10:35:37.058Z</time></trkpt><trkpt lat="45.8000464" lon="10.6255924"><ele>1651.0</ele><time>2026-04-06T10:35:54.416Z</time></trkpt><trkpt lat="45.8000268" lon="10.6255038"><ele>1651.0</ele><time>2026-04-06T10:36:09.403Z</time></trkpt><trkpt lat="45.7999621" lon="10.6255271"><ele>1651.0</ele><time>2026-04-06T10:36:23.921Z</time></trkpt><trkpt lat="45.7999006" lon="10.6254994"><ele>1651.0</ele><time>2026-04-06T10:36:52.018Z</time></trkpt><trkpt lat="45.799839" lon="10.6254653"><ele>1651.0</ele><time>2026-04-06T10:37:13.995Z</time></trkpt><trkpt lat="45.7997759" lon="10.6254297"><ele>1651.0</ele><time>2026-04-06T10:37:22.986Z</time></trkpt><trkpt lat="45.7997101" lon="10.6254109"><ele>1651.0</ele><time>2026-04-06T10:37:31.007Z</time></trkpt><trkpt lat="45.7996493" lon="10.6254566"><ele>1651.0</ele><time>2026-04-06T10:37:41.988Z</time></trkpt><trkpt lat="45.7995935" lon="10.6253748"><ele>1651.0</ele><time>2026-04-06T10:38:24.968Z</time></trkpt><trkpt lat="45.7995707" lon="10.6254607"><ele>1651.0</ele><time>2026-04-06T10:38:35.965Z</time></trkpt><trkpt lat="45.7995056" lon="10.6255031"><ele>1651.0</ele><time>2026-04-06T10:38:44.975Z</time></trkpt><trkpt lat="45.7994369" lon="10.6255292"><ele>1651.0</ele><time>2026-04-06T10:38:52.023Z</time></trkpt><trkpt lat="45.7994077" lon="10.6256195"><ele>1651.0</ele><time>2026-04-06T10:39:00.044Z</time></trkpt><trkpt lat="45.7993791" lon="10.6257078"><ele>1651.0</ele><time>2026-04-06T10:39:10.014Z</time></trkpt><trkpt lat="45.7993364" lon="10.6257768"><ele>1651.0</ele><time>2026-04-06T10:39:19.965Z</time></trkpt><trkpt lat="45.7993117" lon="10.6258653"><ele>1651.0</ele><time>2026-04-06T10:39:41.972Z</time></trkpt><trkpt lat="45.7992667" lon="10.6259391"><ele>1651.0</ele><time>2026-04-06T10:39:52.931Z</time></trkpt><trkpt lat="45.7992151" lon="10.625878"><ele>1651.0</ele><time>2026-04-06T10:40:20.987Z</time></trkpt><trkpt lat="45.7991489" lon="10.6259067"><ele>1651.0</ele><time>2026-04-06T10:42:44.014Z</time></trkpt><trkpt lat="45.7991077" lon="10.6259799"><ele>1644.142857142857</ele><time>2026-04-06T10:42:53.989Z</time></trkpt><trkpt lat="45.7990828" lon="10.6260674"><ele>1637.2857142857142</ele><time>2026-04-06T10:43:03.992Z</time></trkpt><trkpt lat="45.799112" lon="10.6261551"><ele>1630.4285714285716</ele><time>2026-04-06T10:43:14Z</time></trkpt><trkpt lat="45.799136" lon="10.6262437"><ele>1623.5714285714284</ele><time>2026-04-06T10:43:21.017Z</time></trkpt><trkpt lat="45.7991894" lon="10.6262966"><ele>1616.7142857142858</ele><time>2026-04-06T10:43:29.034Z</time></trkpt><trkpt lat="45.7992469" lon="10.6263524"><ele>1609.857142857143</ele><time>2026-04-06T10:43:39.95Z</time></trkpt><trkpt lat="45.799213" lon="10.6264361"><ele>1603.0</ele><time>2026-04-06T10:43:51.976Z</time></trkpt><trkpt lat="45.7991861" lon="10.6265188"><ele>1602.1666666666667</ele><time>2026-04-06T10:44:04.933Z</time></trkpt><trkpt lat="45.7992309" lon="10.6265861"><ele>1601.3333333333335</ele><time>2026-04-06T10:44:13.997Z</time></trkpt><trkpt lat="45.7992441" lon="10.6266924"><ele>1600.5</ele><time>2026-04-06T10:44:24.947Z</time></trkpt><trkpt lat="45.7992308" lon="10.6267828"><ele>1599.6666666666665</ele><time>2026-04-06T10:44:31.005Z</time></trkpt><trkpt lat="45.7991825" lon="10.6268533"><ele>1598.8333333333333</ele><time>2026-04-06T10:44:38.981Z</time></trkpt><trkpt lat="45.7991837" lon="10.626952"><ele>1598.0</ele><time>2026-04-06T10:44:51.049Z</time></trkpt><trkpt lat="45.7992626" lon="10.6270979"><ele>1598.0</ele><time>2026-04-06T10:45:38.02Z</time></trkpt><trkpt lat="45.7992504" lon="10.627216"><ele>1598.0</ele><time>2026-04-06T10:46:00.993Z</time></trkpt><trkpt lat="45.7991875" lon="10.627237"><ele>1598.0</ele><time>2026-04-06T10:46:13.999Z</time></trkpt><trkpt lat="45.7991182" lon="10.6272535"><ele>1598.0</ele><time>2026-04-06T10:46:26.982Z</time></trkpt><trkpt lat="45.7990637" lon="10.6272987"><ele>1598.0</ele><time>2026-04-06T10:46:36.978Z</time></trkpt><trkpt lat="45.7990088" lon="10.6273526"><ele>1598.0</ele><time>2026-04-06T10:46:50.033Z</time></trkpt><trkpt lat="45.7989431" lon="10.6273561"><ele>1598.0</ele><time>2026-04-06T10:46:58.953Z</time></trkpt><trkpt lat="45.7989523" lon="10.6272628"><ele>1598.0</ele><time>2026-04-06T10:47:12.013Z</time></trkpt><trkpt lat="45.7988943" lon="10.6273094"><ele>1598.0</ele><time>2026-04-06T10:47:18.004Z</time></trkpt><trkpt lat="45.7988473" lon="10.6273791"><ele>1598.0</ele><time>2026-04-06T10:47:29.916Z</time></trkpt><trkpt lat="45.7987828" lon="10.6273938"><ele>1598.0</ele><time>2026-04-06T10:47:40.98Z</time></trkpt><trkpt lat="45.7987331" lon="10.6274675"><ele>1598.0</ele><time>2026-04-06T10:47:53.007Z</time></trkpt><trkpt lat="45.7986851" lon="10.6275264"><ele>1598.0</ele><time>2026-04-06T10:48:00.978Z</time></trkpt><trkpt lat="45.7986339" lon="10.6275803"><ele>1598.0</ele><time>2026-04-06T10:48:14.994Z</time></trkpt><trkpt lat="45.7985775" lon="10.6276291"><ele>1598.0</ele><time>2026-04-06T10:48:25.931Z</time></trkpt><trkpt lat="45.7985366" lon="10.6277011"><ele>1598.0</ele><time>2026-04-06T10:48:46.964Z</time></trkpt><trkpt lat="45.7984851" lon="10.6277612"><ele>1598.0</ele><time>2026-04-06T10:48:52.016Z</time></trkpt><trkpt lat="45.798451" lon="10.6278442"><ele>1598.0</ele><time>2026-04-06T10:48:59.954Z</time></trkpt><trkpt lat="45.7984258" lon="10.6279313"><ele>1598.0</ele><time>2026-04-06T10:49:10.978Z</time></trkpt><trkpt lat="45.7984163" lon="10.6280337"><ele>1598.0</ele><time>2026-04-06T10:49:21.909Z</time></trkpt><trkpt lat="45.7984033" lon="10.6281303"><ele>1598.0</ele><time>2026-04-06T10:49:47.007Z</time></trkpt><trkpt lat="45.798384" lon="10.6282202"><ele>1593.9999999999998</ele><time>2026-04-06T10:49:56.909Z</time></trkpt><trkpt lat="45.7983793" lon="10.6283181"><ele>1590.0</ele><time>2026-04-06T10:50:04.911Z</time></trkpt><trkpt lat="45.7983562" lon="10.628414"><ele>1586.0</ele><time>2026-04-06T10:50:12.011Z</time></trkpt><trkpt lat="45.7983004" lon="10.6284746"><ele>1582.0</ele><time>2026-04-06T10:50:19.01Z</time></trkpt><trkpt lat="45.7982255" lon="10.6285621"><ele>1577.9999999999998</ele><time>2026-04-06T10:50:47.987Z</time></trkpt><trkpt lat="45.7981928" lon="10.628652"><ele>1574.0</ele><time>2026-04-06T10:50:55.021Z</time></trkpt><trkpt lat="45.7981496" lon="10.6287381"><ele>1574.0</ele><time>2026-04-06T10:51:17.017Z</time></trkpt><trkpt lat="45.798101" lon="10.6288101"><ele>1574.0</ele><time>2026-04-06T10:51:24.949Z</time></trkpt><trkpt lat="45.7980446" lon="10.6288624"><ele>1574.0</ele><time>2026-04-06T10:51:34.99Z</time></trkpt><trkpt lat="45.7979785" lon="10.6288998"><ele>1574.0</ele><time>2026-04-06T10:51:44.036Z</time></trkpt><trkpt lat="45.797939" lon="10.6289841"><ele>1574.0</ele><time>2026-04-06T10:51:52.016Z</time></trkpt><trkpt lat="45.7978882" lon="10.6290415"><ele>1574.0</ele><time>2026-04-06T10:51:59.006Z</time></trkpt><trkpt lat="45.7978228" lon="10.6290446"><ele>1574.0</ele><time>2026-04-06T10:52:05.996Z</time></trkpt><trkpt lat="45.7977571" lon="10.6290324"><ele>1574.0</ele><time>2026-04-06T10:52:16.023Z</time></trkpt><trkpt lat="45.7977895" lon="10.6289539"><ele>1574.0</ele><time>2026-04-06T10:52:28.981Z</time></trkpt><trkpt lat="45.7977879" lon="10.6288581"><ele>1574.0</ele><time>2026-04-06T10:52:39.993Z</time></trkpt><trkpt lat="45.797759" lon="10.6287769"><ele>1574.0</ele><time>2026-04-06T10:53:02.022Z</time></trkpt><trkpt lat="45.797695" lon="10.628815"><ele>1574.0</ele><time>2026-04-06T10:53:09.981Z</time></trkpt><trkpt lat="45.797628" lon="10.6288354"><ele>1574.0</ele><time>2026-04-06T10:53:20.996Z</time></trkpt><trkpt lat="45.7975609" lon="10.6288697"><ele>1574.0</ele><time>2026-04-06T10:53:34.009Z</time></trkpt><trkpt lat="45.7975053" lon="10.6289139"><ele>1568.857142857143</ele><time>2026-04-06T10:53:41.016Z</time></trkpt><trkpt lat="45.7974381" lon="10.628885"><ele>1563.7142857142858</ele><time>2026-04-06T10:53:55.915Z</time></trkpt><trkpt lat="45.7974718" lon="10.6287976"><ele>1558.5714285714284</ele><time>2026-04-06T10:54:05.007Z</time></trkpt><trkpt lat="45.7975107" lon="10.6287258"><ele>1553.4285714285716</ele><time>2026-04-06T10:54:16.018Z</time></trkpt><trkpt lat="45.7975073" lon="10.6286272"><ele>1548.2857142857144</ele><time>2026-04-06T10:54:21.995Z</time></trkpt><trkpt lat="45.7975517" lon="10.6285466"><ele>1543.142857142857</ele><time>2026-04-06T10:54:31Z</time></trkpt><trkpt lat="45.7974812" lon="10.6285431"><ele>1538.0</ele><time>2026-04-06T10:54:51.012Z</time></trkpt><trkpt lat="45.7974238" lon="10.6285867"><ele>1538.0</ele><time>2026-04-06T10:55:01.996Z</time></trkpt><trkpt lat="45.7973733" lon="10.628648"><ele>1538.0</ele><time>2026-04-06T10:55:11.004Z</time></trkpt><trkpt lat="45.7973122" lon="10.6286845"><ele>1538.0</ele><time>2026-04-06T10:55:20.948Z</time></trkpt><trkpt lat="45.7972491" lon="10.6286742"><ele>1538.0</ele><time>2026-04-06T10:55:29.012Z</time></trkpt><trkpt lat="45.7971819" lon="10.6286897"><ele>1538.0</ele><time>2026-04-06T10:55:36.973Z</time></trkpt><trkpt lat="45.797117" lon="10.6286936"><ele>1538.0</ele><time>2026-04-06T10:55:44.987Z</time></trkpt><trkpt lat="45.7970524" lon="10.6287049"><ele>1538.0</ele><time>2026-04-06T10:55:53.018Z</time></trkpt><trkpt lat="45.7969827" lon="10.6287197"><ele>1537.9999999999998</ele><time>2026-04-06T10:56:01.995Z</time></trkpt><trkpt lat="45.7969195" lon="10.6287616"><ele>1538.0</ele><time>2026-04-06T10:56:09.047Z</time></trkpt><trkpt lat="45.7968631" lon="10.6288175"><ele>1538.0</ele><time>2026-04-06T10:56:18.962Z</time></trkpt><trkpt lat="45.7967973" lon="10.6288377"><ele>1538.0</ele><time>2026-04-06T10:56:29.035Z</time></trkpt><trkpt lat="45.7967786" lon="10.6289314"><ele>1537.9999999999998</ele><time>2026-04-06T10:56:36.985Z</time></trkpt><trkpt lat="45.7966945" lon="10.629038"><ele>1538.0</ele><time>2026-04-06T10:57:54.979Z</time></trkpt><trkpt lat="45.7966517" lon="10.6291168"><ele>1533.857142857143</ele><time>2026-04-06T10:58:01.992Z</time></trkpt><trkpt lat="45.7966149" lon="10.6291962"><ele>1529.7142857142858</ele><time>2026-04-06T10:58:19.998Z</time></trkpt><trkpt lat="45.7965863" lon="10.629278"><ele>1525.5714285714287</ele><time>2026-04-06T10:58:30.001Z</time></trkpt><trkpt lat="45.7965685" lon="10.6293723"><ele>1521.4285714285716</ele><time>2026-04-06T10:58:43.008Z</time></trkpt><trkpt lat="45.796551" lon="10.6294612"><ele>1517.2857142857142</ele><time>2026-04-06T10:58:55.018Z</time></trkpt><trkpt lat="45.7965323" lon="10.6295521"><ele>1513.1428571428573</ele><time>2026-04-06T10:59:03.976Z</time></trkpt><trkpt lat="45.7965328" lon="10.6296469"><ele>1509.0</ele><time>2026-04-06T10:59:11.981Z</time></trkpt><trkpt lat="45.796499" lon="10.6297231"><ele>1509.0000000000002</ele><time>2026-04-06T10:59:19.01Z</time></trkpt><trkpt lat="45.7964811" lon="10.6298158"><ele>1509.0</ele><time>2026-04-06T10:59:26.993Z</time></trkpt><trkpt lat="45.79647" lon="10.6299133"><ele>1509.0</ele><time>2026-04-06T10:59:35.005Z</time></trkpt><trkpt lat="45.7964326" lon="10.629986"><ele>1509.0</ele><time>2026-04-06T10:59:40.964Z</time></trkpt><trkpt lat="45.7964212" lon="10.6300768"><ele>1509.0</ele><time>2026-04-06T10:59:47.999Z</time></trkpt><trkpt lat="45.79641" lon="10.6301683"><ele>1509.0000000000002</ele><time>2026-04-06T10:59:54.84Z</time></trkpt><trkpt lat="45.7963839" lon="10.6302517"><ele>1509.0</ele><time>2026-04-06T11:00:31.001Z</time></trkpt><trkpt lat="45.7963518" lon="10.6303302"><ele>1509.5714285714287</ele><time>2026-04-06T11:00:38.003Z</time></trkpt><trkpt lat="45.7963116" lon="10.6304012"><ele>1510.142857142857</ele><time>2026-04-06T11:00:46.014Z</time></trkpt><trkpt lat="45.7962892" lon="10.6304889"><ele>1510.7142857142858</ele><time>2026-04-06T11:00:53.923Z</time></trkpt><trkpt lat="45.7962675" lon="10.6305843"><ele>1511.2857142857142</ele><time>2026-04-06T11:01:00.997Z</time></trkpt><trkpt lat="45.7962475" lon="10.6306741"><ele>1511.857142857143</ele><time>2026-04-06T11:01:08.999Z</time></trkpt><trkpt lat="45.7962024" lon="10.630746"><ele>1512.4285714285716</ele><time>2026-04-06T11:01:16.018Z</time></trkpt><trkpt lat="45.7961527" lon="10.6308216"><ele>1513.0</ele><time>2026-04-06T11:01:21.959Z</time></trkpt><trkpt lat="45.7961084" lon="10.6308945"><ele>1513.0</ele><time>2026-04-06T11:01:29.031Z</time></trkpt><trkpt lat="45.7960669" lon="10.6309764"><ele>1513.0</ele><time>2026-04-06T11:01:34.963Z</time></trkpt><trkpt lat="45.7960714" lon="10.6310712"><ele>1513.0</ele><time>2026-04-06T11:02:04.942Z</time></trkpt><trkpt lat="45.7960259" lon="10.6311473"><ele>1513.0</ele><time>2026-04-06T11:02:11.008Z</time></trkpt><trkpt lat="45.7959653" lon="10.6312036"><ele>1513.0</ele><time>2026-04-06T11:02:18.991Z</time></trkpt><trkpt lat="45.7958798" lon="10.6312231"><ele>1513.0</ele><time>2026-04-06T11:02:41.002Z</time></trkpt><trkpt lat="45.795823" lon="10.6312876"><ele>1513.0</ele><time>2026-04-06T11:02:50.024Z</time></trkpt><trkpt lat="45.7957629" lon="10.631339"><ele>1507.5714285714287</ele><time>2026-04-06T11:03:02.007Z</time></trkpt><trkpt lat="45.7957171" lon="10.6314049"><ele>1502.1428571428573</ele><time>2026-04-06T11:03:12.963Z</time></trkpt><trkpt lat="45.7956549" lon="10.6314554"><ele>1496.7142857142858</ele><time>2026-04-06T11:03:25.004Z</time></trkpt><trkpt lat="45.795582" lon="10.6314741"><ele>1491.2857142857142</ele><time>2026-04-06T11:03:30.995Z</time></trkpt><trkpt lat="45.7955258" lon="10.6315222"><ele>1485.857142857143</ele><time>2026-04-06T11:03:35.965Z</time></trkpt><trkpt lat="45.795457" lon="10.6315515"><ele>1480.4285714285713</ele><time>2026-04-06T11:03:43.003Z</time></trkpt><trkpt lat="45.7953883" lon="10.6315242"><ele>1475.0</ele><time>2026-04-06T11:03:50.001Z</time></trkpt><trkpt lat="45.7953214" lon="10.631507"><ele>1475.0</ele><time>2026-04-06T11:03:58.029Z</time></trkpt><trkpt lat="45.7952662" lon="10.6315716"><ele>1475.0</ele><time>2026-04-06T11:04:10.061Z</time></trkpt><trkpt lat="45.7952231" lon="10.6316495"><ele>1475.0</ele><time>2026-04-06T11:04:17.018Z</time></trkpt><trkpt lat="45.7951768" lon="10.6317256"><ele>1475.0</ele><time>2026-04-06T11:04:26.99Z</time></trkpt><trkpt lat="45.7951141" lon="10.6317513"><ele>1475.0</ele><time>2026-04-06T11:04:34.998Z</time></trkpt><trkpt lat="45.7950509" lon="10.6317632"><ele>1475.0</ele><time>2026-04-06T11:04:46.016Z</time></trkpt><trkpt lat="45.7949722" lon="10.6317392"><ele>1475.0</ele><time>2026-04-06T11:05:50.907Z</time></trkpt><trkpt lat="45.7949123" lon="10.6317794"><ele>1472.0</ele><time>2026-04-06T11:05:58.994Z</time></trkpt><trkpt lat="45.7948769" lon="10.6318556"><ele>1469.0</ele><time>2026-04-06T11:06:10.027Z</time></trkpt><trkpt lat="45.7948133" lon="10.631881"><ele>1466.0</ele><time>2026-04-06T11:06:22.065Z</time></trkpt><trkpt lat="45.794769" lon="10.6319476"><ele>1463.0</ele><time>2026-04-06T11:06:36.007Z</time></trkpt><trkpt lat="45.7947272" lon="10.6320234"><ele>1460.0</ele><time>2026-04-06T11:06:50.023Z</time></trkpt><trkpt lat="45.7946611" lon="10.6320437"><ele>1457.0</ele><time>2026-04-06T11:06:59.029Z</time></trkpt><trkpt lat="45.7945967" lon="10.6320696"><ele>1454.0</ele><time>2026-04-06T11:07:07.986Z</time></trkpt><trkpt lat="45.7945304" lon="10.6320805"><ele>1451.2857142857142</ele><time>2026-04-06T11:07:16.981Z</time></trkpt><trkpt lat="45.7944612" lon="10.6320746"><ele>1448.5714285714287</ele><time>2026-04-06T11:07:25.958Z</time></trkpt><trkpt lat="45.794394" lon="10.6320728"><ele>1445.857142857143</ele><time>2026-04-06T11:07:35.973Z</time></trkpt><trkpt lat="45.7943263" lon="10.6320405"><ele>1443.142857142857</ele><time>2026-04-06T11:07:45.002Z</time></trkpt><trkpt lat="45.7942757" lon="10.6319839"><ele>1440.4285714285716</ele><time>2026-04-06T11:07:50.993Z</time></trkpt><trkpt lat="45.7942059" lon="10.6319712"><ele>1437.7142857142858</ele><time>2026-04-06T11:08:01.044Z</time></trkpt><trkpt lat="45.794138" lon="10.6319599"><ele>1435.0</ele><time>2026-04-06T11:08:11.979Z</time></trkpt><trkpt lat="45.7940664" lon="10.631972"><ele>1434.0</ele><time>2026-04-06T11:08:26.994Z</time></trkpt><trkpt lat="45.7940016" lon="10.6319301"><ele>1433.0</ele><time>2026-04-06T11:08:35.994Z</time></trkpt><trkpt lat="45.7939475" lon="10.6318813"><ele>1432.0</ele><time>2026-04-06T11:08:44.906Z</time></trkpt><trkpt lat="45.7938823" lon="10.6318739"><ele>1431.0</ele><time>2026-04-06T11:08:53.978Z</time></trkpt><trkpt lat="45.7938283" lon="10.6318179"><ele>1430.0</ele><time>2026-04-06T11:09:06.996Z</time></trkpt><trkpt lat="45.7937597" lon="10.6318252"><ele>1429.0</ele><time>2026-04-06T11:09:15.991Z</time></trkpt><trkpt lat="45.7936918" lon="10.6318473"><ele>1428.0</ele><time>2026-04-06T11:09:26.062Z</time></trkpt><trkpt lat="45.7936273" lon="10.6318057"><ele>1428.0</ele><time>2026-04-06T11:09:38.997Z</time></trkpt><trkpt lat="45.793558" lon="10.6318025"><ele>1428.0</ele><time>2026-04-06T11:09:45.006Z</time></trkpt><trkpt lat="45.7934924" lon="10.6318052"><ele>1428.0</ele><time>2026-04-06T11:09:54.92Z</time></trkpt><trkpt lat="45.7933585" lon="10.6318434"><ele>1428.0</ele><time>2026-04-06T11:10:32.011Z</time></trkpt><trkpt lat="45.7932931" lon="10.631846"><ele>1428.0</ele><time>2026-04-06T11:10:37.998Z</time></trkpt><trkpt lat="45.7932348" lon="10.6318916"><ele>1428.0</ele><time>2026-04-06T11:10:49.005Z</time></trkpt><trkpt lat="45.7931724" lon="10.6319279"><ele>1425.2857142857142</ele><time>2026-04-06T11:11:02.029Z</time></trkpt><trkpt lat="45.7931243" lon="10.6319959"><ele>1422.5714285714284</ele><time>2026-04-06T11:11:18.905Z</time></trkpt><trkpt lat="45.793106" lon="10.6320824"><ele>1419.857142857143</ele><time>2026-04-06T11:11:31.988Z</time></trkpt><trkpt lat="45.7930853" lon="10.6321686"><ele>1417.142857142857</ele><time>2026-04-06T11:11:42.919Z</time></trkpt><trkpt lat="45.7930504" lon="10.6322513"><ele>1414.4285714285713</ele><time>2026-04-06T11:11:51.025Z</time></trkpt><trkpt lat="45.7930006" lon="10.63231"><ele>1411.7142857142858</ele><time>2026-04-06T11:12:07.974Z</time></trkpt><trkpt lat="45.7929386" lon="10.6323495"><ele>1409.0</ele><time>2026-04-06T11:12:14.007Z</time></trkpt><trkpt lat="45.792884" lon="10.6324066"><ele>1409.0</ele><time>2026-04-06T11:12:22.005Z</time></trkpt><trkpt lat="45.7928289" lon="10.6324555"><ele>1409.0</ele><time>2026-04-06T11:12:30.992Z</time></trkpt><trkpt lat="45.7927854" lon="10.6325235"><ele>1409.0</ele><time>2026-04-06T11:12:39.987Z</time></trkpt><trkpt lat="45.7927367" lon="10.6325923"><ele>1409.0</ele><time>2026-04-06T11:12:55.979Z</time></trkpt><trkpt lat="45.7926787" lon="10.6326277"><ele>1409.0</ele><time>2026-04-06T11:13:05.957Z</time></trkpt><trkpt lat="45.7926399" lon="10.6327032"><ele>1409.0</ele><time>2026-04-06T11:13:16.961Z</time></trkpt><trkpt lat="45.7925778" lon="10.6327213"><ele>1409.0</ele><time>2026-04-06T11:13:24.025Z</time></trkpt><trkpt lat="45.7925121" lon="10.6327398"><ele>1405.4285714285716</ele><time>2026-04-06T11:13:35.007Z</time></trkpt><trkpt lat="45.7924428" lon="10.6327533"><ele>1401.8571428571427</ele><time>2026-04-06T11:13:42.97Z</time></trkpt><trkpt lat="45.792383" lon="10.6327879"><ele>1398.2857142857142</ele><time>2026-04-06T11:13:51.004Z</time></trkpt><trkpt lat="45.7923161" lon="10.6328454"><ele>1394.7142857142858</ele><time>2026-04-06T11:13:57.061Z</time></trkpt><trkpt lat="45.7922594" lon="10.6328861"><ele>1391.1428571428573</ele><time>2026-04-06T11:14:01.924Z</time></trkpt><trkpt lat="45.7922079" lon="10.6329598"><ele>1387.5714285714284</ele><time>2026-04-06T11:14:09.923Z</time></trkpt><trkpt lat="45.792172" lon="10.6330469"><ele>1384.0</ele><time>2026-04-06T11:14:24.006Z</time></trkpt><trkpt lat="45.7921358" lon="10.6331233"><ele>1383.857142857143</ele><time>2026-04-06T11:14:32.035Z</time></trkpt><trkpt lat="45.7921397" lon="10.6332138"><ele>1383.7142857142858</ele><time>2026-04-06T11:14:40.028Z</time></trkpt><trkpt lat="45.7921386" lon="10.6333058"><ele>1383.5714285714287</ele><time>2026-04-06T11:14:49.018Z</time></trkpt><trkpt lat="45.7921211" lon="10.6333955"><ele>1383.4285714285716</ele><time>2026-04-06T11:15:00.012Z</time></trkpt><trkpt lat="45.7920855" lon="10.6334741"><ele>1383.2857142857142</ele><time>2026-04-06T11:15:07.028Z</time></trkpt><trkpt lat="45.792085" lon="10.633569"><ele>1383.1428571428573</ele><time>2026-04-06T11:15:21.023Z</time></trkpt><trkpt lat="45.7920614" lon="10.6336598"><ele>1383.0</ele><time>2026-04-06T11:15:31.011Z</time></trkpt><trkpt lat="45.7920203" lon="10.633742"><ele>1380.4285714285716</ele><time>2026-04-06T11:15:37.969Z</time></trkpt><trkpt lat="45.7919684" lon="10.6338103"><ele>1377.857142857143</ele><time>2026-04-06T11:15:44.931Z</time></trkpt><trkpt lat="45.7919209" lon="10.633888"><ele>1375.2857142857142</ele><time>2026-04-06T11:15:52Z</time></trkpt><trkpt lat="45.7918648" lon="10.6339415"><ele>1372.7142857142858</ele><time>2026-04-06T11:15:58.077Z</time></trkpt><trkpt lat="45.7918048" lon="10.6339918"><ele>1370.142857142857</ele><time>2026-04-06T11:16:03.015Z</time></trkpt><trkpt lat="45.7917646" lon="10.6340694"><ele>1367.5714285714287</ele><time>2026-04-06T11:16:09.005Z</time></trkpt><trkpt lat="45.7917232" lon="10.63415"><ele>1365.0</ele><time>2026-04-06T11:16:16.002Z</time></trkpt><trkpt lat="45.791708" lon="10.634246"><ele>1365.0</ele><time>2026-04-06T11:16:23.954Z</time></trkpt><trkpt lat="45.7916796" lon="10.6343275"><ele>1365.0</ele><time>2026-04-06T11:16:31.972Z</time></trkpt><trkpt lat="45.7916188" lon="10.6343655"><ele>1365.0</ele><time>2026-04-06T11:16:37.854Z</time></trkpt><trkpt lat="45.7915633" lon="10.6344239"><ele>1365.0</ele><time>2026-04-06T11:16:45.986Z</time></trkpt><trkpt lat="45.7915097" lon="10.6344772"><ele>1365.0</ele><time>2026-04-06T11:16:52.966Z</time></trkpt><trkpt lat="45.7914497" lon="10.6345181"><ele>1365.0</ele><time>2026-04-06T11:17:02.028Z</time></trkpt><trkpt lat="45.7914008" lon="10.6345792"><ele>1365.0</ele><time>2026-04-06T11:17:11.014Z</time></trkpt><trkpt lat="45.791339" lon="10.6346218"><ele>1363.7142857142858</ele><time>2026-04-06T11:17:20.01Z</time></trkpt><trkpt lat="45.7912876" lon="10.6346779"><ele>1362.4285714285716</ele><time>2026-04-06T11:17:27.999Z</time></trkpt><trkpt lat="45.7912257" lon="10.6347345"><ele>1361.142857142857</ele><time>2026-04-06T11:17:38.01Z</time></trkpt><trkpt lat="45.7911629" lon="10.634772"><ele>1359.857142857143</ele><time>2026-04-06T11:17:46.017Z</time></trkpt><trkpt lat="45.7911094" lon="10.6348227"><ele>1358.5714285714287</ele><time>2026-04-06T11:17:54.021Z</time></trkpt><trkpt lat="45.7910853" lon="10.6349113"><ele>1357.2857142857142</ele><time>2026-04-06T11:18:04.021Z</time></trkpt><trkpt lat="45.7910621" lon="10.6350231"><ele>1356.0</ele><time>2026-04-06T11:18:24Z</time></trkpt><trkpt lat="45.7910075" lon="10.6350767"><ele>1354.142857142857</ele><time>2026-04-06T11:18:33.021Z</time></trkpt><trkpt lat="45.7909401" lon="10.6351131"><ele>1352.2857142857144</ele><time>2026-04-06T11:18:44.006Z</time></trkpt><trkpt lat="45.7908992" lon="10.6351894"><ele>1350.4285714285716</ele><time>2026-04-06T11:18:55.007Z</time></trkpt><trkpt lat="45.790852" lon="10.6352585"><ele>1348.5714285714284</ele><time>2026-04-06T11:19:02.004Z</time></trkpt><trkpt lat="45.7908395" lon="10.6353588"><ele>1346.7142857142858</ele><time>2026-04-06T11:19:11.964Z</time></trkpt><trkpt lat="45.7907984" lon="10.635434"><ele>1344.857142857143</ele><time>2026-04-06T11:19:18.029Z</time></trkpt><trkpt lat="45.7907712" lon="10.6355183"><ele>1343.0</ele><time>2026-04-06T11:19:25.016Z</time></trkpt><trkpt lat="45.7907161" lon="10.6355687"><ele>1342.7142857142858</ele><time>2026-04-06T11:19:31.993Z</time></trkpt><trkpt lat="45.7906514" lon="10.6355699"><ele>1342.4285714285716</ele><time>2026-04-06T11:19:41.016Z</time></trkpt><trkpt lat="45.790582" lon="10.6355491"><ele>1342.1428571428573</ele><time>2026-04-06T11:19:49.011Z</time></trkpt><trkpt lat="45.7905108" lon="10.6355548"><ele>1341.857142857143</ele><time>2026-04-06T11:19:55.993Z</time></trkpt><trkpt lat="45.7904492" lon="10.635596"><ele>1341.5714285714287</ele><time>2026-04-06T11:20:03.012Z</time></trkpt><trkpt lat="45.7903923" lon="10.6356353"><ele>1341.2857142857144</ele><time>2026-04-06T11:20:10.979Z</time></trkpt><trkpt lat="45.7903296" lon="10.6356589"><ele>1341.0</ele><time>2026-04-06T11:20:19.998Z</time></trkpt><trkpt lat="45.7902739" lon="10.6355967"><ele>1341.0000000000002</ele><time>2026-04-06T11:20:29.996Z</time></trkpt><trkpt lat="45.790215" lon="10.6355613"><ele>1341.0</ele><time>2026-04-06T11:20:37.027Z</time></trkpt><trkpt lat="45.7901862" lon="10.6356599"><ele>1341.0</ele><time>2026-04-06T11:20:47.033Z</time></trkpt><trkpt lat="45.790167" lon="10.6357576"><ele>1341.0</ele><time>2026-04-06T11:20:53.992Z</time></trkpt><trkpt lat="45.7901055" lon="10.6357252"><ele>1341.0</ele><time>2026-04-06T11:21:01.979Z</time></trkpt><trkpt lat="45.7901092" lon="10.6356256"><ele>1341.0000000000002</ele><time>2026-04-06T11:21:10.971Z</time></trkpt><trkpt lat="45.7900494" lon="10.6355789"><ele>1341.0</ele><time>2026-04-06T11:21:19.002Z</time></trkpt><trkpt lat="45.7899727" lon="10.6356482"><ele>1341.0000000000002</ele><time>2026-04-06T11:24:03.027Z</time></trkpt><trkpt lat="45.7900409" lon="10.6355441"><ele>1341.0</ele><time>2026-04-06T11:28:21.968Z</time></trkpt><trkpt lat="45.7900095" lon="10.6356397"><ele>1341.0</ele><time>2026-04-06T11:39:21.979Z</time></trkpt><trkpt lat="45.7900133" lon="10.6357429"><ele>1341.0</ele><time>2026-04-06T11:39:35.988Z</time></trkpt><trkpt lat="45.7900745" lon="10.6358013"><ele>1341.0</ele><time>2026-04-06T11:39:43.992Z</time></trkpt><trkpt lat="45.790134" lon="10.6357716"><ele>1341.0000000000002</ele><time>2026-04-06T11:39:49.93Z</time></trkpt><trkpt lat="45.7901585" lon="10.6356863"><ele>1341.0</ele><time>2026-04-06T11:39:56.041Z</time></trkpt><trkpt lat="45.7902105" lon="10.6356202"><ele>1341.0000000000002</ele><time>2026-04-06T11:40:03.012Z</time></trkpt><trkpt lat="45.7902672" lon="10.6355633"><ele>1341.0</ele><time>2026-04-06T11:40:11.008Z</time></trkpt><trkpt lat="45.7903351" lon="10.6355347"><ele>1341.0</ele><time>2026-04-06T11:40:19.01Z</time></trkpt><trkpt lat="45.7903965" lon="10.6354932"><ele>1341.0</ele><time>2026-04-06T11:40:27.925Z</time></trkpt><trkpt lat="45.7904527" lon="10.6354416"><ele>1341.0</ele><time>2026-04-06T11:40:34.99Z</time></trkpt><trkpt lat="45.7905038" lon="10.6353676"><ele>1341.0000000000002</ele><time>2026-04-06T11:40:41.918Z</time></trkpt><trkpt lat="45.7905441" lon="10.6352926"><ele>1341.0</ele><time>2026-04-06T11:40:48.841Z</time></trkpt><trkpt lat="45.7905772" lon="10.6352122"><ele>1341.2857142857144</ele><time>2026-04-06T11:40:54.927Z</time></trkpt><trkpt lat="45.7906108" lon="10.6351324"><ele>1341.5714285714287</ele><time>2026-04-06T11:41:00.988Z</time></trkpt><trkpt lat="45.7906381" lon="10.6350486"><ele>1341.857142857143</ele><time>2026-04-06T11:41:07Z</time></trkpt><trkpt lat="45.7906878" lon="10.6349863"><ele>1342.1428571428573</ele><time>2026-04-06T11:41:13.087Z</time></trkpt><trkpt lat="45.7907517" lon="10.6349737"><ele>1342.4285714285716</ele><time>2026-04-06T11:41:19.97Z</time></trkpt><trkpt lat="45.7907493" lon="10.6348702"><ele>1342.7142857142858</ele><time>2026-04-06T11:41:24.985Z</time></trkpt><trkpt lat="45.7907417" lon="10.6347789"><ele>1343.0</ele><time>2026-04-06T11:41:29.998Z</time></trkpt><trkpt lat="45.7907223" lon="10.6346813"><ele>1343.0</ele><time>2026-04-06T11:41:34.968Z</time></trkpt><trkpt lat="45.7907289" lon="10.6345878"><ele>1343.0</ele><time>2026-04-06T11:41:39.971Z</time></trkpt><trkpt lat="45.7907425" lon="10.634493"><ele>1343.0</ele><time>2026-04-06T11:41:45.987Z</time></trkpt><trkpt lat="45.7907507" lon="10.6343879"><ele>1343.0</ele><time>2026-04-06T11:41:52.011Z</time></trkpt><trkpt lat="45.79076" lon="10.6342833"><ele>1343.0</ele><time>2026-04-06T11:41:58.427Z</time></trkpt><trkpt lat="45.7907923" lon="10.6341899"><ele>1343.0</ele><time>2026-04-06T11:42:05.09Z</time></trkpt><trkpt lat="45.790844" lon="10.6341227"><ele>1343.0</ele><time>2026-04-06T11:42:12.017Z</time></trkpt><trkpt lat="45.7908884" lon="10.6340474"><ele>1342.142857142857</ele><time>2026-04-06T11:42:19.009Z</time></trkpt><trkpt lat="45.7909204" lon="10.6339659"><ele>1341.2857142857142</ele><time>2026-04-06T11:42:25.002Z</time></trkpt><trkpt lat="45.7909386" lon="10.6338743"><ele>1340.4285714285716</ele><time>2026-04-06T11:42:30.97Z</time></trkpt><trkpt lat="45.7909611" lon="10.6337851"><ele>1339.5714285714284</ele><time>2026-04-06T11:42:37.887Z</time></trkpt><trkpt lat="45.7909671" lon="10.63369"><ele>1338.7142857142858</ele><time>2026-04-06T11:42:44.012Z</time></trkpt><trkpt lat="45.7909688" lon="10.6335893"><ele>1337.857142857143</ele><time>2026-04-06T11:42:50.978Z</time></trkpt><trkpt lat="45.7909594" lon="10.6334954"><ele>1337.0</ele><time>2026-04-06T11:42:57.994Z</time></trkpt><trkpt lat="45.7909497" lon="10.6333964"><ele>1335.857142857143</ele><time>2026-04-06T11:43:04.988Z</time></trkpt><trkpt lat="45.790918" lon="10.6333046"><ele>1334.7142857142858</ele><time>2026-04-06T11:43:11.994Z</time></trkpt><trkpt lat="45.7908797" lon="10.6332233"><ele>1333.5714285714284</ele><time>2026-04-06T11:43:17.996Z</time></trkpt><trkpt lat="45.7908579" lon="10.633122"><ele>1332.4285714285716</ele><time>2026-04-06T11:43:24.992Z</time></trkpt><trkpt lat="45.7908755" lon="10.6330318"><ele>1331.2857142857142</ele><time>2026-04-06T11:43:31.007Z</time></trkpt><trkpt lat="45.7909196" lon="10.6329589"><ele>1330.142857142857</ele><time>2026-04-06T11:43:38.004Z</time></trkpt><trkpt lat="45.7909491" lon="10.6328678"><ele>1329.0</ele><time>2026-04-06T11:43:44.013Z</time></trkpt><trkpt lat="45.7909645" lon="10.6327742"><ele>1327.4285714285713</ele><time>2026-04-06T11:43:49.987Z</time></trkpt><trkpt lat="45.7909868" lon="10.6326736"><ele>1325.857142857143</ele><time>2026-04-06T11:43:56.991Z</time></trkpt><trkpt lat="45.7910159" lon="10.6325834"><ele>1324.2857142857142</ele><time>2026-04-06T11:44:02.995Z</time></trkpt><trkpt lat="45.7910472" lon="10.6324988"><ele>1322.7142857142858</ele><time>2026-04-06T11:44:08.999Z</time></trkpt><trkpt lat="45.7910843" lon="10.632404"><ele>1321.142857142857</ele><time>2026-04-06T11:44:15.902Z</time></trkpt><trkpt lat="45.7911009" lon="10.6322994"><ele>1319.5714285714287</ele><time>2026-04-06T11:44:24.004Z</time></trkpt><trkpt lat="45.7911263" lon="10.632214"><ele>1318.0</ele><time>2026-04-06T11:44:29.964Z</time></trkpt><trkpt lat="45.7911544" lon="10.6321244"><ele>1320.857142857143</ele><time>2026-04-06T11:44:35.978Z</time></trkpt><trkpt lat="45.7911874" lon="10.6320403"><ele>1323.7142857142856</ele><time>2026-04-06T11:44:42.979Z</time></trkpt><trkpt lat="45.7912215" lon="10.6319599"><ele>1326.5714285714284</ele><time>2026-04-06T11:44:49.009Z</time></trkpt><trkpt lat="45.791251" lon="10.6318757"><ele>1329.4285714285716</ele><time>2026-04-06T11:44:55.027Z</time></trkpt><trkpt lat="45.7912729" lon="10.6317878"><ele>1332.2857142857142</ele><time>2026-04-06T11:45:00.98Z</time></trkpt><trkpt lat="45.7913016" lon="10.6316915"><ele>1335.142857142857</ele><time>2026-04-06T11:45:07.001Z</time></trkpt><trkpt lat="45.7913224" lon="10.6315919"><ele>1338.0</ele><time>2026-04-06T11:45:12.947Z</time></trkpt><trkpt lat="45.7913329" lon="10.6314947"><ele>1338.0</ele><time>2026-04-06T11:45:19.011Z</time></trkpt><trkpt lat="45.791348" lon="10.6314025"><ele>1338.0</ele><time>2026-04-06T11:45:25.009Z</time></trkpt><trkpt lat="45.7913647" lon="10.631302"><ele>1338.0</ele><time>2026-04-06T11:45:31.999Z</time></trkpt><trkpt lat="45.7913818" lon="10.6312132"><ele>1338.0</ele><time>2026-04-06T11:45:37.98Z</time></trkpt><trkpt lat="45.7914067" lon="10.6311261"><ele>1338.0</ele><time>2026-04-06T11:45:43.881Z</time></trkpt><trkpt lat="45.7914278" lon="10.6310356"><ele>1338.0</ele><time>2026-04-06T11:45:49.998Z</time></trkpt><trkpt lat="45.7914473" lon="10.6309375"><ele>1338.0</ele><time>2026-04-06T11:45:56.013Z</time></trkpt><trkpt lat="45.7914816" lon="10.6308509"><ele>1335.5714285714287</ele><time>2026-04-06T11:46:02.014Z</time></trkpt><trkpt lat="45.7915167" lon="10.6307739"><ele>1333.142857142857</ele><time>2026-04-06T11:46:07.927Z</time></trkpt><trkpt lat="45.7915552" lon="10.6306975"><ele>1330.7142857142858</ele><time>2026-04-06T11:46:14.998Z</time></trkpt><trkpt lat="45.7915977" lon="10.6306265"><ele>1328.2857142857142</ele><time>2026-04-06T11:46:20.988Z</time></trkpt><trkpt lat="45.7916448" lon="10.6305574"><ele>1325.857142857143</ele><time>2026-04-06T11:46:27.009Z</time></trkpt><trkpt lat="45.791693" lon="10.6304955"><ele>1323.4285714285713</ele><time>2026-04-06T11:46:34.014Z</time></trkpt><trkpt lat="45.7917366" lon="10.6304284"><ele>1321.0</ele><time>2026-04-06T11:46:39.969Z</time></trkpt><trkpt lat="45.7917621" lon="10.6303437"><ele>1322.4285714285713</ele><time>2026-04-06T11:46:45.998Z</time></trkpt><trkpt lat="45.791792" lon="10.6302629"><ele>1323.857142857143</ele><time>2026-04-06T11:46:51.974Z</time></trkpt><trkpt lat="45.7918182" lon="10.6301636"><ele>1325.2857142857142</ele><time>2026-04-06T11:46:59.014Z</time></trkpt><trkpt lat="45.7918287" lon="10.6300709"><ele>1326.7142857142858</ele><time>2026-04-06T11:47:04.991Z</time></trkpt><trkpt lat="45.7918335" lon="10.6299725"><ele>1328.142857142857</ele><time>2026-04-06T11:47:11.007Z</time></trkpt><trkpt lat="45.7918399" lon="10.6298824"><ele>1329.5714285714287</ele><time>2026-04-06T11:47:17.004Z</time></trkpt><trkpt lat="45.7918822" lon="10.629796"><ele>1331.0</ele><time>2026-04-06T11:47:24.031Z</time></trkpt><trkpt lat="45.7919267" lon="10.6297317"><ele>1331.0</ele><time>2026-04-06T11:47:31.004Z</time></trkpt><trkpt lat="45.7919799" lon="10.6296752"><ele>1331.0</ele><time>2026-04-06T11:47:38.993Z</time></trkpt><trkpt lat="45.7920275" lon="10.6296054"><ele>1331.0</ele><time>2026-04-06T11:47:47.907Z</time></trkpt><trkpt lat="45.7920612" lon="10.6295193"><ele>1331.0</ele><time>2026-04-06T11:47:56.063Z</time></trkpt><trkpt lat="45.7921169" lon="10.6294595"><ele>1331.0</ele><time>2026-04-06T11:48:03.007Z</time></trkpt><trkpt lat="45.7921782" lon="10.6294169"><ele>1331.0</ele><time>2026-04-06T11:48:08.994Z</time></trkpt><trkpt lat="45.7922219" lon="10.6293511"><ele>1331.0</ele><time>2026-04-06T11:48:14.916Z</time></trkpt><trkpt lat="45.7922705" lon="10.6292866"><ele>1327.7142857142858</ele><time>2026-04-06T11:48:21.019Z</time></trkpt><trkpt lat="45.7923203" lon="10.6292129"><ele>1324.4285714285713</ele><time>2026-04-06T11:48:26.975Z</time></trkpt><trkpt lat="45.7923529" lon="10.6291311"><ele>1321.142857142857</ele><time>2026-04-06T11:48:31.962Z</time></trkpt><trkpt lat="45.7923877" lon="10.6290478"><ele>1317.857142857143</ele><time>2026-04-06T11:48:38.008Z</time></trkpt><trkpt lat="45.7924219" lon="10.6289572"><ele>1314.5714285714287</ele><time>2026-04-06T11:48:43.92Z</time></trkpt><trkpt lat="45.7924419" lon="10.6288645"><ele>1311.2857142857142</ele><time>2026-04-06T11:48:50.005Z</time></trkpt><trkpt lat="45.792448" lon="10.6287736"><ele>1308.0</ele><time>2026-04-06T11:48:56.011Z</time></trkpt><trkpt lat="45.7924689" lon="10.628674"><ele>1309.7142857142858</ele><time>2026-04-06T11:49:02.987Z</time></trkpt><trkpt lat="45.7924944" lon="10.6285902"><ele>1311.4285714285716</ele><time>2026-04-06T11:49:10.006Z</time></trkpt><trkpt lat="45.7925245" lon="10.6285098"><ele>1313.1428571428573</ele><time>2026-04-06T11:49:15.979Z</time></trkpt><trkpt lat="45.7925594" lon="10.6284331"><ele>1314.857142857143</ele><time>2026-04-06T11:49:21.968Z</time></trkpt><trkpt lat="45.792606" lon="10.6283566"><ele>1316.5714285714287</ele><time>2026-04-06T11:49:27.981Z</time></trkpt><trkpt lat="45.7926392" lon="10.6282763"><ele>1318.2857142857144</ele><time>2026-04-06T11:49:32.984Z</time></trkpt><trkpt lat="45.792671" lon="10.6281947"><ele>1320.0</ele><time>2026-04-06T11:49:39.928Z</time></trkpt><trkpt lat="45.7926917" lon="10.6281072"><ele>1320.0000000000002</ele><time>2026-04-06T11:49:46.006Z</time></trkpt><trkpt lat="45.7927233" lon="10.6280187"><ele>1320.0</ele><time>2026-04-06T11:49:52.978Z</time></trkpt><trkpt lat="45.7927574" lon="10.6279394"><ele>1320.0</ele><time>2026-04-06T11:49:59.996Z</time></trkpt><trkpt lat="45.7928028" lon="10.6278614"><ele>1320.0</ele><time>2026-04-06T11:50:06.865Z</time></trkpt><trkpt lat="45.7928471" lon="10.627772"><ele>1320.0</ele><time>2026-04-06T11:50:13.926Z</time></trkpt><trkpt lat="45.792889" lon="10.6276955"><ele>1320.0000000000002</ele><time>2026-04-06T11:50:20.94Z</time></trkpt><trkpt lat="45.7929374" lon="10.6276213"><ele>1320.0</ele><time>2026-04-06T11:50:27.909Z</time></trkpt><trkpt lat="45.7929841" lon="10.6275531"><ele>1316.857142857143</ele><time>2026-04-06T11:50:34.004Z</time></trkpt><trkpt lat="45.7930335" lon="10.6274948"><ele>1313.7142857142858</ele><time>2026-04-06T11:50:40.021Z</time></trkpt><trkpt lat="45.7930868" lon="10.6274367"><ele>1310.5714285714284</ele><time>2026-04-06T11:50:46.027Z</time></trkpt><trkpt lat="45.7931369" lon="10.6273674"><ele>1307.4285714285716</ele><time>2026-04-06T11:50:51.978Z</time></trkpt><trkpt lat="45.7931767" lon="10.6272968"><ele>1304.2857142857142</ele><time>2026-04-06T11:50:58.004Z</time></trkpt><trkpt lat="45.7932244" lon="10.6272271"><ele>1301.142857142857</ele><time>2026-04-06T11:51:04.975Z</time></trkpt><trkpt lat="45.793273" lon="10.6271416"><ele>1298.0</ele><time>2026-04-06T11:51:11.003Z</time></trkpt><trkpt lat="45.7933185" lon="10.6270642"><ele>1297.9999999999998</ele><time>2026-04-06T11:51:17.028Z</time></trkpt><trkpt lat="45.7933785" lon="10.6270083"><ele>1298.0</ele><time>2026-04-06T11:51:23.99Z</time></trkpt><trkpt lat="45.7934342" lon="10.6269433"><ele>1298.0</ele><time>2026-04-06T11:51:29.967Z</time></trkpt><trkpt lat="45.7935004" lon="10.6269005"><ele>1298.0</ele><time>2026-04-06T11:51:36Z</time></trkpt><trkpt lat="45.7935625" lon="10.6268589"><ele>1298.0</ele><time>2026-04-06T11:51:41.941Z</time></trkpt><trkpt lat="45.7936274" lon="10.6268466"><ele>1297.9999999999998</ele><time>2026-04-06T11:51:47.994Z</time></trkpt><trkpt lat="45.7936804" lon="10.6267975"><ele>1298.0</ele><time>2026-04-06T11:51:55.03Z</time></trkpt><trkpt lat="45.7937428" lon="10.6267448"><ele>1300.8571428571427</ele><time>2026-04-06T11:52:02.042Z</time></trkpt><trkpt lat="45.7937978" lon="10.6266973"><ele>1303.7142857142858</ele><time>2026-04-06T11:52:07.974Z</time></trkpt><trkpt lat="45.793854" lon="10.6266398"><ele>1306.5714285714284</ele><time>2026-04-06T11:52:13.914Z</time></trkpt><trkpt lat="45.7939082" lon="10.6265767"><ele>1309.4285714285713</ele><time>2026-04-06T11:52:20.982Z</time></trkpt><trkpt lat="45.7939658" lon="10.6265217"><ele>1312.2857142857142</ele><time>2026-04-06T11:52:28.66Z</time></trkpt><trkpt lat="45.7939875" lon="10.6264248"><ele>1315.142857142857</ele><time>2026-04-06T11:52:38.016Z</time></trkpt><trkpt lat="45.793977" lon="10.6263264"><ele>1318.0</ele><time>2026-04-06T11:52:46.98Z</time></trkpt><trkpt lat="45.7939933" lon="10.6262283"><ele>1318.0</ele><time>2026-04-06T11:52:55.988Z</time></trkpt><trkpt lat="45.794027" lon="10.6261451"><ele>1318.0</ele><time>2026-04-06T11:53:01.999Z</time></trkpt><trkpt lat="45.7940511" lon="10.6260155"><ele>1318.0</ele><time>2026-04-06T11:53:15.01Z</time></trkpt><trkpt lat="45.7940579" lon="10.6259189"><ele>1318.0</ele><time>2026-04-06T11:53:19.022Z</time></trkpt><trkpt lat="45.7940862" lon="10.6258344"><ele>1318.0</ele><time>2026-04-06T11:53:25.996Z</time></trkpt><trkpt lat="45.7941454" lon="10.625787"><ele>1318.0</ele><time>2026-04-06T11:53:34.012Z</time></trkpt><trkpt lat="45.7941815" lon="10.6257081"><ele>1318.0</ele><time>2026-04-06T11:53:39.925Z</time></trkpt><trkpt lat="45.7941951" lon="10.6256101"><ele>1316.7142857142858</ele><time>2026-04-06T11:53:46.977Z</time></trkpt><trkpt lat="45.7941866" lon="10.6255189"><ele>1315.4285714285713</ele><time>2026-04-06T11:53:53.99Z</time></trkpt><trkpt lat="45.7941929" lon="10.6254171"><ele>1314.142857142857</ele><time>2026-04-06T11:54:00.995Z</time></trkpt><trkpt lat="45.7942138" lon="10.6253164"><ele>1312.857142857143</ele><time>2026-04-06T11:54:08.011Z</time></trkpt><trkpt lat="45.7942338" lon="10.6252282"><ele>1311.5714285714284</ele><time>2026-04-06T11:54:15Z</time></trkpt><trkpt lat="45.7942627" lon="10.6251353"><ele>1310.2857142857142</ele><time>2026-04-06T11:54:21.977Z</time></trkpt><trkpt lat="45.7942948" lon="10.6250338"><ele>1309.0</ele><time>2026-04-06T11:54:30.045Z</time></trkpt><trkpt lat="45.7943277" lon="10.624941"><ele>1312.857142857143</ele><time>2026-04-06T11:54:39.008Z</time></trkpt><trkpt lat="45.7943521" lon="10.6248449"><ele>1316.7142857142858</ele><time>2026-04-06T11:54:45.981Z</time></trkpt><trkpt lat="45.7943675" lon="10.6247558"><ele>1320.5714285714284</ele><time>2026-04-06T11:54:51.912Z</time></trkpt><trkpt lat="45.7943756" lon="10.6246647"><ele>1324.4285714285716</ele><time>2026-04-06T11:54:58.991Z</time></trkpt><trkpt lat="45.7944086" lon="10.624586"><ele>1328.2857142857142</ele><time>2026-04-06T11:55:06.042Z</time></trkpt><trkpt lat="45.7944648" lon="10.6245334"><ele>1332.142857142857</ele><time>2026-04-06T11:55:16.007Z</time></trkpt><trkpt lat="45.79453" lon="10.6245266"><ele>1336.0</ele><time>2026-04-06T11:55:23.999Z</time></trkpt><trkpt lat="45.794583" lon="10.6244616"><ele>1336.0</ele><time>2026-04-06T11:55:32.985Z</time></trkpt><trkpt lat="45.7946174" lon="10.6243831"><ele>1336.0</ele><time>2026-04-06T11:55:38.995Z</time></trkpt><trkpt lat="45.7946234" lon="10.624283"><ele>1336.0</ele><time>2026-04-06T11:55:44.003Z</time></trkpt><trkpt lat="45.7946243" lon="10.6241924"><ele>1336.0</ele><time>2026-04-06T11:55:48.995Z</time></trkpt><trkpt lat="45.7946053" lon="10.6240956"><ele>1336.0</ele><time>2026-04-06T11:55:54.001Z</time></trkpt><trkpt lat="45.7945747" lon="10.6240008"><ele>1336.0</ele><time>2026-04-06T11:55:59.001Z</time></trkpt><trkpt lat="45.7945586" lon="10.6239079"><ele>1336.0</ele><time>2026-04-06T11:56:03.97Z</time></trkpt><trkpt lat="45.7945608" lon="10.6238166"><ele>1336.0</ele><time>2026-04-06T11:56:08.995Z</time></trkpt><trkpt lat="45.7945676" lon="10.623712"><ele>1336.0</ele><time>2026-04-06T11:56:15.006Z</time></trkpt><trkpt lat="45.7945881" lon="10.6236223"><ele>1336.0</ele><time>2026-04-06T11:56:21.979Z</time></trkpt><trkpt lat="45.794635" lon="10.6235544"><ele>1336.0</ele><time>2026-04-06T11:56:28.953Z</time></trkpt><trkpt lat="45.794668" lon="10.6234743"><ele>1336.0</ele><time>2026-04-06T11:56:35.997Z</time></trkpt><trkpt lat="45.7946939" lon="10.6233914"><ele>1336.0</ele><time>2026-04-06T11:56:42.022Z</time></trkpt><trkpt lat="45.7947116" lon="10.6233015"><ele>1336.0</ele><time>2026-04-06T11:56:49.989Z</time></trkpt><trkpt lat="45.7947279" lon="10.6232016"><ele>1336.0</ele><time>2026-04-06T11:56:56.98Z</time></trkpt><trkpt lat="45.7947431" lon="10.6231033"><ele>1336.0</ele><time>2026-04-06T11:57:02.958Z</time></trkpt><trkpt lat="45.7947572" lon="10.6230076"><ele>1336.0</ele><time>2026-04-06T11:57:10.003Z</time></trkpt><trkpt lat="45.7947611" lon="10.6229029"><ele>1336.0</ele><time>2026-04-06T11:57:18.013Z</time></trkpt><trkpt lat="45.7947211" lon="10.6228219"><ele>1336.0</ele><time>2026-04-06T11:57:22.99Z</time></trkpt><trkpt lat="45.7946872" lon="10.6227458"><ele>1336.0</ele><time>2026-04-06T11:57:27.009Z</time></trkpt><trkpt lat="45.7946414" lon="10.6226733"><ele>1336.0</ele><time>2026-04-06T11:57:31.002Z</time></trkpt><trkpt lat="45.7945906" lon="10.6226088"><ele>1336.0</ele><time>2026-04-06T11:57:35.996Z</time></trkpt><trkpt lat="45.7945499" lon="10.6225393"><ele>1336.0</ele><time>2026-04-06T11:57:40.956Z</time></trkpt><trkpt lat="45.7945123" lon="10.6224482"><ele>1336.0</ele><time>2026-04-06T11:57:46.972Z</time></trkpt><trkpt lat="45.7944733" lon="10.6223751"><ele>1336.0</ele><time>2026-04-06T11:57:51.97Z</time></trkpt><trkpt lat="45.7944212" lon="10.6223153"><ele>1336.0</ele><time>2026-04-06T11:57:58.013Z</time></trkpt><trkpt lat="45.7943713" lon="10.6222533"><ele>1336.0</ele><time>2026-04-06T11:58:03.997Z</time></trkpt><trkpt lat="45.7943321" lon="10.6221723"><ele>1336.0</ele><time>2026-04-06T11:58:10.912Z</time></trkpt><trkpt lat="45.794292" lon="10.6220987"><ele>1331.5714285714284</ele><time>2026-04-06T11:58:16.985Z</time></trkpt><trkpt lat="45.7942278" lon="10.6220419"><ele>1327.142857142857</ele><time>2026-04-06T11:58:23.986Z</time></trkpt><trkpt lat="45.7941592" lon="10.6220057"><ele>1322.7142857142858</ele><time>2026-04-06T11:58:30.023Z</time></trkpt><trkpt lat="45.7941083" lon="10.6219438"><ele>1318.2857142857142</ele><time>2026-04-06T11:58:36.008Z</time></trkpt><trkpt lat="45.7940538" lon="10.6218819"><ele>1313.857142857143</ele><time>2026-04-06T11:58:42.99Z</time></trkpt><trkpt lat="45.7940146" lon="10.6218047"><ele>1309.4285714285713</ele><time>2026-04-06T11:58:49.994Z</time></trkpt><trkpt lat="45.7939714" lon="10.6217225"><ele>1305.0</ele><time>2026-04-06T11:58:56.925Z</time></trkpt><trkpt lat="45.7939443" lon="10.6216293"><ele>1305.0</ele><time>2026-04-06T11:59:06.947Z</time></trkpt><trkpt lat="45.7939466" lon="10.6215265"><ele>1305.0</ele><time>2026-04-06T11:59:18.887Z</time></trkpt><trkpt lat="45.7939833" lon="10.6214304"><ele>1305.0</ele><time>2026-04-06T11:59:27.003Z</time></trkpt><trkpt lat="45.793931" lon="10.6213014"><ele>1305.0</ele><time>2026-04-06T12:00:04.875Z</time></trkpt><trkpt lat="45.7938941" lon="10.6212197"><ele>1305.0</ele><time>2026-04-06T12:00:15.83Z</time></trkpt><trkpt lat="45.7938235" lon="10.6211934"><ele>1305.0</ele><time>2026-04-06T12:00:21.024Z</time></trkpt><trkpt lat="45.7937569" lon="10.6211927"><ele>1304.9999999999998</ele><time>2026-04-06T12:00:28.017Z</time></trkpt><trkpt lat="45.7936948" lon="10.6212237"><ele>1305.0</ele><time>2026-04-06T12:00:33.926Z</time></trkpt><trkpt lat="45.793627" lon="10.6212545"><ele>1305.0</ele><time>2026-04-06T12:00:40.014Z</time></trkpt><trkpt lat="45.7935607" lon="10.6212765"><ele>1305.0</ele><time>2026-04-06T12:00:45.999Z</time></trkpt><trkpt lat="45.793496" lon="10.621304"><ele>1305.0</ele><time>2026-04-06T12:00:53.019Z</time></trkpt><trkpt lat="45.793425" lon="10.6213276"><ele>1304.9999999999998</ele><time>2026-04-06T12:01:00.011Z</time></trkpt><trkpt lat="45.793353" lon="10.6213397"><ele>1305.0</ele><time>2026-04-06T12:01:07.002Z</time></trkpt><trkpt lat="45.7932927" lon="10.6213694"><ele>1304.142857142857</ele><time>2026-04-06T12:01:13.018Z</time></trkpt><trkpt lat="45.7932288" lon="10.6213864"><ele>1303.2857142857142</ele><time>2026-04-06T12:01:22.835Z</time></trkpt><trkpt lat="45.793168" lon="10.6214187"><ele>1302.4285714285716</ele><time>2026-04-06T12:01:28.962Z</time></trkpt><trkpt lat="45.7931007" lon="10.6214031"><ele>1301.5714285714284</ele><time>2026-04-06T12:01:35.981Z</time></trkpt><trkpt lat="45.7930295" lon="10.6213862"><ele>1300.7142857142858</ele><time>2026-04-06T12:01:43.994Z</time></trkpt><trkpt lat="45.7929603" lon="10.6213824"><ele>1299.857142857143</ele><time>2026-04-06T12:01:51.945Z</time></trkpt><trkpt lat="45.7928985" lon="10.6214007"><ele>1299.0</ele><time>2026-04-06T12:01:57.927Z</time></trkpt><trkpt lat="45.7928305" lon="10.6214292"><ele>1299.0000000000002</ele><time>2026-04-06T12:02:03.914Z</time></trkpt><trkpt lat="45.792765" lon="10.6214518"><ele>1299.0</ele><time>2026-04-06T12:02:10.021Z</time></trkpt><trkpt lat="45.7927086" lon="10.6213907"><ele>1299.0</ele><time>2026-04-06T12:02:17.179Z</time></trkpt><trkpt lat="45.792658" lon="10.6213269"><ele>1299.0</ele><time>2026-04-06T12:02:27.013Z</time></trkpt><trkpt lat="45.7925954" lon="10.6212722"><ele>1299.0</ele><time>2026-04-06T12:02:40.007Z</time></trkpt><trkpt lat="45.7925497" lon="10.6212063"><ele>1299.0000000000002</ele><time>2026-04-06T12:02:46.986Z</time></trkpt><trkpt lat="45.79251" lon="10.6211318"><ele>1299.0</ele><time>2026-04-06T12:02:56.074Z</time></trkpt><trkpt lat="45.792464" lon="10.6210561"><ele>1298.857142857143</ele><time>2026-04-06T12:03:07.986Z</time></trkpt><trkpt lat="45.7924311" lon="10.6209752"><ele>1298.7142857142858</ele><time>2026-04-06T12:03:16.999Z</time></trkpt><trkpt lat="45.792386" lon="10.6209107"><ele>1298.5714285714284</ele><time>2026-04-06T12:03:24.987Z</time></trkpt><trkpt lat="45.7923265" lon="10.6208663"><ele>1298.4285714285716</ele><time>2026-04-06T12:03:33.994Z</time></trkpt><trkpt lat="45.7922753" lon="10.6207933"><ele>1298.2857142857142</ele><time>2026-04-06T12:03:40.98Z</time></trkpt><trkpt lat="45.7922179" lon="10.6207441"><ele>1298.142857142857</ele><time>2026-04-06T12:03:45.977Z</time></trkpt><trkpt lat="45.7921672" lon="10.6206856"><ele>1298.0</ele><time>2026-04-06T12:03:50.999Z</time></trkpt><trkpt lat="45.7921112" lon="10.6206359"><ele>1297.9999999999998</ele><time>2026-04-06T12:03:55.973Z</time></trkpt><trkpt lat="45.7920543" lon="10.6205965"><ele>1298.0</ele><time>2026-04-06T12:04:00.923Z</time></trkpt><trkpt lat="45.7919988" lon="10.620549"><ele>1298.0</ele><time>2026-04-06T12:04:05.925Z</time></trkpt><trkpt lat="45.7919397" lon="10.6205136"><ele>1298.0</ele><time>2026-04-06T12:04:10.949Z</time></trkpt><trkpt lat="45.7918694" lon="10.6204916"><ele>1298.0</ele><time>2026-04-06T12:04:17.929Z</time></trkpt><trkpt lat="45.7918072" lon="10.6204737"><ele>1297.9999999999998</ele><time>2026-04-06T12:04:29.003Z</time></trkpt><trkpt lat="45.7917501" lon="10.620429"><ele>1298.0</ele><time>2026-04-06T12:04:34.986Z</time></trkpt><trkpt lat="45.791716" lon="10.6203508"><ele>1294.5714285714284</ele><time>2026-04-06T12:04:41.009Z</time></trkpt><trkpt lat="45.79166" lon="10.6202868"><ele>1291.142857142857</ele><time>2026-04-06T12:04:49.983Z</time></trkpt><trkpt lat="45.7916121" lon="10.6202156"><ele>1287.7142857142858</ele><time>2026-04-06T12:04:56.007Z</time></trkpt><trkpt lat="45.7915559" lon="10.6201476"><ele>1284.2857142857142</ele><time>2026-04-06T12:05:02.999Z</time></trkpt><trkpt lat="45.7915116" lon="10.6200784"><ele>1280.857142857143</ele><time>2026-04-06T12:05:20.929Z</time></trkpt><trkpt lat="45.7914581" lon="10.6200173"><ele>1277.4285714285713</ele><time>2026-04-06T12:05:29.978Z</time></trkpt><trkpt lat="45.7914422" lon="10.6199232"><ele>1274.0</ele><time>2026-04-06T12:05:39.006Z</time></trkpt><trkpt lat="45.7914354" lon="10.6198231"><ele>1274.0</ele><time>2026-04-06T12:05:50.961Z</time></trkpt><trkpt lat="45.7914358" lon="10.6197225"><ele>1274.0</ele><time>2026-04-06T12:05:58.991Z</time></trkpt><trkpt lat="45.7914317" lon="10.619625"><ele>1274.0</ele><time>2026-04-06T12:06:07.977Z</time></trkpt><trkpt lat="45.7914169" lon="10.6195326"><ele>1274.0</ele><time>2026-04-06T12:06:15.992Z</time></trkpt><trkpt lat="45.791374" lon="10.6194622"><ele>1274.0</ele><time>2026-04-06T12:06:20.979Z</time></trkpt><trkpt lat="45.7913193" lon="10.619408"><ele>1274.0</ele><time>2026-04-06T12:06:26.998Z</time></trkpt><trkpt lat="45.7912703" lon="10.6193461"><ele>1274.0</ele><time>2026-04-06T12:06:32.455Z</time></trkpt><trkpt lat="45.7912206" lon="10.6192632"><ele>1273.857142857143</ele><time>2026-04-06T12:06:38.012Z</time></trkpt><trkpt lat="45.7911752" lon="10.6191978"><ele>1273.7142857142858</ele><time>2026-04-06T12:06:42.908Z</time></trkpt><trkpt lat="45.7911208" lon="10.6191477"><ele>1273.5714285714284</ele><time>2026-04-06T12:06:49.006Z</time></trkpt><trkpt lat="45.7910524" lon="10.619117"><ele>1273.4285714285716</ele><time>2026-04-06T12:06:55.99Z</time></trkpt><trkpt lat="45.7909875" lon="10.6190902"><ele>1273.2857142857142</ele><time>2026-04-06T12:07:02.994Z</time></trkpt><trkpt lat="45.7909184" lon="10.6190624"><ele>1273.142857142857</ele><time>2026-04-06T12:07:09.989Z</time></trkpt><trkpt lat="45.7908526" lon="10.6190508"><ele>1273.0</ele><time>2026-04-06T12:07:16.985Z</time></trkpt><trkpt lat="45.7907847" lon="10.6190387"><ele>1271.142857142857</ele><time>2026-04-06T12:07:24.975Z</time></trkpt><trkpt lat="45.7907273" lon="10.6189925"><ele>1269.2857142857142</ele><time>2026-04-06T12:07:31.993Z</time></trkpt><trkpt lat="45.7906754" lon="10.6189246"><ele>1267.4285714285716</ele><time>2026-04-06T12:07:38.006Z</time></trkpt><trkpt lat="45.7906238" lon="10.6188532"><ele>1265.5714285714284</ele><time>2026-04-06T12:07:45.013Z</time></trkpt><trkpt lat="45.7905595" lon="10.6188148"><ele>1263.7142857142858</ele><time>2026-04-06T12:07:53.007Z</time></trkpt><trkpt lat="45.7905054" lon="10.6187654"><ele>1261.857142857143</ele><time>2026-04-06T12:07:59.99Z</time></trkpt><trkpt lat="45.790461" lon="10.6186999"><ele>1260.0</ele><time>2026-04-06T12:08:08.009Z</time></trkpt><trkpt lat="45.7904016" lon="10.6186573"><ele>1261.142857142857</ele><time>2026-04-06T12:08:15.001Z</time></trkpt><trkpt lat="45.7903451" lon="10.6186166"><ele>1262.2857142857142</ele><time>2026-04-06T12:08:21.989Z</time></trkpt><trkpt lat="45.790287" lon="10.6185667"><ele>1263.4285714285716</ele><time>2026-04-06T12:08:28.997Z</time></trkpt><trkpt lat="45.790228" lon="10.6185313"><ele>1264.5714285714284</ele><time>2026-04-06T12:08:35.985Z</time></trkpt><trkpt lat="45.7901656" lon="10.6184918"><ele>1265.7142857142858</ele><time>2026-04-06T12:08:42.972Z</time></trkpt><trkpt lat="45.7900993" lon="10.6184693"><ele>1266.857142857143</ele><time>2026-04-06T12:08:49.955Z</time></trkpt><trkpt lat="45.7900467" lon="10.6184184"><ele>1268.0</ele><time>2026-04-06T12:08:59.977Z</time></trkpt><trkpt lat="45.7900136" lon="10.6183187"><ele>1264.142857142857</ele><time>2026-04-06T12:09:20.982Z</time></trkpt><trkpt lat="45.7899584" lon="10.618274"><ele>1260.2857142857142</ele><time>2026-04-06T12:09:27.985Z</time></trkpt><trkpt lat="45.7898894" lon="10.6182521"><ele>1256.4285714285716</ele><time>2026-04-06T12:09:34.997Z</time></trkpt><trkpt lat="45.7898566" lon="10.6181703"><ele>1252.5714285714284</ele><time>2026-04-06T12:09:46.93Z</time></trkpt><trkpt lat="45.7898177" lon="10.6180922"><ele>1248.7142857142856</ele><time>2026-04-06T12:09:54.995Z</time></trkpt><trkpt lat="45.7897791" lon="10.6180132"><ele>1244.857142857143</ele><time>2026-04-06T12:10:04.011Z</time></trkpt><trkpt lat="45.7897486" lon="10.6179252"><ele>1241.0</ele><time>2026-04-06T12:10:13.002Z</time></trkpt><trkpt lat="45.7897085" lon="10.617841"><ele>1241.0</ele><time>2026-04-06T12:10:25.984Z</time></trkpt><trkpt lat="45.7896576" lon="10.61777"><ele>1239.0</ele><time>2026-04-06T12:10:32.993Z</time></trkpt><trkpt lat="45.789608" lon="10.6177036"><ele>1239.0</ele><time>2026-04-06T12:10:39.964Z</time></trkpt><trkpt lat="45.7895756" lon="10.6176205"><ele>1239.0</ele><time>2026-04-06T12:10:45.994Z</time></trkpt><trkpt lat="45.789523" lon="10.6175428"><ele>1239.0</ele><time>2026-04-06T12:10:53.024Z</time></trkpt><trkpt lat="45.789485" lon="10.6174588"><ele>1239.0</ele><time>2026-04-06T12:10:58.977Z</time></trkpt></trkseg></trk></gpx>